PWSweather.com
Personal Weather Stations
Station Observations
HVALPSUND
Hvalpsund, FarsoeDK 9640

HvalpsundFarsoeDK 9640

Lat: 56.705311, Lon: 9.203638

Elevation: 5

Station Type: Vantage Pro2

http://hvalpsundvejr.dk

High Low Average
Temperature 64.3°F17.9°C 49.0°F9.4°C 56.6°F13.7°C
Dew Point 55.9°F13.3°C 46.6°F8.1°C 51.5°F10.8°C
Winds 13.4 mph 21.6 kmh Calm Calm 5.0 mph E8.0 kmh E
Wind Gusts 15.0 mph24.1 kmh -- 6.0 mph9.7 kmh
Humidity 94% 69% 83%
Pressure 30.02 in1016.6 mb 29.95 in1014.2 mb -
Precipitation 0.00 in0.0 mm - -
Hour Temp Dew Point Humidity Winds Wind Gusts Pressure Precip Precip Rate Daily Precip Total
12:00 AM 52.1°F11.2°C 47.4°F8.6°C 84% 3.8 mph ENE6.1 kmh ENE 5.0 mph8.0 kmh 29.98 in1015.2 mb 0.00 in0.0 mm 0.00 in0.0 mm 0.00 in0.0 mm
12:01 AM 52.1°F11.2°C 47.4°F8.6°C 84% 4.0 mph ENE6.4 kmh ENE 5.0 mph8.0 kmh 29.98 in1015.2 mb 0.00 in0.0 mm 0.00 in0.0 mm 0.00 in0.0 mm
12:02 AM 52.0°F11.1°C 47.3°F8.5°C 84% 3.7 mph ENE6.0 kmh ENE 5.0 mph8.0 kmh 29.98 in1015.2 mb 0.00 in0.0 mm 0.00 in0.0 mm 0.00 in0.0 mm
12:03 AM 52.0°F11.1°C 47.3°F8.5°C 84% 3.4 mph ENE5.5 kmh ENE 4.0 mph6.4 kmh 29.98 in1015.2 mb 0.00 in0.0 mm 0.00 in0.0 mm 0.00 in0.0 mm
12:04 AM 51.9°F11.1°C 47.2°F8.4°C 84% 3.1 mph ENE5.0 kmh ENE 4.0 mph6.4 kmh 29.98 in1015.2 mb 0.00 in0.0 mm 0.00 in0.0 mm 0.00 in0.0 mm
12:05 AM 51.9°F11.1°C 47.2°F8.4°C 84% 3.1 mph ENE5.0 kmh ENE 4.0 mph6.4 kmh 29.98 in1015.2 mb 0.00 in0.0 mm 0.00 in0.0 mm 0.00 in0.0 mm
12:06 AM 51.8°F11.0°C 47.1°F8.4°C 84% 3.3 mph ENE5.3 kmh ENE 4.0 mph6.4 kmh 29.98 in1015.2 mb 0.00 in0.0 mm 0.00 in0.0 mm 0.00 in0.0 mm
12:07 AM 51.8°F11.0°C 47.1°F8.4°C 84% 2.9 mph ENE4.7 kmh ENE 4.0 mph6.4 kmh 29.98 in1015.2 mb 0.00 in0.0 mm 0.00 in0.0 mm 0.00 in0.0 mm
12:08 AM 51.7°F10.9°C 47.0°F8.3°C 84% 2.7 mph ENE4.3 kmh ENE 4.0 mph6.4 kmh 29.98 in1015.2 mb 0.00 in0.0 mm 0.00 in0.0 mm 0.00 in0.0 mm
12:09 AM 51.7°F10.9°C 47.0°F8.3°C 84% 3.0 mph ENE4.8 kmh ENE 3.0 mph4.8 kmh 29.98 in1015.2 mb 0.00 in0.0 mm 0.00 in0.0 mm 0.00 in0.0 mm
12:10 AM 51.7°F10.9°C 47.0°F8.3°C 84% 2.9 mph ENE4.7 kmh ENE 3.0 mph4.8 kmh 29.98 in1015.2 mb 0.00 in0.0 mm 0.00 in0.0 mm 0.00 in0.0 mm
12:11 AM 51.6°F10.9°C 46.9°F8.3°C 84% 2.4 mph ENE3.9 kmh ENE 3.0 mph4.8 kmh 29.98 in1015.2 mb 0.00 in0.0 mm 0.00 in0.0 mm 0.00 in0.0 mm
12:12 AM 51.6°F10.9°C 46.9°F8.3°C 84% 2.5 mph ENE4.0 kmh ENE 3.0 mph4.8 kmh 29.98 in1015.2 mb 0.00 in0.0 mm 0.00 in0.0 mm 0.00 in0.0 mm
12:13 AM 51.5°F10.8°C 46.8°F8.2°C 84% 2.9 mph ENE4.7 kmh ENE 3.0 mph4.8 kmh 29.97 in1014.9 mb 0.00 in0.0 mm 0.00 in0.0 mm 0.00 in0.0 mm
12:14 AM 51.5°F10.8°C 47.1°F8.4°C 85% 2.6 mph ENE4.2 kmh ENE 3.0 mph4.8 kmh 29.97 in1014.9 mb 0.00 in0.0 mm 0.00 in0.0 mm 0.00 in0.0 mm
12:15 AM 51.4°F10.8°C 47.0°F8.3°C 85% 2.3 mph ENE3.7 kmh ENE 3.0 mph4.8 kmh 29.97 in1014.9 mb 0.00 in0.0 mm 0.00 in0.0 mm 0.00 in0.0 mm
12:16 AM 51.4°F10.8°C 47.0°F8.3°C 85% 2.4 mph ENE3.9 kmh ENE 3.0 mph4.8 kmh 29.97 in1014.9 mb 0.00 in0.0 mm 0.00 in0.0 mm 0.00 in0.0 mm
12:17 AM 51.4°F10.8°C 47.0°F8.3°C 85% 2.4 mph ENE3.9 kmh ENE 3.0 mph4.8 kmh 29.97 in1014.9 mb 0.00 in0.0 mm 0.00 in0.0 mm 0.00 in0.0 mm
12:18 AM 51.4°F10.8°C 47.0°F8.3°C 85% 2.2 mph ENE3.5 kmh ENE 3.0 mph4.8 kmh 29.97 in1014.9 mb 0.00 in0.0 mm 0.00 in0.0 mm 0.00 in0.0 mm
12:19 AM 51.3°F10.7°C 46.9°F8.3°C 85% 2.1 mph ENE3.4 kmh ENE 3.0 mph4.8 kmh 29.97 in1014.9 mb 0.00 in0.0 mm 0.00 in0.0 mm 0.00 in0.0 mm
12:20 AM 51.3°F10.7°C 46.9°F8.3°C 85% 2.1 mph ENE3.4 kmh ENE 3.0 mph4.8 kmh 29.97 in1014.9 mb 0.00 in0.0 mm 0.00 in0.0 mm 0.00 in0.0 mm
12:21 AM 51.2°F10.7°C 46.8°F8.2°C 85% 1.7 mph ENE2.7 kmh ENE 3.0 mph4.8 kmh 29.97 in1014.9 mb 0.00 in0.0 mm 0.00 in0.0 mm 0.00 in0.0 mm
12:22 AM 51.2°F10.7°C 46.8°F8.2°C 85% 2.3 mph ENE3.7 kmh ENE 3.0 mph4.8 kmh 29.97 in1014.9 mb 0.00 in0.0 mm 0.00 in0.0 mm 0.00 in0.0 mm
12:23 AM 51.2°F10.7°C 46.8°F8.2°C 85% 1.9 mph ENE3.1 kmh ENE 3.0 mph4.8 kmh 29.97 in1014.9 mb 0.00 in0.0 mm 0.00 in0.0 mm 0.00 in0.0 mm
12:24 AM 51.2°F10.7°C 46.8°F8.2°C 85% 1.1 mph ENE1.8 kmh ENE 3.0 mph4.8 kmh 29.97 in1014.9 mb 0.00 in0.0 mm 0.00 in0.0 mm 0.00 in0.0 mm
12:25 AM 51.2°F10.7°C 46.8°F8.2°C 85% Calm Calm 3.0 mph4.8 kmh 29.97 in1014.9 mb 0.00 in0.0 mm 0.00 in0.0 mm 0.00 in0.0 mm
12:26 AM 51.2°F10.7°C 46.8°F8.2°C 85% Calm Calm -- 29.97 in1014.9 mb 0.00 in0.0 mm 0.00 in0.0 mm 0.00 in0.0 mm
12:27 AM 51.1°F10.6°C 46.7°F8.2°C 85% 0.1 mph ENE0.2 kmh ENE 1.0 mph1.6 kmh 29.97 in1014.9 mb 0.00 in0.0 mm 0.00 in0.0 mm 0.00 in0.0 mm
12:28 AM 51.1°F10.6°C 47.1°F8.4°C 86% 0.2 mph ENE0.3 kmh ENE 1.0 mph1.6 kmh 29.97 in1014.9 mb 0.00 in0.0 mm 0.00 in0.0 mm 0.00 in0.0 mm
12:29 AM 51.2°F10.7°C 47.2°F8.4°C 86% 0.1 mph ENE0.2 kmh ENE 1.0 mph1.6 kmh 29.97 in1014.9 mb 0.00 in0.0 mm 0.00 in0.0 mm 0.00 in0.0 mm
12:30 AM 51.1°F10.6°C 47.1°F8.4°C 86% Calm Calm 1.0 mph1.6 kmh 29.97 in1014.9 mb 0.00 in0.0 mm 0.00 in0.0 mm 0.00 in0.0 mm
12:31 AM 51.1°F10.6°C 47.1°F8.4°C 86% 0.7 mph ENE1.1 kmh ENE 2.0 mph3.2 kmh 29.97 in1014.9 mb 0.00 in0.0 mm 0.00 in0.0 mm 0.00 in0.0 mm
12:32 AM 51.1°F10.6°C 47.1°F8.4°C 86% 0.9 mph ENE1.4 kmh ENE 2.0 mph3.2 kmh 29.97 in1014.9 mb 0.00 in0.0 mm 0.00 in0.0 mm 0.00 in0.0 mm
12:33 AM 51.1°F10.6°C 47.1°F8.4°C 86% 1.1 mph ENE1.8 kmh ENE 2.0 mph3.2 kmh 29.97 in1014.9 mb 0.00 in0.0 mm 0.00 in0.0 mm 0.00 in0.0 mm
12:34 AM 51.1°F10.6°C 47.1°F8.4°C 86% 1.2 mph ENE1.9 kmh ENE 2.0 mph3.2 kmh 29.97 in1014.9 mb 0.00 in0.0 mm 0.00 in0.0 mm 0.00 in0.0 mm
12:35 AM 51.0°F10.6°C 47.0°F8.3°C 86% 1.1 mph ENE1.8 kmh ENE 2.0 mph3.2 kmh 29.97 in1014.9 mb 0.00 in0.0 mm 0.00 in0.0 mm 0.00 in0.0 mm
12:36 AM 51.1°F10.6°C 47.1°F8.4°C 86% 0.7 mph ENE1.1 kmh ENE 2.0 mph3.2 kmh 29.97 in1014.9 mb 0.00 in0.0 mm 0.00 in0.0 mm 0.00 in0.0 mm
12:37 AM 51.1°F10.6°C 47.1°F8.4°C 86% 0.8 mph ENE1.3 kmh ENE 1.0 mph1.6 kmh 29.97 in1014.9 mb 0.00 in0.0 mm 0.00 in0.0 mm 0.00 in0.0 mm
12:38 AM 51.1°F10.6°C 47.1°F8.4°C 86% 0.6 mph ENE1.0 kmh ENE 1.0 mph1.6 kmh 29.97 in1014.9 mb 0.00 in0.0 mm 0.00 in0.0 mm 0.00 in0.0 mm
12:39 AM 51.1°F10.6°C 47.1°F8.4°C 86% 0.9 mph ENE1.4 kmh ENE 2.0 mph3.2 kmh 29.97 in1014.9 mb 0.00 in0.0 mm 0.00 in0.0 mm 0.00 in0.0 mm
12:40 AM 51.0°F10.6°C 46.7°F8.2°C 85% 1.3 mph ENE2.1 kmh ENE 2.0 mph3.2 kmh 29.97 in1014.9 mb 0.00 in0.0 mm 0.00 in0.0 mm 0.00 in0.0 mm
12:41 AM 51.1°F10.6°C 46.7°F8.2°C 85% 1.5 mph ENE2.4 kmh ENE 2.0 mph3.2 kmh 29.97 in1014.9 mb 0.00 in0.0 mm 0.00 in0.0 mm 0.00 in0.0 mm
12:42 AM 51.0°F10.6°C 46.7°F8.2°C 85% 1.7 mph ENE2.7 kmh ENE 2.0 mph3.2 kmh 29.97 in1014.9 mb 0.00 in0.0 mm 0.00 in0.0 mm 0.00 in0.0 mm
12:43 AM 51.0°F10.6°C 46.7°F8.2°C 85% 1.2 mph ENE1.9 kmh ENE 2.0 mph3.2 kmh 29.97 in1014.9 mb 0.00 in0.0 mm 0.00 in0.0 mm 0.00 in0.0 mm
12:44 AM 51.0°F10.6°C 46.7°F8.2°C 85% 1.2 mph ENE1.9 kmh ENE 2.0 mph3.2 kmh 29.97 in1014.9 mb 0.00 in0.0 mm 0.00 in0.0 mm 0.00 in0.0 mm
12:45 AM 51.1°F10.6°C 46.7°F8.2°C 85% 1.2 mph ENE1.9 kmh ENE 2.0 mph3.2 kmh 29.97 in1014.9 mb 0.00 in0.0 mm 0.00 in0.0 mm 0.00 in0.0 mm
12:46 AM 51.1°F10.6°C 46.7°F8.2°C 85% 1.0 mph ENE1.6 kmh ENE 2.0 mph3.2 kmh 29.97 in1014.9 mb 0.00 in0.0 mm 0.00 in0.0 mm 0.00 in0.0 mm
12:47 AM 51.1°F10.6°C 46.7°F8.2°C 85% 0.5 mph ENE0.8 kmh ENE 1.0 mph1.6 kmh 29.97 in1014.9 mb 0.00 in0.0 mm 0.00 in0.0 mm 0.00 in0.0 mm
12:48 AM 51.1°F10.6°C 46.7°F8.2°C 85% 0.6 mph ENE1.0 kmh ENE 1.0 mph1.6 kmh 29.97 in1014.9 mb 0.00 in0.0 mm 0.00 in0.0 mm 0.00 in0.0 mm
12:49 AM 51.2°F10.7°C 46.8°F8.2°C 85% 0.7 mph ENE1.1 kmh ENE 1.0 mph1.6 kmh 29.97 in1014.9 mb 0.00 in0.0 mm 0.00 in0.0 mm 0.00 in0.0 mm
12:50 AM 51.2°F10.7°C 46.8°F8.2°C 85% 0.5 mph ENE0.8 kmh ENE 1.0 mph1.6 kmh 29.97 in1014.9 mb 0.00 in0.0 mm 0.00 in0.0 mm 0.00 in0.0 mm
12:51 AM 51.2°F10.7°C 46.8°F8.2°C 85% 1.2 mph ENE1.9 kmh ENE 2.0 mph3.2 kmh 29.97 in1014.9 mb 0.00 in0.0 mm 0.00 in0.0 mm 0.00 in0.0 mm
12:52 AM 51.1°F10.6°C 46.7°F8.2°C 85% 1.3 mph ENE2.1 kmh ENE 2.0 mph3.2 kmh 29.97 in1014.9 mb 0.00 in0.0 mm 0.00 in0.0 mm 0.00 in0.0 mm
12:53 AM 51.2°F10.7°C 46.8°F8.2°C 85% 1.5 mph ENE2.4 kmh ENE 2.0 mph3.2 kmh 29.97 in1014.9 mb 0.00 in0.0 mm 0.00 in0.0 mm 0.00 in0.0 mm
12:54 AM 51.1°F10.6°C 46.7°F8.2°C 85% 1.9 mph ENE3.1 kmh ENE 2.0 mph3.2 kmh 29.97 in1014.9 mb 0.00 in0.0 mm 0.00 in0.0 mm 0.00 in0.0 mm
12:55 AM 51.1°F10.6°C 46.7°F8.2°C 85% 2.0 mph ENE3.2 kmh ENE 3.0 mph4.8 kmh 29.97 in1014.9 mb 0.00 in0.0 mm 0.00 in0.0 mm 0.00 in0.0 mm
12:56 AM 51.0°F10.6°C 46.7°F8.2°C 85% 2.2 mph ENE3.5 kmh ENE 3.0 mph4.8 kmh 29.97 in1014.9 mb 0.00 in0.0 mm 0.00 in0.0 mm 0.00 in0.0 mm
12:57 AM 51.0°F10.6°C 46.7°F8.2°C 85% 1.8 mph ENE2.9 kmh ENE 3.0 mph4.8 kmh 29.97 in1014.9 mb 0.00 in0.0 mm 0.00 in0.0 mm 0.00 in0.0 mm
12:58 AM 51.0°F10.6°C 46.7°F8.2°C 85% 1.9 mph ENE3.1 kmh ENE 2.0 mph3.2 kmh 29.97 in1014.9 mb 0.00 in0.0 mm 0.00 in0.0 mm 0.00 in0.0 mm
12:59 AM 50.9°F10.5°C 46.9°F8.3°C 86% 1.5 mph ENE2.4 kmh ENE 2.0 mph3.2 kmh 29.97 in1014.9 mb 0.00 in0.0 mm 0.00 in0.0 mm 0.00 in0.0 mm
01:00 AM 50.9°F10.5°C 46.9°F8.3°C 86% 1.4 mph ENE2.3 kmh ENE 2.0 mph3.2 kmh 29.97 in1014.9 mb 0.00 in0.0 mm 0.00 in0.0 mm 0.00 in0.0 mm
01:01 AM 50.9°F10.5°C 46.9°F8.3°C 86% 1.1 mph ENE1.8 kmh ENE 2.0 mph3.2 kmh 29.97 in1014.9 mb 0.00 in0.0 mm 0.00 in0.0 mm 0.00 in0.0 mm
01:02 AM 50.9°F10.5°C 46.9°F8.3°C 86% 1.3 mph ENE2.1 kmh ENE 2.0 mph3.2 kmh 29.97 in1014.9 mb 0.00 in0.0 mm 0.00 in0.0 mm 0.00 in0.0 mm
01:03 AM 50.9°F10.5°C 46.9°F8.3°C 86% 1.4 mph ENE2.3 kmh ENE 2.0 mph3.2 kmh 29.97 in1014.9 mb 0.00 in0.0 mm 0.00 in0.0 mm 0.00 in0.0 mm
01:04 AM 50.9°F10.5°C 46.9°F8.3°C 86% 1.1 mph ENE1.8 kmh ENE 2.0 mph3.2 kmh 29.97 in1014.9 mb 0.00 in0.0 mm 0.00 in0.0 mm 0.00 in0.0 mm
01:05 AM 50.8°F10.4°C 46.8°F8.2°C 86% 1.4 mph ENE2.3 kmh ENE 2.0 mph3.2 kmh 29.97 in1014.9 mb 0.00 in0.0 mm 0.00 in0.0 mm 0.00 in0.0 mm
01:06 AM 50.8°F10.4°C 46.8°F8.2°C 86% 1.3 mph ENE2.1 kmh ENE 2.0 mph3.2 kmh 29.97 in1014.9 mb 0.00 in0.0 mm 0.00 in0.0 mm 0.00 in0.0 mm
01:07 AM 50.8°F10.4°C 46.8°F8.2°C 86% 1.4 mph ENE2.3 kmh ENE 2.0 mph3.2 kmh 29.97 in1014.9 mb 0.00 in0.0 mm 0.00 in0.0 mm 0.00 in0.0 mm
01:08 AM 50.7°F10.4°C 46.7°F8.2°C 86% 1.3 mph ENE2.1 kmh ENE 2.0 mph3.2 kmh 29.97 in1014.9 mb 0.00 in0.0 mm 0.00 in0.0 mm 0.00 in0.0 mm
01:09 AM 50.7°F10.4°C 46.7°F8.2°C 86% 1.1 mph ENE1.8 kmh ENE 2.0 mph3.2 kmh 29.97 in1014.9 mb 0.00 in0.0 mm 0.00 in0.0 mm 0.00 in0.0 mm
01:10 AM 50.7°F10.4°C 47.0°F8.3°C 87% 0.7 mph ENE1.1 kmh ENE 2.0 mph3.2 kmh 29.97 in1014.9 mb 0.00 in0.0 mm 0.00 in0.0 mm 0.00 in0.0 mm
01:11 AM 50.6°F10.3°C 46.9°F8.3°C 87% 0.6 mph ENE1.0 kmh ENE 1.0 mph1.6 kmh 29.97 in1014.9 mb 0.00 in0.0 mm 0.00 in0.0 mm 0.00 in0.0 mm
01:12 AM 50.6°F10.3°C 46.9°F8.3°C 87% 0.3 mph ENE0.5 kmh ENE 1.0 mph1.6 kmh 29.97 in1014.9 mb 0.00 in0.0 mm 0.00 in0.0 mm 0.00 in0.0 mm
01:13 AM 50.6°F10.3°C 46.9°F8.3°C 87% 0.5 mph ENE0.8 kmh ENE 1.0 mph1.6 kmh 29.97 in1014.9 mb 0.00 in0.0 mm 0.00 in0.0 mm 0.00 in0.0 mm
01:14 AM 50.6°F10.3°C 47.2°F8.4°C 88% 1.0 mph ENE1.6 kmh ENE 2.0 mph3.2 kmh 29.97 in1014.9 mb 0.00 in0.0 mm 0.00 in0.0 mm 0.00 in0.0 mm
01:15 AM 50.6°F10.3°C 47.2°F8.4°C 88% 1.5 mph ENE2.4 kmh ENE 2.0 mph3.2 kmh 29.97 in1014.9 mb 0.00 in0.0 mm 0.00 in0.0 mm 0.00 in0.0 mm
01:16 AM 50.6°F10.3°C 47.2°F8.4°C 88% 1.5 mph ENE2.4 kmh ENE 2.0 mph3.2 kmh 29.97 in1014.9 mb 0.00 in0.0 mm 0.00 in0.0 mm 0.00 in0.0 mm
01:17 AM 50.6°F10.3°C 47.2°F8.4°C 88% 1.7 mph ENE2.7 kmh ENE 2.0 mph3.2 kmh 29.97 in1014.9 mb 0.00 in0.0 mm 0.00 in0.0 mm 0.00 in0.0 mm
01:18 AM 50.6°F10.3°C 47.2°F8.4°C 88% 1.9 mph ENE3.1 kmh ENE 3.0 mph4.8 kmh 29.97 in1014.9 mb 0.00 in0.0 mm 0.00 in0.0 mm 0.00 in0.0 mm
01:19 AM 50.5°F10.3°C 46.8°F8.2°C 87% 1.9 mph ENE3.1 kmh ENE 3.0 mph4.8 kmh 29.97 in1014.9 mb 0.00 in0.0 mm 0.00 in0.0 mm 0.00 in0.0 mm
01:20 AM 50.5°F10.3°C 46.8°F8.2°C 87% 2.8 mph ENE4.5 kmh ENE 4.0 mph6.4 kmh 29.97 in1014.9 mb 0.00 in0.0 mm 0.00 in0.0 mm 0.00 in0.0 mm
01:21 AM 50.5°F10.3°C 46.8°F8.2°C 87% 3.1 mph ENE5.0 kmh ENE 4.0 mph6.4 kmh 29.97 in1014.9 mb 0.00 in0.0 mm 0.00 in0.0 mm 0.00 in0.0 mm
01:22 AM 50.5°F10.3°C 46.8°F8.2°C 87% 3.7 mph ENE6.0 kmh ENE 5.0 mph8.0 kmh 29.97 in1014.9 mb 0.00 in0.0 mm 0.00 in0.0 mm 0.00 in0.0 mm
01:23 AM 50.4°F10.2°C 46.7°F8.2°C 87% 3.9 mph ENE6.3 kmh ENE 5.0 mph8.0 kmh 29.97 in1014.9 mb 0.00 in0.0 mm 0.00 in0.0 mm 0.00 in0.0 mm
01:24 AM 50.4°F10.2°C 47.0°F8.3°C 88% 4.6 mph ENE7.4 kmh ENE 6.0 mph9.7 kmh 29.97 in1014.9 mb 0.00 in0.0 mm 0.00 in0.0 mm 0.00 in0.0 mm
01:25 AM 50.5°F10.3°C 47.1°F8.4°C 88% 5.1 mph ENE8.2 kmh ENE 6.0 mph9.7 kmh 29.97 in1014.9 mb 0.00 in0.0 mm 0.00 in0.0 mm 0.00 in0.0 mm
01:26 AM 50.5°F10.3°C 47.1°F8.4°C 88% 5.0 mph ENE8.0 kmh ENE 6.0 mph9.7 kmh 29.97 in1014.9 mb 0.00 in0.0 mm 0.00 in0.0 mm 0.00 in0.0 mm
01:27 AM 50.6°F10.3°C 47.2°F8.4°C 88% 5.6 mph ENE9.0 kmh ENE 6.0 mph9.7 kmh 29.97 in1014.9 mb 0.00 in0.0 mm 0.00 in0.0 mm 0.00 in0.0 mm
01:28 AM 50.6°F10.3°C 47.2°F8.4°C 88% 5.8 mph NE9.3 kmh NE 7.0 mph11.3 kmh 29.97 in1014.9 mb 0.00 in0.0 mm 0.00 in0.0 mm 0.00 in0.0 mm
01:29 AM 50.7°F10.4°C 47.3°F8.5°C 88% 4.9 mph NE7.9 kmh NE 7.0 mph11.3 kmh 29.97 in1014.9 mb 0.00 in0.0 mm 0.00 in0.0 mm 0.00 in0.0 mm
01:30 AM 50.8°F10.4°C 47.4°F8.6°C 88% 4.2 mph ENE6.8 kmh ENE 6.0 mph9.7 kmh 29.97 in1014.9 mb 0.00 in0.0 mm 0.00 in0.0 mm 0.00 in0.0 mm
01:31 AM 50.7°F10.4°C 47.0°F8.3°C 87% 4.1 mph ENE6.6 kmh ENE 5.0 mph8.0 kmh 29.97 in1014.9 mb 0.00 in0.0 mm 0.00 in0.0 mm 0.00 in0.0 mm
01:32 AM 50.7°F10.4°C 47.0°F8.3°C 87% 3.6 mph ENE5.8 kmh ENE 5.0 mph8.0 kmh 29.97 in1014.9 mb 0.00 in0.0 mm 0.00 in0.0 mm 0.00 in0.0 mm
01:33 AM 50.7°F10.4°C 47.0°F8.3°C 87% 3.5 mph ENE5.6 kmh ENE 5.0 mph8.0 kmh 29.97 in1014.9 mb 0.00 in0.0 mm 0.00 in0.0 mm 0.00 in0.0 mm
01:34 AM 50.7°F10.4°C 47.0°F8.3°C 87% 3.4 mph ENE5.5 kmh ENE 5.0 mph8.0 kmh 29.96 in1014.6 mb 0.00 in0.0 mm 0.00 in0.0 mm 0.00 in0.0 mm
01:35 AM 50.6°F10.3°C 46.9°F8.3°C 87% 3.5 mph ENE5.6 kmh ENE 4.0 mph6.4 kmh 29.96 in1014.6 mb 0.00 in0.0 mm 0.00 in0.0 mm 0.00 in0.0 mm
01:36 AM 50.6°F10.3°C 46.9°F8.3°C 87% 3.5 mph ENE5.6 kmh ENE 4.0 mph6.4 kmh 29.96 in1014.6 mb 0.00 in0.0 mm 0.00 in0.0 mm 0.00 in0.0 mm
01:37 AM 50.6°F10.3°C 46.9°F8.3°C 87% 3.3 mph ENE5.3 kmh ENE 4.0 mph6.4 kmh 29.96 in1014.6 mb 0.00 in0.0 mm 0.00 in0.0 mm 0.00 in0.0 mm
01:38 AM 50.5°F10.3°C 46.8°F8.2°C 87% 3.8 mph ENE6.1 kmh ENE 4.0 mph6.4 kmh 29.96 in1014.6 mb 0.00 in0.0 mm 0.00 in0.0 mm 0.00 in0.0 mm
01:39 AM 50.6°F10.3°C 46.9°F8.3°C 87% 4.0 mph ENE6.4 kmh ENE 5.0 mph8.0 kmh 29.96 in1014.6 mb 0.00 in0.0 mm 0.00 in0.0 mm 0.00 in0.0 mm
01:40 AM 50.6°F10.3°C 46.9°F8.3°C 87% 4.0 mph NE6.4 kmh NE 5.0 mph8.0 kmh 29.96 in1014.6 mb 0.00 in0.0 mm 0.00 in0.0 mm 0.00 in0.0 mm
01:41 AM 50.5°F10.3°C 47.1°F8.4°C 88% 4.0 mph NE6.4 kmh NE 5.0 mph8.0 kmh 29.96 in1014.6 mb 0.00 in0.0 mm 0.00 in0.0 mm 0.00 in0.0 mm
01:42 AM 50.6°F10.3°C 47.2°F8.4°C 88% 4.2 mph NE6.8 kmh NE 5.0 mph8.0 kmh 29.96 in1014.6 mb 0.00 in0.0 mm 0.00 in0.0 mm 0.00 in0.0 mm
01:43 AM 50.6°F10.3°C 47.2°F8.4°C 88% 4.2 mph NE6.8 kmh NE 5.0 mph8.0 kmh 29.96 in1014.6 mb 0.00 in0.0 mm 0.00 in0.0 mm 0.00 in0.0 mm
01:44 AM 50.6°F10.3°C 46.9°F8.3°C 87% 4.0 mph NE6.4 kmh NE 5.0 mph8.0 kmh 29.96 in1014.6 mb 0.00 in0.0 mm 0.00 in0.0 mm 0.00 in0.0 mm
01:45 AM 50.6°F10.3°C 46.9°F8.3°C 87% 3.8 mph NE6.1 kmh NE 5.0 mph8.0 kmh 29.96 in1014.6 mb 0.00 in0.0 mm 0.00 in0.0 mm 0.00 in0.0 mm
01:46 AM 50.5°F10.3°C 46.8°F8.2°C 87% 3.9 mph NE6.3 kmh NE 5.0 mph8.0 kmh 29.96 in1014.6 mb 0.00 in0.0 mm 0.00 in0.0 mm 0.00 in0.0 mm
01:47 AM 50.5°F10.3°C 46.8°F8.2°C 87% 3.4 mph NE5.5 kmh NE 5.0 mph8.0 kmh 29.96 in1014.6 mb 0.00 in0.0 mm 0.00 in0.0 mm 0.00 in0.0 mm
01:48 AM 50.6°F10.3°C 47.2°F8.4°C 88% 3.9 mph NE6.3 kmh NE 5.0 mph8.0 kmh 29.96 in1014.6 mb 0.00 in0.0 mm 0.00 in0.0 mm 0.00 in0.0 mm
01:49 AM 50.5°F10.3°C 47.1°F8.4°C 88% 4.6 mph NE7.4 kmh NE 6.0 mph9.7 kmh 29.96 in1014.6 mb 0.00 in0.0 mm 0.00 in0.0 mm 0.00 in0.0 mm
01:50 AM 50.5°F10.3°C 47.1°F8.4°C 88% 4.4 mph NE7.1 kmh NE 6.0 mph9.7 kmh 29.96 in1014.6 mb 0.00 in0.0 mm 0.00 in0.0 mm 0.00 in0.0 mm
01:51 AM 50.6°F10.3°C 47.2°F8.4°C 88% 4.2 mph NE6.8 kmh NE 6.0 mph9.7 kmh 29.96 in1014.6 mb 0.00 in0.0 mm 0.00 in0.0 mm 0.00 in0.0 mm
01:52 AM 50.5°F10.3°C 47.1°F8.4°C 88% 4.5 mph NE7.2 kmh NE 6.0 mph9.7 kmh 29.96 in1014.6 mb 0.00 in0.0 mm 0.00 in0.0 mm 0.00 in0.0 mm
01:53 AM 50.5°F10.3°C 47.1°F8.4°C 88% 4.5 mph NE7.2 kmh NE 5.0 mph8.0 kmh 29.96 in1014.6 mb 0.00 in0.0 mm 0.00 in0.0 mm 0.00 in0.0 mm
01:54 AM 50.5°F10.3°C 47.1°F8.4°C 88% 4.3 mph NE6.9 kmh NE 5.0 mph8.0 kmh 29.96 in1014.6 mb 0.00 in0.0 mm 0.00 in0.0 mm 0.00 in0.0 mm
01:55 AM 50.5°F10.3°C 47.1°F8.4°C 88% 4.5 mph NE7.2 kmh NE 5.0 mph8.0 kmh 29.96 in1014.6 mb 0.00 in0.0 mm 0.00 in0.0 mm 0.00 in0.0 mm
01:56 AM 50.6°F10.3°C 47.2°F8.4°C 88% 4.2 mph NE6.8 kmh NE 5.0 mph8.0 kmh 29.96 in1014.6 mb 0.00 in0.0 mm 0.00 in0.0 mm 0.00 in0.0 mm
01:57 AM 50.5°F10.3°C 47.1°F8.4°C 88% 4.4 mph NE7.1 kmh NE 5.0 mph8.0 kmh 29.96 in1014.6 mb 0.00 in0.0 mm 0.00 in0.0 mm 0.00 in0.0 mm
01:58 AM 50.6°F10.3°C 47.2°F8.4°C 88% 4.3 mph NE6.9 kmh NE 5.0 mph8.0 kmh 29.96 in1014.6 mb 0.00 in0.0 mm 0.00 in0.0 mm 0.00 in0.0 mm
01:59 AM 50.6°F10.3°C 47.2°F8.4°C 88% 4.0 mph NE6.4 kmh NE 5.0 mph8.0 kmh 29.97 in1014.9 mb 0.00 in0.0 mm 0.00 in0.0 mm 0.00 in0.0 mm
02:00 AM 50.6°F10.3°C 47.2°F8.4°C 88% 3.8 mph NE6.1 kmh NE 5.0 mph8.0 kmh 29.97 in1014.9 mb 0.00 in0.0 mm 0.00 in0.0 mm 0.00 in0.0 mm
02:01 AM 50.6°F10.3°C 47.2°F8.4°C 88% 3.7 mph NE6.0 kmh NE 4.0 mph6.4 kmh 29.96 in1014.6 mb 0.00 in0.0 mm 0.00 in0.0 mm 0.00 in0.0 mm
02:02 AM 50.6°F10.3°C 47.2°F8.4°C 88% 3.6 mph NE5.8 kmh NE 4.0 mph6.4 kmh 29.96 in1014.6 mb 0.00 in0.0 mm 0.00 in0.0 mm 0.00 in0.0 mm
02:03 AM 50.6°F10.3°C 47.2°F8.4°C 88% 3.7 mph NE6.0 kmh NE 4.0 mph6.4 kmh 29.97 in1014.9 mb 0.00 in0.0 mm 0.00 in0.0 mm 0.00 in0.0 mm
02:04 AM 50.5°F10.3°C 47.1°F8.4°C 88% 3.9 mph NE6.3 kmh NE 5.0 mph8.0 kmh 29.96 in1014.6 mb 0.00 in0.0 mm 0.00 in0.0 mm 0.00 in0.0 mm
02:05 AM 50.5°F10.3°C 47.1°F8.4°C 88% 3.8 mph NE6.1 kmh NE 5.0 mph8.0 kmh 29.97 in1014.9 mb 0.00 in0.0 mm 0.00 in0.0 mm 0.00 in0.0 mm
02:06 AM 50.5°F10.3°C 47.4°F8.6°C 89% 3.9 mph NE6.3 kmh NE 5.0 mph8.0 kmh 29.96 in1014.6 mb 0.00 in0.0 mm 0.00 in0.0 mm 0.00 in0.0 mm
02:07 AM 50.5°F10.3°C 47.4°F8.6°C 89% 4.0 mph NE6.4 kmh NE 5.0 mph8.0 kmh 29.97 in1014.9 mb 0.00 in0.0 mm 0.00 in0.0 mm 0.00 in0.0 mm
02:08 AM 50.5°F10.3°C 47.1°F8.4°C 88% 4.0 mph NE6.4 kmh NE 5.0 mph8.0 kmh 29.96 in1014.6 mb 0.00 in0.0 mm 0.00 in0.0 mm 0.00 in0.0 mm
02:09 AM 50.5°F10.3°C 47.1°F8.4°C 88% 4.4 mph NE7.1 kmh NE 5.0 mph8.0 kmh 29.96 in1014.6 mb 0.00 in0.0 mm 0.00 in0.0 mm 0.00 in0.0 mm
02:10 AM 50.4°F10.2°C 47.0°F8.3°C 88% 4.5 mph NE7.2 kmh NE 5.0 mph8.0 kmh 29.96 in1014.6 mb 0.00 in0.0 mm 0.00 in0.0 mm 0.00 in0.0 mm
02:11 AM 50.4°F10.2°C 47.3°F8.5°C 89% 4.2 mph NE6.8 kmh NE 5.0 mph8.0 kmh 29.96 in1014.6 mb 0.00 in0.0 mm 0.00 in0.0 mm 0.00 in0.0 mm
02:12 AM 50.4°F10.2°C 47.3°F8.5°C 89% 4.5 mph NE7.2 kmh NE 5.0 mph8.0 kmh 29.96 in1014.6 mb 0.00 in0.0 mm 0.00 in0.0 mm 0.00 in0.0 mm
02:13 AM 50.4°F10.2°C 47.3°F8.5°C 89% 4.2 mph NE6.8 kmh NE 5.0 mph8.0 kmh 29.96 in1014.6 mb 0.00 in0.0 mm 0.00 in0.0 mm 0.00 in0.0 mm
02:14 AM 50.4°F10.2°C 47.3°F8.5°C 89% 4.2 mph NE6.8 kmh NE 5.0 mph8.0 kmh 29.96 in1014.6 mb 0.00 in0.0 mm 0.00 in0.0 mm 0.00 in0.0 mm
02:15 AM 50.4°F10.2°C 47.3°F8.5°C 89% 4.3 mph NE6.9 kmh NE 5.0 mph8.0 kmh 29.96 in1014.6 mb 0.00 in0.0 mm 0.00 in0.0 mm 0.00 in0.0 mm
02:16 AM 50.4°F10.2°C 47.3°F8.5°C 89% 4.1 mph NE6.6 kmh NE 5.0 mph8.0 kmh 29.96 in1014.6 mb 0.00 in0.0 mm 0.00 in0.0 mm 0.00 in0.0 mm
02:17 AM 50.4°F10.2°C 47.3°F8.5°C 89% 4.1 mph NE6.6 kmh NE 6.0 mph9.7 kmh 29.96 in1014.6 mb 0.00 in0.0 mm 0.00 in0.0 mm 0.00 in0.0 mm
02:18 AM 50.5°F10.3°C 47.4°F8.6°C 89% 4.0 mph NE6.4 kmh NE 6.0 mph9.7 kmh 29.96 in1014.6 mb 0.00 in0.0 mm 0.00 in0.0 mm 0.00 in0.0 mm
02:19 AM 50.5°F10.3°C 47.4°F8.6°C 89% 3.4 mph NE5.5 kmh NE 5.0 mph8.0 kmh 29.97 in1014.9 mb 0.00 in0.0 mm 0.00 in0.0 mm 0.00 in0.0 mm
02:20 AM 50.5°F10.3°C 47.4°F8.6°C 89% 3.5 mph NE5.6 kmh NE 5.0 mph8.0 kmh 29.97 in1014.9 mb 0.00 in0.0 mm 0.00 in0.0 mm 0.00 in0.0 mm
02:21 AM 50.5°F10.3°C 47.4°F8.6°C 89% 3.9 mph NE6.3 kmh NE 5.0 mph8.0 kmh 29.96 in1014.6 mb 0.00 in0.0 mm 0.00 in0.0 mm 0.00 in0.0 mm
02:22 AM 50.5°F10.3°C 47.4°F8.6°C 89% 3.5 mph NE5.6 kmh NE 5.0 mph8.0 kmh 29.97 in1014.9 mb 0.00 in0.0 mm 0.00 in0.0 mm 0.00 in0.0 mm
02:23 AM 50.5°F10.3°C 47.4°F8.6°C 89% 2.9 mph NE4.7 kmh NE 4.0 mph6.4 kmh 29.97 in1014.9 mb 0.00 in0.0 mm 0.00 in0.0 mm 0.00 in0.0 mm
02:24 AM 50.5°F10.3°C 47.4°F8.6°C 89% 2.7 mph NE4.3 kmh NE 3.0 mph4.8 kmh 29.97 in1014.9 mb 0.00 in0.0 mm 0.00 in0.0 mm 0.00 in0.0 mm
02:25 AM 50.5°F10.3°C 47.4°F8.6°C 89% 2.5 mph NE4.0 kmh NE 3.0 mph4.8 kmh 29.97 in1014.9 mb 0.00 in0.0 mm 0.00 in0.0 mm 0.00 in0.0 mm
02:26 AM 50.5°F10.3°C 47.4°F8.6°C 89% 2.6 mph NE4.2 kmh NE 3.0 mph4.8 kmh 29.97 in1014.9 mb 0.00 in0.0 mm 0.00 in0.0 mm 0.00 in0.0 mm
02:27 AM 50.5°F10.3°C 47.4°F8.6°C 89% 2.0 mph NE3.2 kmh NE 3.0 mph4.8 kmh 29.97 in1014.9 mb 0.00 in0.0 mm 0.00 in0.0 mm 0.00 in0.0 mm
02:28 AM 50.5°F10.3°C 47.4°F8.6°C 89% 2.4 mph NE3.9 kmh NE 3.0 mph4.8 kmh 29.97 in1014.9 mb 0.00 in0.0 mm 0.00 in0.0 mm 0.00 in0.0 mm
02:29 AM 50.5°F10.3°C 47.4°F8.6°C 89% 2.8 mph NE4.5 kmh NE 3.0 mph4.8 kmh 29.97 in1014.9 mb 0.00 in0.0 mm 0.00 in0.0 mm 0.00 in0.0 mm
02:30 AM 50.5°F10.3°C 47.4°F8.6°C 89% 2.4 mph NE3.9 kmh NE 3.0 mph4.8 kmh 29.97 in1014.9 mb 0.00 in0.0 mm 0.00 in0.0 mm 0.00 in0.0 mm
02:31 AM 50.4°F10.2°C 47.3°F8.5°C 89% 2.2 mph NE3.5 kmh NE 3.0 mph4.8 kmh 29.97 in1014.9 mb 0.00 in0.0 mm 0.00 in0.0 mm 0.00 in0.0 mm
02:32 AM 50.5°F10.3°C 47.4°F8.6°C 89% 1.5 mph NE2.4 kmh NE 3.0 mph4.8 kmh 29.97 in1014.9 mb 0.00 in0.0 mm 0.00 in0.0 mm 0.00 in0.0 mm
02:33 AM 50.4°F10.2°C 47.3°F8.5°C 89% 1.9 mph NE3.1 kmh NE 3.0 mph4.8 kmh 29.97 in1014.9 mb 0.00 in0.0 mm 0.00 in0.0 mm 0.00 in0.0 mm
02:34 AM 50.4°F10.2°C 47.0°F8.3°C 88% 1.7 mph NE2.7 kmh NE 2.0 mph3.2 kmh 29.97 in1014.9 mb 0.00 in0.0 mm 0.00 in0.0 mm 0.00 in0.0 mm
02:35 AM 50.4°F10.2°C 47.0°F8.3°C 88% 1.3 mph NE2.1 kmh NE 2.0 mph3.2 kmh 29.97 in1014.9 mb 0.00 in0.0 mm 0.00 in0.0 mm 0.00 in0.0 mm
02:36 AM 50.4°F10.2°C 47.0°F8.3°C 88% 1.3 mph NE2.1 kmh NE 2.0 mph3.2 kmh 29.97 in1014.9 mb 0.00 in0.0 mm 0.00 in0.0 mm 0.00 in0.0 mm
02:37 AM 50.3°F10.2°C 46.9°F8.3°C 88% 0.8 mph NE1.3 kmh NE 2.0 mph3.2 kmh 29.97 in1014.9 mb 0.00 in0.0 mm 0.00 in0.0 mm 0.00 in0.0 mm
02:38 AM 50.3°F10.2°C 46.9°F8.3°C 88% 0.5 mph NE0.8 kmh NE 1.0 mph1.6 kmh 29.97 in1014.9 mb 0.00 in0.0 mm 0.00 in0.0 mm 0.00 in0.0 mm
02:39 AM 50.3°F10.2°C 46.9°F8.3°C 88% 0.7 mph NE1.1 kmh NE 1.0 mph1.6 kmh 29.97 in1014.9 mb 0.00 in0.0 mm 0.00 in0.0 mm 0.00 in0.0 mm
02:40 AM 50.2°F10.1°C 47.1°F8.4°C 89% 0.8 mph NE1.3 kmh NE 2.0 mph3.2 kmh 29.97 in1014.9 mb 0.00 in0.0 mm 0.00 in0.0 mm 0.00 in0.0 mm
02:41 AM 50.2°F10.1°C 47.1°F8.4°C 89% 0.3 mph NE0.5 kmh NE 2.0 mph3.2 kmh 29.97 in1014.9 mb 0.00 in0.0 mm 0.00 in0.0 mm 0.00 in0.0 mm
02:42 AM 50.1°F10.1°C 47.0°F8.3°C 89% 0.1 mph NE0.2 kmh NE 1.0 mph1.6 kmh 29.97 in1014.9 mb 0.00 in0.0 mm 0.00 in0.0 mm 0.00 in0.0 mm
02:43 AM 50.1°F10.1°C 47.0°F8.3°C 89% Calm Calm 1.0 mph1.6 kmh 29.97 in1014.9 mb 0.00 in0.0 mm 0.00 in0.0 mm 0.00 in0.0 mm
02:44 AM 50.1°F10.1°C 47.0°F8.3°C 89% Calm Calm -- 29.97 in1014.9 mb 0.00 in0.0 mm 0.00 in0.0 mm 0.00 in0.0 mm
02:45 AM 50.0°F10.0°C 46.9°F8.3°C 89% Calm Calm -- 29.97 in1014.9 mb 0.00 in0.0 mm 0.00 in0.0 mm 0.00 in0.0 mm
02:46 AM 50.0°F10.0°C 46.9°F8.3°C 89% 0.4 mph NE0.6 kmh NE 1.0 mph1.6 kmh 29.96 in1014.6 mb 0.00 in0.0 mm 0.00 in0.0 mm 0.00 in0.0 mm
02:47 AM 50.1°F10.1°C 47.3°F8.5°C 90% 0.3 mph NE0.5 kmh NE 1.0 mph1.6 kmh 29.96 in1014.6 mb 0.00 in0.0 mm 0.00 in0.0 mm 0.00 in0.0 mm
02:48 AM 50.0°F10.0°C 47.2°F8.4°C 90% Calm Calm 1.0 mph1.6 kmh 29.96 in1014.6 mb 0.00 in0.0 mm 0.00 in0.0 mm 0.00 in0.0 mm
02:49 AM 50.1°F10.1°C 47.3°F8.5°C 90% 1.0 mph NE1.6 kmh NE 3.0 mph4.8 kmh 29.96 in1014.6 mb 0.00 in0.0 mm 0.00 in0.0 mm 0.00 in0.0 mm
02:50 AM 50.1°F10.1°C 47.3°F8.5°C 90% 0.8 mph NNE1.3 kmh NNE 3.0 mph4.8 kmh 29.96 in1014.6 mb 0.00 in0.0 mm 0.00 in0.0 mm 0.00 in0.0 mm
02:51 AM 50.1°F10.1°C 47.3°F8.5°C 90% 1.0 mph NNE1.6 kmh NNE 2.0 mph3.2 kmh 29.96 in1014.6 mb 0.00 in0.0 mm 0.00 in0.0 mm 0.00 in0.0 mm
02:52 AM 50.2°F10.1°C 47.4°F8.6°C 90% 2.2 mph NW3.5 kmh NW 3.0 mph4.8 kmh 29.96 in1014.6 mb 0.00 in0.0 mm 0.00 in0.0 mm 0.00 in0.0 mm
02:53 AM 50.3°F10.2°C 47.5°F8.6°C 90% 2.4 mph WSW3.9 kmh WSW 3.0 mph4.8 kmh 29.96 in1014.6 mb 0.00 in0.0 mm 0.00 in0.0 mm 0.00 in0.0 mm
02:54 AM 50.2°F10.1°C 47.4°F8.6°C 90% 2.1 mph WSW3.4 kmh WSW 3.0 mph4.8 kmh 29.96 in1014.6 mb 0.00 in0.0 mm 0.00 in0.0 mm 0.00 in0.0 mm
02:55 AM 50.3°F10.2°C 47.5°F8.6°C 90% 0.5 mph WSW0.8 kmh WSW 3.0 mph4.8 kmh 29.96 in1014.6 mb 0.00 in0.0 mm 0.00 in0.0 mm 0.00 in0.0 mm
02:56 AM 50.4°F10.2°C 47.9°F8.8°C 91% 0.4 mph WSW0.6 kmh WSW 1.0 mph1.6 kmh 29.96 in1014.6 mb 0.00 in0.0 mm 0.00 in0.0 mm 0.00 in0.0 mm
02:57 AM 50.4°F10.2°C 47.9°F8.8°C 91% 0.7 mph WSW1.1 kmh WSW 2.0 mph3.2 kmh 29.96 in1014.6 mb 0.00 in0.0 mm 0.00 in0.0 mm 0.00 in0.0 mm
02:58 AM 50.4°F10.2°C 47.6°F8.7°C 90% 0.8 mph WSW1.3 kmh WSW 2.0 mph3.2 kmh 29.96 in1014.6 mb 0.00 in0.0 mm 0.00 in0.0 mm 0.00 in0.0 mm
02:59 AM 50.5°F10.3°C 47.7°F8.7°C 90% 0.5 mph WSW0.8 kmh WSW 2.0 mph3.2 kmh 29.96 in1014.6 mb 0.00 in0.0 mm 0.00 in0.0 mm 0.00 in0.0 mm
03:00 AM 50.5°F10.3°C 48.0°F8.9°C 91% 0.1 mph WSW0.2 kmh WSW 1.0 mph1.6 kmh 29.96 in1014.6 mb 0.00 in0.0 mm 0.00 in0.0 mm 0.00 in0.0 mm
03:01 AM 50.5°F10.3°C 48.0°F8.9°C 91% Calm Calm 1.0 mph1.6 kmh 29.96 in1014.6 mb 0.00 in0.0 mm 0.00 in0.0 mm 0.00 in0.0 mm
03:02 AM 50.6°F10.3°C 47.8°F8.8°C 90% 0.9 mph WSW1.4 kmh WSW 2.0 mph3.2 kmh 29.96 in1014.6 mb 0.00 in0.0 mm 0.00 in0.0 mm 0.00 in0.0 mm
03:03 AM 50.6°F10.3°C 47.8°F8.8°C 90% 1.1 mph WSW1.8 kmh WSW 2.0 mph3.2 kmh 29.96 in1014.6 mb 0.00 in0.0 mm 0.00 in0.0 mm 0.00 in0.0 mm
03:04 AM 50.6°F10.3°C 47.8°F8.8°C 90% 1.4 mph WSW2.3 kmh WSW 2.0 mph3.2 kmh 29.96 in1014.6 mb 0.00 in0.0 mm 0.00 in0.0 mm 0.00 in0.0 mm
03:05 AM 50.7°F10.4°C 47.9°F8.8°C 90% 1.3 mph WSW2.1 kmh WSW 2.0 mph3.2 kmh 29.96 in1014.6 mb 0.00 in0.0 mm 0.00 in0.0 mm 0.00 in0.0 mm
03:06 AM 50.7°F10.4°C 47.9°F8.8°C 90% 0.7 mph WSW1.1 kmh WSW 2.0 mph3.2 kmh 29.96 in1014.6 mb 0.00 in0.0 mm 0.00 in0.0 mm 0.00 in0.0 mm
03:07 AM 50.7°F10.4°C 47.9°F8.8°C 90% 0.5 mph WSW0.8 kmh WSW 2.0 mph3.2 kmh 29.96 in1014.6 mb 0.00 in0.0 mm 0.00 in0.0 mm 0.00 in0.0 mm
03:08 AM 50.7°F10.4°C 47.9°F8.8°C 90% 1.4 mph WSW2.3 kmh WSW 2.0 mph3.2 kmh 29.96 in1014.6 mb 0.00 in0.0 mm 0.00 in0.0 mm 0.00 in0.0 mm
03:09 AM 50.7°F10.4°C 47.9°F8.8°C 90% 0.8 mph W1.3 kmh W 2.0 mph3.2 kmh 29.96 in1014.6 mb 0.00 in0.0 mm 0.00 in0.0 mm 0.00 in0.0 mm
03:10 AM 50.8°F10.4°C 48.0°F8.9°C 90% 1.5 mph NW2.4 kmh NW 2.0 mph3.2 kmh 29.96 in1014.6 mb 0.00 in0.0 mm 0.00 in0.0 mm 0.00 in0.0 mm
03:11 AM 50.8°F10.4°C 48.0°F8.9°C 90% 1.9 mph NW3.1 kmh NW 2.0 mph3.2 kmh 29.96 in1014.6 mb 0.00 in0.0 mm 0.00 in0.0 mm 0.00 in0.0 mm
03:12 AM 50.8°F10.4°C 48.0°F8.9°C 90% 1.9 mph NW3.1 kmh NW 3.0 mph4.8 kmh 29.96 in1014.6 mb 0.00 in0.0 mm 0.00 in0.0 mm 0.00 in0.0 mm
03:13 AM 50.8°F10.4°C 48.0°F8.9°C 90% 2.1 mph NNW3.4 kmh NNW 3.0 mph4.8 kmh 29.96 in1014.6 mb 0.00 in0.0 mm 0.00 in0.0 mm 0.00 in0.0 mm
03:14 AM 50.8°F10.4°C 48.0°F8.9°C 90% 2.5 mph N4.0 kmh N 3.0 mph4.8 kmh 29.96 in1014.6 mb 0.00 in0.0 mm 0.00 in0.0 mm 0.00 in0.0 mm
03:15 AM 50.8°F10.4°C 48.0°F8.9°C 90% 2.7 mph N4.3 kmh N 4.0 mph6.4 kmh 29.96 in1014.6 mb 0.00 in0.0 mm 0.00 in0.0 mm 0.00 in0.0 mm
03:16 AM 50.9°F10.5°C 48.4°F9.1°C 91% 2.9 mph N4.7 kmh N 4.0 mph6.4 kmh 29.96 in1014.6 mb 0.00 in0.0 mm 0.00 in0.0 mm 0.00 in0.0 mm
03:17 AM 50.9°F10.5°C 48.4°F9.1°C 91% 3.1 mph N5.0 kmh N 4.0 mph6.4 kmh 29.96 in1014.6 mb 0.00 in0.0 mm 0.00 in0.0 mm 0.00 in0.0 mm
03:18 AM 51.1°F10.6°C 48.6°F9.2°C 91% 2.6 mph N4.2 kmh N 4.0 mph6.4 kmh 29.96 in1014.6 mb 0.00 in0.0 mm 0.00 in0.0 mm 0.00 in0.0 mm
03:19 AM 51.1°F10.6°C 48.6°F9.2°C 91% 2.5 mph N4.0 kmh N 3.0 mph4.8 kmh 29.96 in1014.6 mb 0.00 in0.0 mm 0.00 in0.0 mm 0.00 in0.0 mm
03:20 AM 51.2°F10.7°C 48.7°F9.3°C 91% 2.5 mph N4.0 kmh N 3.0 mph4.8 kmh 29.96 in1014.6 mb 0.00 in0.0 mm 0.00 in0.0 mm 0.00 in0.0 mm
03:21 AM 51.2°F10.7°C 48.7°F9.3°C 91% 2.1 mph N3.4 kmh N 3.0 mph4.8 kmh 29.96 in1014.6 mb 0.00 in0.0 mm 0.00 in0.0 mm 0.00 in0.0 mm
03:22 AM 51.3°F10.7°C 48.8°F9.3°C 91% 2.4 mph N3.9 kmh N 3.0 mph4.8 kmh 29.96 in1014.6 mb 0.00 in0.0 mm 0.00 in0.0 mm 0.00 in0.0 mm
03:23 AM 51.3°F10.7°C 48.8°F9.3°C 91% 3.0 mph N4.8 kmh N 4.0 mph6.4 kmh 29.96 in1014.6 mb 0.00 in0.0 mm 0.00 in0.0 mm 0.00 in0.0 mm
03:24 AM 51.3°F10.7°C 48.8°F9.3°C 91% 2.5 mph NNE4.0 kmh NNE 4.0 mph6.4 kmh 29.96 in1014.6 mb 0.00 in0.0 mm 0.00 in0.0 mm 0.00 in0.0 mm
03:25 AM 51.3°F10.7°C 48.5°F9.2°C 90% 2.7 mph NNE4.3 kmh NNE 4.0 mph6.4 kmh 29.96 in1014.6 mb 0.00 in0.0 mm 0.00 in0.0 mm 0.00 in0.0 mm
03:26 AM 51.3°F10.7°C 48.5°F9.2°C 90% 2.8 mph NNE4.5 kmh NNE 4.0 mph6.4 kmh 29.96 in1014.6 mb 0.00 in0.0 mm 0.00 in0.0 mm 0.00 in0.0 mm
03:27 AM 51.2°F10.7°C 48.4°F9.1°C 90% 2.3 mph NNE3.7 kmh NNE 4.0 mph6.4 kmh 29.96 in1014.6 mb 0.00 in0.0 mm 0.00 in0.0 mm 0.00 in0.0 mm
03:28 AM 51.2°F10.7°C 48.4°F9.1°C 90% 2.1 mph NNE3.4 kmh NNE 3.0 mph4.8 kmh 29.96 in1014.6 mb 0.00 in0.0 mm 0.00 in0.0 mm 0.00 in0.0 mm
03:29 AM 51.2°F10.7°C 48.4°F9.1°C 90% 2.5 mph NNE4.0 kmh NNE 3.0 mph4.8 kmh 29.96 in1014.6 mb 0.00 in0.0 mm 0.00 in0.0 mm 0.00 in0.0 mm
03:30 AM 51.2°F10.7°C 48.4°F9.1°C 90% 2.4 mph NNE3.9 kmh NNE 3.0 mph4.8 kmh 29.96 in1014.6 mb 0.00 in0.0 mm 0.00 in0.0 mm 0.00 in0.0 mm
03:31 AM 51.1°F10.6°C 48.0°F8.9°C 89% 2.8 mph NNE4.5 kmh NNE 4.0 mph6.4 kmh 29.96 in1014.6 mb 0.00 in0.0 mm 0.00 in0.0 mm 0.00 in0.0 mm
03:32 AM 51.1°F10.6°C 48.0°F8.9°C 89% 2.9 mph NNE4.7 kmh NNE 4.0 mph6.4 kmh 29.96 in1014.6 mb 0.00 in0.0 mm 0.00 in0.0 mm 0.00 in0.0 mm
03:33 AM 51.0°F10.6°C 47.9°F8.8°C 89% 2.7 mph NNE4.3 kmh NNE 4.0 mph6.4 kmh 29.96 in1014.6 mb 0.00 in0.0 mm 0.00 in0.0 mm 0.00 in0.0 mm
03:34 AM 51.0°F10.6°C 47.9°F8.8°C 89% 2.0 mph NNE3.2 kmh NNE 3.0 mph4.8 kmh 29.96 in1014.6 mb 0.00 in0.0 mm 0.00 in0.0 mm 0.00 in0.0 mm
03:35 AM 51.0°F10.6°C 47.9°F8.8°C 89% 3.2 mph NNE5.1 kmh NNE 4.0 mph6.4 kmh 29.96 in1014.6 mb 0.00 in0.0 mm 0.00 in0.0 mm 0.00 in0.0 mm
03:36 AM 50.9°F10.5°C 47.8°F8.8°C 89% 2.8 mph NNE4.5 kmh NNE 4.0 mph6.4 kmh 29.96 in1014.6 mb 0.00 in0.0 mm 0.00 in0.0 mm 0.00 in0.0 mm
03:37 AM 50.8°F10.4°C 47.7°F8.7°C 89% 2.6 mph NNE4.2 kmh NNE 4.0 mph6.4 kmh 29.96 in1014.6 mb 0.00 in0.0 mm 0.00 in0.0 mm 0.00 in0.0 mm
03:38 AM 50.8°F10.4°C 47.7°F8.7°C 89% 1.7 mph NNE2.7 kmh NNE 3.0 mph4.8 kmh 29.96 in1014.6 mb 0.00 in0.0 mm 0.00 in0.0 mm 0.00 in0.0 mm
03:39 AM 50.8°F10.4°C 47.7°F8.7°C 89% 2.1 mph NNE3.4 kmh NNE 3.0 mph4.8 kmh 29.96 in1014.6 mb 0.00 in0.0 mm 0.00 in0.0 mm 0.00 in0.0 mm
03:40 AM 50.7°F10.4°C 47.6°F8.7°C 89% 2.2 mph NNE3.5 kmh NNE 3.0 mph4.8 kmh 29.96 in1014.6 mb 0.00 in0.0 mm 0.00 in0.0 mm 0.00 in0.0 mm
03:41 AM 50.7°F10.4°C 47.6°F8.7°C 89% 2.2 mph NNE3.5 kmh NNE 3.0 mph4.8 kmh 29.96 in1014.6 mb 0.00 in0.0 mm 0.00 in0.0 mm 0.00 in0.0 mm
03:42 AM 50.7°F10.4°C 47.9°F8.8°C 90% 1.7 mph NNE2.7 kmh NNE 3.0 mph4.8 kmh 29.96 in1014.6 mb 0.00 in0.0 mm 0.00 in0.0 mm 0.00 in0.0 mm
03:43 AM 50.6°F10.3°C 47.8°F8.8°C 90% 1.5 mph NNE2.4 kmh NNE 3.0 mph4.8 kmh 29.96 in1014.6 mb 0.00 in0.0 mm 0.00 in0.0 mm 0.00 in0.0 mm
03:44 AM 50.6°F10.3°C 47.8°F8.8°C 90% 1.3 mph NNE2.1 kmh NNE 3.0 mph4.8 kmh 29.96 in1014.6 mb 0.00 in0.0 mm 0.00 in0.0 mm 0.00 in0.0 mm
03:45 AM 50.6°F10.3°C 47.8°F8.8°C 90% 1.3 mph NNE2.1 kmh NNE 2.0 mph3.2 kmh 29.96 in1014.6 mb 0.00 in0.0 mm 0.00 in0.0 mm 0.00 in0.0 mm
03:46 AM 50.6°F10.3°C 47.8°F8.8°C 90% 1.3 mph NNE2.1 kmh NNE 2.0 mph3.2 kmh 29.96 in1014.6 mb 0.00 in0.0 mm 0.00 in0.0 mm 0.00 in0.0 mm
03:47 AM 50.6°F10.3°C 47.8°F8.8°C 90% 0.3 mph NNE0.5 kmh NNE 2.0 mph3.2 kmh 29.96 in1014.6 mb 0.00 in0.0 mm 0.00 in0.0 mm 0.00 in0.0 mm
03:48 AM 50.6°F10.3°C 47.8°F8.8°C 90% 0.1 mph NNE0.2 kmh NNE 1.0 mph1.6 kmh 29.96 in1014.6 mb 0.00 in0.0 mm 0.00 in0.0 mm 0.00 in0.0 mm
03:49 AM 50.7°F10.4°C 48.2°F9.0°C 91% 0.3 mph NNE0.5 kmh NNE 1.0 mph1.6 kmh 29.96 in1014.6 mb 0.00 in0.0 mm 0.00 in0.0 mm 0.00 in0.0 mm
03:50 AM 50.7°F10.4°C 48.2°F9.0°C 91% 0.1 mph NNE0.2 kmh NNE 1.0 mph1.6 kmh 29.96 in1014.6 mb 0.00 in0.0 mm 0.00 in0.0 mm 0.00 in0.0 mm
03:51 AM 50.7°F10.4°C 47.9°F8.8°C 90% 0.7 mph NNE1.1 kmh NNE 2.0 mph3.2 kmh 29.96 in1014.6 mb 0.00 in0.0 mm 0.00 in0.0 mm 0.00 in0.0 mm
03:52 AM 50.7°F10.4°C 47.9°F8.8°C 90% 0.9 mph NNE1.4 kmh NNE 2.0 mph3.2 kmh 29.96 in1014.6 mb 0.00 in0.0 mm 0.00 in0.0 mm 0.00 in0.0 mm
03:53 AM 50.7°F10.4°C 47.9°F8.8°C 90% 0.4 mph NNE0.6 kmh NNE 2.0 mph3.2 kmh 29.96 in1014.6 mb 0.00 in0.0 mm 0.00 in0.0 mm 0.00 in0.0 mm
03:54 AM 50.7°F10.4°C 47.9°F8.8°C 90% 0.8 mph NNE1.3 kmh NNE 2.0 mph3.2 kmh 29.96 in1014.6 mb 0.00 in0.0 mm 0.00 in0.0 mm 0.00 in0.0 mm
03:55 AM 50.7°F10.4°C 47.9°F8.8°C 90% 0.6 mph NNE1.0 kmh NNE 2.0 mph3.2 kmh 29.96 in1014.6 mb 0.00 in0.0 mm 0.00 in0.0 mm 0.00 in0.0 mm
03:56 AM 50.7°F10.4°C 47.9°F8.8°C 90% 0.7 mph NNE1.1 kmh NNE 2.0 mph3.2 kmh 29.96 in1014.6 mb 0.00 in0.0 mm 0.00 in0.0 mm 0.00 in0.0 mm
03:57 AM 50.7°F10.4°C 47.9°F8.8°C 90% 1.6 mph NNE2.6 kmh NNE 2.0 mph3.2 kmh 29.96 in1014.6 mb 0.00 in0.0 mm 0.00 in0.0 mm 0.00 in0.0 mm
03:58 AM 50.6°F10.3°C 47.8°F8.8°C 90% 1.4 mph NNE2.3 kmh NNE 2.0 mph3.2 kmh 29.96 in1014.6 mb 0.00 in0.0 mm 0.00 in0.0 mm 0.00 in0.0 mm
03:59 AM 50.6°F10.3°C 47.8°F8.8°C 90% 2.1 mph NNE3.4 kmh NNE 3.0 mph4.8 kmh 29.96 in1014.6 mb 0.00 in0.0 mm 0.00 in0.0 mm 0.00 in0.0 mm
04:00 AM 50.6°F10.3°C 47.8°F8.8°C 90% 2.3 mph NNE3.7 kmh NNE 4.0 mph6.4 kmh 29.96 in1014.6 mb 0.00 in0.0 mm 0.00 in0.0 mm 0.00 in0.0 mm
04:01 AM 50.6°F10.3°C 47.8°F8.8°C 90% 3.6 mph NE5.8 kmh NE 5.0 mph8.0 kmh 29.96 in1014.6 mb 0.00 in0.0 mm 0.00 in0.0 mm 0.00 in0.0 mm
04:02 AM 50.6°F10.3°C 47.8°F8.8°C 90% 2.4 mph NE3.9 kmh NE 5.0 mph8.0 kmh 29.96 in1014.6 mb 0.00 in0.0 mm 0.00 in0.0 mm 0.00 in0.0 mm
04:03 AM 50.6°F10.3°C 47.8°F8.8°C 90% 2.5 mph NE4.0 kmh NE 3.0 mph4.8 kmh 29.96 in1014.6 mb 0.00 in0.0 mm 0.00 in0.0 mm 0.00 in0.0 mm
04:04 AM 50.6°F10.3°C 47.8°F8.8°C 90% 3.0 mph NE4.8 kmh NE 4.0 mph6.4 kmh 29.96 in1014.6 mb 0.00 in0.0 mm 0.00 in0.0 mm 0.00 in0.0 mm
04:05 AM 50.7°F10.4°C 47.9°F8.8°C 90% 2.2 mph NE3.5 kmh NE 4.0 mph6.4 kmh 29.96 in1014.6 mb 0.00 in0.0 mm 0.00 in0.0 mm 0.00 in0.0 mm
04:06 AM 50.6°F10.3°C 47.8°F8.8°C 90% 2.1 mph NE3.4 kmh NE 3.0 mph4.8 kmh 29.96 in1014.6 mb 0.00 in0.0 mm 0.00 in0.0 mm 0.00 in0.0 mm
04:07 AM 50.6°F10.3°C 47.8°F8.8°C 90% 2.2 mph NE3.5 kmh NE 3.0 mph4.8 kmh 29.96 in1014.6 mb 0.00 in0.0 mm 0.00 in0.0 mm 0.00 in0.0 mm
04:08 AM 50.6°F10.3°C 47.5°F8.6°C 89% 3.0 mph NE4.8 kmh NE 4.0 mph6.4 kmh 29.96 in1014.6 mb 0.00 in0.0 mm 0.00 in0.0 mm 0.00 in0.0 mm
04:09 AM 50.5°F10.3°C 47.4°F8.6°C 89% 3.2 mph NE5.1 kmh NE 4.0 mph6.4 kmh 29.96 in1014.6 mb 0.00 in0.0 mm 0.00 in0.0 mm 0.00 in0.0 mm
04:10 AM 50.5°F10.3°C 47.4°F8.6°C 89% 3.8 mph NE6.1 kmh NE 5.0 mph8.0 kmh 29.96 in1014.6 mb 0.00 in0.0 mm 0.00 in0.0 mm 0.00 in0.0 mm
04:11 AM 50.5°F10.3°C 47.4°F8.6°C 89% 3.5 mph NE5.6 kmh NE 5.0 mph8.0 kmh 29.96 in1014.6 mb 0.00 in0.0 mm 0.00 in0.0 mm 0.00 in0.0 mm
04:12 AM 50.5°F10.3°C 47.7°F8.7°C 90% 3.5 mph NE5.6 kmh NE 4.0 mph6.4 kmh 29.96 in1014.6 mb 0.00 in0.0 mm 0.00 in0.0 mm 0.00 in0.0 mm
04:13 AM 50.4°F10.2°C 47.6°F8.7°C 90% 3.5 mph NE5.6 kmh NE 4.0 mph6.4 kmh 29.96 in1014.6 mb 0.00 in0.0 mm 0.00 in0.0 mm 0.00 in0.0 mm
04:14 AM 50.4°F10.2°C 47.6°F8.7°C 90% 3.4 mph NE5.5 kmh NE 4.0 mph6.4 kmh 29.96 in1014.6 mb 0.00 in0.0 mm 0.00 in0.0 mm 0.00 in0.0 mm
04:15 AM 50.3°F10.2°C 47.2°F8.4°C 89% 3.7 mph NE6.0 kmh NE 4.0 mph6.4 kmh 29.96 in1014.6 mb 0.00 in0.0 mm 0.00 in0.0 mm 0.00 in0.0 mm
04:16 AM 50.3°F10.2°C 47.2°F8.4°C 89% 3.3 mph NE5.3 kmh NE 4.0 mph6.4 kmh 29.96 in1014.6 mb 0.00 in0.0 mm 0.00 in0.0 mm 0.00 in0.0 mm
04:17 AM 50.3°F10.2°C 47.2°F8.4°C 89% 3.1 mph NE5.0 kmh NE 4.0 mph6.4 kmh 29.96 in1014.6 mb 0.00 in0.0 mm 0.00 in0.0 mm 0.00 in0.0 mm
04:18 AM 50.2°F10.1°C 47.1°F8.4°C 89% 3.3 mph NE5.3 kmh NE 4.0 mph6.4 kmh 29.96 in1014.6 mb 0.00 in0.0 mm 0.00 in0.0 mm 0.00 in0.0 mm
04:19 AM 50.1°F10.1°C 47.0°F8.3°C 89% 3.4 mph NE5.5 kmh NE 4.0 mph6.4 kmh 29.96 in1014.6 mb 0.00 in0.0 mm 0.00 in0.0 mm 0.00 in0.0 mm
04:20 AM 50.1°F10.1°C 47.3°F8.5°C 90% 3.1 mph NE5.0 kmh NE 4.0 mph6.4 kmh 29.96 in1014.6 mb 0.00 in0.0 mm 0.00 in0.0 mm 0.00 in0.0 mm
04:21 AM 50.1°F10.1°C 47.3°F8.5°C 90% 2.6 mph NE4.2 kmh NE 4.0 mph6.4 kmh 29.96 in1014.6 mb 0.00 in0.0 mm 0.00 in0.0 mm 0.00 in0.0 mm
04:22 AM 50.1°F10.1°C 47.3°F8.5°C 90% 2.3 mph NE3.7 kmh NE 3.0 mph4.8 kmh 29.96 in1014.6 mb 0.00 in0.0 mm 0.00 in0.0 mm 0.00 in0.0 mm
04:23 AM 49.9°F9.9°C 47.1°F8.4°C 90% 2.7 mph NE4.3 kmh NE 3.0 mph4.8 kmh 29.96 in1014.6 mb 0.00 in0.0 mm 0.00 in0.0 mm 0.00 in0.0 mm
04:24 AM 49.9°F9.9°C 47.1°F8.4°C 90% 2.7 mph NE4.3 kmh NE 3.0 mph4.8 kmh 29.95 in1014.2 mb 0.00 in0.0 mm 0.00 in0.0 mm 0.00 in0.0 mm
04:25 AM 49.9°F9.9°C 47.1°F8.4°C 90% 2.1 mph NE3.4 kmh NE 3.0 mph4.8 kmh 29.96 in1014.6 mb 0.00 in0.0 mm 0.00 in0.0 mm 0.00 in0.0 mm
04:26 AM 49.9°F9.9°C 47.1°F8.4°C 90% 1.9 mph NE3.1 kmh NE 3.0 mph4.8 kmh 29.96 in1014.6 mb 0.00 in0.0 mm 0.00 in0.0 mm 0.00 in0.0 mm
04:27 AM 49.9°F9.9°C 47.1°F8.4°C 90% 2.0 mph NE3.2 kmh NE 3.0 mph4.8 kmh 29.96 in1014.6 mb 0.00 in0.0 mm 0.00 in0.0 mm 0.00 in0.0 mm
04:28 AM 49.8°F9.9°C 47.0°F8.3°C 90% 1.8 mph NE2.9 kmh NE 3.0 mph4.8 kmh 29.96 in1014.6 mb 0.00 in0.0 mm 0.00 in0.0 mm 0.00 in0.0 mm
04:29 AM 49.7°F9.8°C 46.9°F8.3°C 90% 2.0 mph NE3.2 kmh NE 3.0 mph4.8 kmh 29.96 in1014.6 mb 0.00 in0.0 mm 0.00 in0.0 mm 0.00 in0.0 mm
04:30 AM 49.7°F9.8°C 46.9°F8.3°C 90% 2.2 mph NE3.5 kmh NE 3.0 mph4.8 kmh 29.95 in1014.2 mb 0.00 in0.0 mm 0.00 in0.0 mm 0.00 in0.0 mm
04:31 AM 49.8°F9.9°C 47.0°F8.3°C 90% 1.4 mph NNE2.3 kmh NNE 3.0 mph4.8 kmh 29.95 in1014.2 mb 0.00 in0.0 mm 0.00 in0.0 mm 0.00 in0.0 mm
04:32 AM 49.7°F9.8°C 46.9°F8.3°C 90% 1.9 mph NNE3.1 kmh NNE 3.0 mph4.8 kmh 29.96 in1014.6 mb 0.00 in0.0 mm 0.00 in0.0 mm 0.00 in0.0 mm
04:33 AM 49.7°F9.8°C 46.9°F8.3°C 90% 1.8 mph NNE2.9 kmh NNE 3.0 mph4.8 kmh 29.96 in1014.6 mb 0.00 in0.0 mm 0.00 in0.0 mm 0.00 in0.0 mm
04:34 AM 49.6°F9.8°C 46.8°F8.2°C 90% 1.5 mph NNE2.4 kmh NNE 3.0 mph4.8 kmh 29.95 in1014.2 mb 0.00 in0.0 mm 0.00 in0.0 mm 0.00 in0.0 mm
04:35 AM 49.6°F9.8°C 46.8°F8.2°C 90% 1.8 mph NNE2.9 kmh NNE 2.0 mph3.2 kmh 29.95 in1014.2 mb 0.00 in0.0 mm 0.00 in0.0 mm 0.00 in0.0 mm
04:36 AM 49.6°F9.8°C 46.8°F8.2°C 90% 1.5 mph NNE2.4 kmh NNE 2.0 mph3.2 kmh 29.96 in1014.6 mb 0.00 in0.0 mm 0.00 in0.0 mm 0.00 in0.0 mm
04:37 AM 49.6°F9.8°C 47.1°F8.4°C 91% 2.1 mph NNE3.4 kmh NNE 3.0 mph4.8 kmh 29.95 in1014.2 mb 0.00 in0.0 mm 0.00 in0.0 mm 0.00 in0.0 mm
04:38 AM 49.6°F9.8°C 47.1°F8.4°C 91% 2.1 mph NNE3.4 kmh NNE 3.0 mph4.8 kmh 29.95 in1014.2 mb 0.00 in0.0 mm 0.00 in0.0 mm 0.00 in0.0 mm
04:39 AM 49.6°F9.8°C 47.1°F8.4°C 91% 2.4 mph NNE3.9 kmh NNE 3.0 mph4.8 kmh 29.95 in1014.2 mb 0.00 in0.0 mm 0.00 in0.0 mm 0.00 in0.0 mm
04:40 AM 49.6°F9.8°C 47.1°F8.4°C 91% 1.7 mph NNE2.7 kmh NNE 3.0 mph4.8 kmh 29.95 in1014.2 mb 0.00 in0.0 mm 0.00 in0.0 mm 0.00 in0.0 mm
04:41 AM 49.6°F9.8°C 47.4°F8.6°C 92% 2.5 mph NNE4.0 kmh NNE 3.0 mph4.8 kmh 29.95 in1014.2 mb 0.00 in0.0 mm 0.00 in0.0 mm 0.00 in0.0 mm
04:42 AM 49.7°F9.8°C 47.5°F8.6°C 92% 2.1 mph NNE3.4 kmh NNE 3.0 mph4.8 kmh 29.95 in1014.2 mb 0.00 in0.0 mm 0.00 in0.0 mm 0.00 in0.0 mm
04:43 AM 49.7°F9.8°C 47.5°F8.6°C 92% 2.3 mph NNE3.7 kmh NNE 3.0 mph4.8 kmh 29.95 in1014.2 mb 0.00 in0.0 mm 0.00 in0.0 mm 0.00 in0.0 mm
04:44 AM 49.7°F9.8°C 47.5°F8.6°C 92% 2.5 mph NNE4.0 kmh NNE 3.0 mph4.8 kmh 29.95 in1014.2 mb 0.00 in0.0 mm 0.00 in0.0 mm 0.00 in0.0 mm
04:45 AM 49.7°F9.8°C 47.5°F8.6°C 92% 2.4 mph NNE3.9 kmh NNE 3.0 mph4.8 kmh 29.95 in1014.2 mb 0.00 in0.0 mm 0.00 in0.0 mm 0.00 in0.0 mm
04:46 AM 49.7°F9.8°C 47.5°F8.6°C 92% 2.5 mph NNE4.0 kmh NNE 3.0 mph4.8 kmh 29.96 in1014.6 mb 0.00 in0.0 mm 0.00 in0.0 mm 0.00 in0.0 mm
04:47 AM 49.8°F9.9°C 47.6°F8.7°C 92% 2.9 mph NNE4.7 kmh NNE 4.0 mph6.4 kmh 29.95 in1014.2 mb 0.00 in0.0 mm 0.00 in0.0 mm 0.00 in0.0 mm
04:48 AM 49.8°F9.9°C 47.6°F8.7°C 92% 3.0 mph NE4.8 kmh NE 4.0 mph6.4 kmh 29.95 in1014.2 mb 0.00 in0.0 mm 0.00 in0.0 mm 0.00 in0.0 mm
04:49 AM 49.9°F9.9°C 47.4°F8.6°C 91% 2.8 mph NE4.5 kmh NE 4.0 mph6.4 kmh 29.96 in1014.6 mb 0.00 in0.0 mm 0.00 in0.0 mm 0.00 in0.0 mm
04:50 AM 49.8°F9.9°C 47.3°F8.5°C 91% 3.0 mph NE4.8 kmh NE 4.0 mph6.4 kmh 29.96 in1014.6 mb 0.00 in0.0 mm 0.00 in0.0 mm 0.00 in0.0 mm
04:51 AM 49.8°F9.9°C 47.3°F8.5°C 91% 3.1 mph NE5.0 kmh NE 4.0 mph6.4 kmh 29.96 in1014.6 mb 0.00 in0.0 mm 0.00 in0.0 mm 0.00 in0.0 mm
04:52 AM 49.8°F9.9°C 47.3°F8.5°C 91% 2.5 mph NE4.0 kmh NE 4.0 mph6.4 kmh 29.96 in1014.6 mb 0.00 in0.0 mm 0.00 in0.0 mm 0.00 in0.0 mm
04:53 AM 49.8°F9.9°C 47.3°F8.5°C 91% 2.4 mph NE3.9 kmh NE 3.0 mph4.8 kmh 29.96 in1014.6 mb 0.00 in0.0 mm 0.00 in0.0 mm 0.00 in0.0 mm
04:54 AM 49.8°F9.9°C 47.3°F8.5°C 91% 3.2 mph NE5.1 kmh NE 4.0 mph6.4 kmh 29.96 in1014.6 mb 0.00 in0.0 mm 0.00 in0.0 mm 0.00 in0.0 mm
04:55 AM 49.7°F9.8°C 47.2°F8.4°C 91% 3.3 mph NE5.3 kmh NE 4.0 mph6.4 kmh 29.96 in1014.6 mb 0.00 in0.0 mm 0.00 in0.0 mm 0.00 in0.0 mm
04:56 AM 49.8°F9.9°C 47.3°F8.5°C 91% 3.0 mph NE4.8 kmh NE 4.0 mph6.4 kmh 29.96 in1014.6 mb 0.00 in0.0 mm 0.00 in0.0 mm 0.00 in0.0 mm
04:57 AM 49.7°F9.8°C 47.2°F8.4°C 91% 3.1 mph NE5.0 kmh NE 4.0 mph6.4 kmh 29.96 in1014.6 mb 0.00 in0.0 mm 0.00 in0.0 mm 0.00 in0.0 mm
04:58 AM 49.6°F9.8°C 47.1°F8.4°C 91% 2.8 mph NE4.5 kmh NE 4.0 mph6.4 kmh 29.96 in1014.6 mb 0.00 in0.0 mm 0.00 in0.0 mm 0.00 in0.0 mm
04:59 AM 49.6°F9.8°C 47.1°F8.4°C 91% 2.9 mph NE4.7 kmh NE 4.0 mph6.4 kmh 29.96 in1014.6 mb 0.00 in0.0 mm 0.00 in0.0 mm 0.00 in0.0 mm
05:00 AM 49.6°F9.8°C 46.8°F8.2°C 90% 2.3 mph NE3.7 kmh NE 4.0 mph6.4 kmh 29.96 in1014.6 mb 0.00 in0.0 mm 0.00 in0.0 mm 0.00 in0.0 mm
05:01 AM 49.5°F9.7°C 46.7°F8.2°C 90% 2.5 mph NE4.0 kmh NE 3.0 mph4.8 kmh 29.96 in1014.6 mb 0.00 in0.0 mm 0.00 in0.0 mm 0.00 in0.0 mm
05:02 AM 49.4°F9.7°C 46.6°F8.1°C 90% 2.7 mph NE4.3 kmh NE 4.0 mph6.4 kmh 29.96 in1014.6 mb 0.00 in0.0 mm 0.00 in0.0 mm 0.00 in0.0 mm
05:03 AM 49.4°F9.7°C 46.6°F8.1°C 90% 2.5 mph NE4.0 kmh NE 4.0 mph6.4 kmh 29.96 in1014.6 mb 0.00 in0.0 mm 0.00 in0.0 mm 0.00 in0.0 mm
05:04 AM 49.3°F9.6°C 46.8°F8.2°C 91% 2.6 mph NE4.2 kmh NE 4.0 mph6.4 kmh 29.96 in1014.6 mb 0.00 in0.0 mm 0.00 in0.0 mm 0.00 in0.0 mm
05:05 AM 49.3°F9.6°C 46.8°F8.2°C 91% 2.3 mph NE3.7 kmh NE 4.0 mph6.4 kmh 29.96 in1014.6 mb 0.00 in0.0 mm 0.00 in0.0 mm 0.00 in0.0 mm
05:06 AM 49.3°F9.6°C 46.8°F8.2°C 91% 2.9 mph NE4.7 kmh NE 4.0 mph6.4 kmh 29.96 in1014.6 mb 0.00 in0.0 mm 0.00 in0.0 mm 0.00 in0.0 mm
05:07 AM 49.3°F9.6°C 47.1°F8.4°C 92% 2.5 mph NE4.0 kmh NE 4.0 mph6.4 kmh 29.96 in1014.6 mb 0.00 in0.0 mm 0.00 in0.0 mm 0.00 in0.0 mm
05:08 AM 49.3°F9.6°C 47.1°F8.4°C 92% 2.3 mph NE3.7 kmh NE 3.0 mph4.8 kmh 29.96 in1014.6 mb 0.00 in0.0 mm 0.00 in0.0 mm 0.00 in0.0 mm
05:09 AM 49.2°F9.6°C 47.0°F8.3°C 92% 2.8 mph NE4.5 kmh NE 3.0 mph4.8 kmh 29.96 in1014.6 mb 0.00 in0.0 mm 0.00 in0.0 mm 0.00 in0.0 mm
05:10 AM 49.2°F9.6°C 46.7°F8.2°C 91% 2.7 mph NE4.3 kmh NE 4.0 mph6.4 kmh 29.96 in1014.6 mb 0.00 in0.0 mm 0.00 in0.0 mm 0.00 in0.0 mm
05:11 AM 49.2°F9.6°C 46.7°F8.2°C 91% 2.9 mph NE4.7 kmh NE 4.0 mph6.4 kmh 29.96 in1014.6 mb 0.00 in0.0 mm 0.00 in0.0 mm 0.00 in0.0 mm
05:12 AM 49.2°F9.6°C 46.7°F8.2°C 91% 2.6 mph NE4.2 kmh NE 4.0 mph6.4 kmh 29.96 in1014.6 mb 0.00 in0.0 mm 0.00 in0.0 mm 0.00 in0.0 mm
05:13 AM 49.2°F9.6°C 46.7°F8.2°C 91% 2.1 mph NE3.4 kmh NE 3.0 mph4.8 kmh 29.96 in1014.6 mb 0.00 in0.0 mm 0.00 in0.0 mm 0.00 in0.0 mm
05:14 AM 49.1°F9.5°C 46.6°F8.1°C 91% 2.4 mph NE3.9 kmh NE 3.0 mph4.8 kmh 29.96 in1014.6 mb 0.00 in0.0 mm 0.00 in0.0 mm 0.00 in0.0 mm
05:15 AM 49.2°F9.6°C 46.7°F8.2°C 91% 1.9 mph NE3.1 kmh NE 3.0 mph4.8 kmh 29.96 in1014.6 mb 0.00 in0.0 mm 0.00 in0.0 mm 0.00 in0.0 mm
05:16 AM 49.1°F9.5°C 46.9°F8.3°C 92% 1.9 mph NE3.1 kmh NE 3.0 mph4.8 kmh 29.96 in1014.6 mb 0.00 in0.0 mm 0.00 in0.0 mm 0.00 in0.0 mm
05:17 AM 49.1°F9.5°C 46.9°F8.3°C 92% 2.3 mph NE3.7 kmh NE 3.0 mph4.8 kmh 29.96 in1014.6 mb 0.00 in0.0 mm 0.00 in0.0 mm 0.00 in0.0 mm
05:18 AM 49.0°F9.4°C 46.8°F8.2°C 92% 2.3 mph NE3.7 kmh NE 3.0 mph4.8 kmh 29.96 in1014.6 mb 0.00 in0.0 mm 0.00 in0.0 mm 0.00 in0.0 mm
05:19 AM 49.1°F9.5°C 46.9°F8.3°C 92% 1.4 mph NE2.3 kmh NE 3.0 mph4.8 kmh 29.96 in1014.6 mb 0.00 in0.0 mm 0.00 in0.0 mm 0.00 in0.0 mm
05:20 AM 49.0°F9.4°C 46.8°F8.2°C 92% 1.3 mph NE2.1 kmh NE 2.0 mph3.2 kmh 29.96 in1014.6 mb 0.00 in0.0 mm 0.00 in0.0 mm 0.00 in0.0 mm
05:21 AM 49.0°F9.4°C 46.8°F8.2°C 92% 2.2 mph NE3.5 kmh NE 3.0 mph4.8 kmh 29.96 in1014.6 mb 0.00 in0.0 mm 0.00 in0.0 mm 0.00 in0.0 mm
05:22 AM 49.0°F9.4°C 46.8°F8.2°C 92% 1.3 mph NNE2.1 kmh NNE 3.0 mph4.8 kmh 29.96 in1014.6 mb 0.00 in0.0 mm 0.00 in0.0 mm 0.00 in0.0 mm
05:23 AM 49.0°F9.4°C 46.8°F8.2°C 92% 1.4 mph NNE2.3 kmh NNE 2.0 mph3.2 kmh 29.96 in1014.6 mb 0.00 in0.0 mm 0.00 in0.0 mm 0.00 in0.0 mm
05:24 AM 49.0°F9.4°C 46.8°F8.2°C 92% 1.8 mph NNE2.9 kmh NNE 3.0 mph4.8 kmh 29.96 in1014.6 mb 0.00 in0.0 mm 0.00 in0.0 mm 0.00 in0.0 mm
05:25 AM 49.0°F9.4°C 46.8°F8.2°C 92% 1.5 mph NNE2.4 kmh NNE 3.0 mph4.8 kmh 29.96 in1014.6 mb 0.00 in0.0 mm 0.00 in0.0 mm 0.00 in0.0 mm
05:26 AM 49.1°F9.5°C 46.9°F8.3°C 92% 1.5 mph NNE2.4 kmh NNE 3.0 mph4.8 kmh 29.96 in1014.6 mb 0.00 in0.0 mm 0.00 in0.0 mm 0.00 in0.0 mm
05:27 AM 49.1°F9.5°C 46.9°F8.3°C 92% 2.4 mph NNE3.9 kmh NNE 3.0 mph4.8 kmh 29.96 in1014.6 mb 0.00 in0.0 mm 0.00 in0.0 mm 0.00 in0.0 mm
05:28 AM 49.1°F9.5°C 47.2°F8.4°C 93% 1.4 mph NNE2.3 kmh NNE 3.0 mph4.8 kmh 29.96 in1014.6 mb 0.00 in0.0 mm 0.00 in0.0 mm 0.00 in0.0 mm
05:29 AM 49.1°F9.5°C 47.2°F8.4°C 93% 1.8 mph NNE2.9 kmh NNE 3.0 mph4.8 kmh 29.96 in1014.6 mb 0.00 in0.0 mm 0.00 in0.0 mm 0.00 in0.0 mm
05:30 AM 49.2°F9.6°C 47.3°F8.5°C 93% 1.9 mph NNE3.1 kmh NNE 3.0 mph4.8 kmh 29.96 in1014.6 mb 0.00 in0.0 mm 0.00 in0.0 mm 0.00 in0.0 mm
05:31 AM 49.2°F9.6°C 47.3°F8.5°C 93% 2.8 mph NE4.5 kmh NE 4.0 mph6.4 kmh 29.96 in1014.6 mb 0.00 in0.0 mm 0.00 in0.0 mm 0.00 in0.0 mm
05:32 AM 49.2°F9.6°C 47.3°F8.5°C 93% 1.8 mph NNE2.9 kmh NNE 4.0 mph6.4 kmh 29.96 in1014.6 mb 0.00 in0.0 mm 0.00 in0.0 mm 0.00 in0.0 mm
05:33 AM 49.2°F9.6°C 47.3°F8.5°C 93% 2.8 mph NNE4.5 kmh NNE 4.0 mph6.4 kmh 29.96 in1014.6 mb 0.00 in0.0 mm 0.00 in0.0 mm 0.00 in0.0 mm
05:34 AM 49.3°F9.6°C 47.4°F8.6°C 93% 2.3 mph NNE3.7 kmh NNE 4.0 mph6.4 kmh 29.96 in1014.6 mb 0.00 in0.0 mm 0.00 in0.0 mm 0.00 in0.0 mm
05:35 AM 49.3°F9.6°C 47.4°F8.6°C 93% 2.1 mph NNE3.4 kmh NNE 3.0 mph4.8 kmh 29.96 in1014.6 mb 0.00 in0.0 mm 0.00 in0.0 mm 0.00 in0.0 mm
05:36 AM 49.3°F9.6°C 47.4°F8.6°C 93% 2.4 mph NNE3.9 kmh NNE 3.0 mph4.8 kmh 29.96 in1014.6 mb 0.00 in0.0 mm 0.00 in0.0 mm 0.00 in0.0 mm
05:37 AM 49.3°F9.6°C 47.4°F8.6°C 93% 2.2 mph NNE3.5 kmh NNE 3.0 mph4.8 kmh 29.96 in1014.6 mb 0.00 in0.0 mm 0.00 in0.0 mm 0.00 in0.0 mm
05:38 AM 49.3°F9.6°C 47.4°F8.6°C 93% 2.0 mph NNE3.2 kmh NNE 3.0 mph4.8 kmh 29.96 in1014.6 mb 0.00 in0.0 mm 0.00 in0.0 mm 0.00 in0.0 mm
05:39 AM 49.3°F9.6°C 47.4°F8.6°C 93% 1.9 mph NNE3.1 kmh NNE 3.0 mph4.8 kmh 29.96 in1014.6 mb 0.00 in0.0 mm 0.00 in0.0 mm 0.00 in0.0 mm
05:40 AM 49.3°F9.6°C 47.4°F8.6°C 93% 1.6 mph NNE2.6 kmh NNE 3.0 mph4.8 kmh 29.96 in1014.6 mb 0.00 in0.0 mm 0.00 in0.0 mm 0.00 in0.0 mm
05:41 AM 49.3°F9.6°C 47.4°F8.6°C 93% 1.8 mph NNE2.9 kmh NNE 2.0 mph3.2 kmh 29.96 in1014.6 mb 0.00 in0.0 mm 0.00 in0.0 mm 0.00 in0.0 mm
05:42 AM 49.3°F9.6°C 47.4°F8.6°C 93% 1.5 mph NNE2.4 kmh NNE 2.0 mph3.2 kmh 29.96 in1014.6 mb 0.00 in0.0 mm 0.00 in0.0 mm 0.00 in0.0 mm
05:43 AM 49.4°F9.7°C 47.5°F8.6°C 93% 1.2 mph NNE1.9 kmh NNE 2.0 mph3.2 kmh 29.96 in1014.6 mb 0.00 in0.0 mm 0.00 in0.0 mm 0.00 in0.0 mm
05:44 AM 49.4°F9.7°C 47.5°F8.6°C 93% 1.3 mph NNE2.1 kmh NNE 2.0 mph3.2 kmh 29.96 in1014.6 mb 0.00 in0.0 mm 0.00 in0.0 mm 0.00 in0.0 mm
05:45 AM 49.4°F9.7°C 47.5°F8.6°C 93% 1.5 mph NNE2.4 kmh NNE 2.0 mph3.2 kmh 29.96 in1014.6 mb 0.00 in0.0 mm 0.00 in0.0 mm 0.00 in0.0 mm
05:46 AM 49.5°F9.7°C 47.6°F8.7°C 93% 1.3 mph NNE2.1 kmh NNE 2.0 mph3.2 kmh 29.96 in1014.6 mb 0.00 in0.0 mm 0.00 in0.0 mm 0.00 in0.0 mm
05:47 AM 49.5°F9.7°C 47.6°F8.7°C 93% 1.5 mph NNE2.4 kmh NNE 2.0 mph3.2 kmh 29.96 in1014.6 mb 0.00 in0.0 mm 0.00 in0.0 mm 0.00 in0.0 mm
05:48 AM 49.5°F9.7°C 47.6°F8.7°C 93% 2.3 mph NNE3.7 kmh NNE 3.0 mph4.8 kmh 29.96 in1014.6 mb 0.00 in0.0 mm 0.00 in0.0 mm 0.00 in0.0 mm
05:49 AM 49.6°F9.8°C 47.7°F8.7°C 93% 2.0 mph N3.2 kmh N 3.0 mph4.8 kmh 29.96 in1014.6 mb 0.00 in0.0 mm 0.00 in0.0 mm 0.00 in0.0 mm
05:50 AM 49.6°F9.8°C 47.7°F8.7°C 93% 1.7 mph N2.7 kmh N 3.0 mph4.8 kmh 29.96 in1014.6 mb 0.00 in0.0 mm 0.00 in0.0 mm 0.00 in0.0 mm
05:51 AM 49.6°F9.8°C 47.7°F8.7°C 93% 1.9 mph N3.1 kmh N 2.0 mph3.2 kmh 29.96 in1014.6 mb 0.00 in0.0 mm 0.00 in0.0 mm 0.00 in0.0 mm
05:52 AM 49.6°F9.8°C 47.7°F8.7°C 93% 2.0 mph N3.2 kmh N 3.0 mph4.8 kmh 29.96 in1014.6 mb 0.00 in0.0 mm 0.00 in0.0 mm 0.00 in0.0 mm
05:53 AM 49.7°F9.8°C 47.8°F8.8°C 93% 1.5 mph N2.4 kmh N 3.0 mph4.8 kmh 29.96 in1014.6 mb 0.00 in0.0 mm 0.00 in0.0 mm 0.00 in0.0 mm
05:54 AM 49.6°F9.8°C 47.7°F8.7°C 93% 1.5 mph N2.4 kmh N 3.0 mph4.8 kmh 29.96 in1014.6 mb 0.00 in0.0 mm 0.00 in0.0 mm 0.00 in0.0 mm
05:55 AM 49.6°F9.8°C 47.7°F8.7°C 93% 1.7 mph N2.7 kmh N 3.0 mph4.8 kmh 29.96 in1014.6 mb 0.00 in0.0 mm 0.00 in0.0 mm 0.00 in0.0 mm
05:56 AM 49.6°F9.8°C 47.7°F8.7°C 93% 2.0 mph N3.2 kmh N 3.0 mph4.8 kmh 29.96 in1014.6 mb 0.00 in0.0 mm 0.00 in0.0 mm 0.00 in0.0 mm
05:57 AM 49.7°F9.8°C 47.8°F8.8°C 93% 2.4 mph N3.9 kmh N 3.0 mph4.8 kmh 29.96 in1014.6 mb 0.00 in0.0 mm 0.00 in0.0 mm 0.00 in0.0 mm
05:58 AM 49.7°F9.8°C 47.8°F8.8°C 93% 2.5 mph N4.0 kmh N 3.0 mph4.8 kmh 29.96 in1014.6 mb 0.00 in0.0 mm 0.00 in0.0 mm 0.00 in0.0 mm
05:59 AM 49.8°F9.9°C 47.9°F8.8°C 93% 3.1 mph N5.0 kmh N 4.0 mph6.4 kmh 29.96 in1014.6 mb 0.00 in0.0 mm 0.00 in0.0 mm 0.00 in0.0 mm
06:00 AM 49.8°F9.9°C 47.9°F8.8°C 93% 2.6 mph N4.2 kmh N 4.0 mph6.4 kmh 29.96 in1014.6 mb 0.00 in0.0 mm 0.00 in0.0 mm 0.00 in0.0 mm
06:01 AM 49.9°F9.9°C 48.0°F8.9°C 93% 2.4 mph N3.9 kmh N 3.0 mph4.8 kmh 29.96 in1014.6 mb 0.00 in0.0 mm 0.00 in0.0 mm 0.00 in0.0 mm
06:02 AM 49.9°F9.9°C 48.0°F8.9°C 93% 2.4 mph N3.9 kmh N 3.0 mph4.8 kmh 29.96 in1014.6 mb 0.00 in0.0 mm 0.00 in0.0 mm 0.00 in0.0 mm
06:03 AM 50.0°F10.0°C 48.1°F8.9°C 93% 1.9 mph N3.1 kmh N 3.0 mph4.8 kmh 29.96 in1014.6 mb 0.00 in0.0 mm 0.00 in0.0 mm 0.00 in0.0 mm
06:04 AM 50.1°F10.1°C 48.2°F9.0°C 93% 2.4 mph N3.9 kmh N 3.0 mph4.8 kmh 29.96 in1014.6 mb 0.00 in0.0 mm 0.00 in0.0 mm 0.00 in0.0 mm
06:05 AM 50.2°F10.1°C 48.5°F9.2°C 94% 2.8 mph N4.5 kmh N 3.0 mph4.8 kmh 29.96 in1014.6 mb 0.00 in0.0 mm 0.00 in0.0 mm 0.00 in0.0 mm
06:06 AM 50.2°F10.1°C 48.3°F9.1°C 93% 2.9 mph N4.7 kmh N 4.0 mph6.4 kmh 29.96 in1014.6 mb 0.00 in0.0 mm 0.00 in0.0 mm 0.00 in0.0 mm
06:07 AM 50.3°F10.2°C 48.6°F9.2°C 94% 1.7 mph N2.7 kmh N 4.0 mph6.4 kmh 29.96 in1014.6 mb 0.00 in0.0 mm 0.00 in0.0 mm 0.00 in0.0 mm
06:08 AM 50.3°F10.2°C 48.4°F9.1°C 93% 2.3 mph N3.7 kmh N 3.0 mph4.8 kmh 29.96 in1014.6 mb 0.00 in0.0 mm 0.00 in0.0 mm 0.00 in0.0 mm
06:09 AM 50.4°F10.2°C 48.5°F9.2°C 93% 2.4 mph N3.9 kmh N 3.0 mph4.8 kmh 29.96 in1014.6 mb 0.00 in0.0 mm 0.00 in0.0 mm 0.00 in0.0 mm
06:10 AM 50.4°F10.2°C 48.5°F9.2°C 93% 2.8 mph N4.5 kmh N 3.0 mph4.8 kmh 29.96 in1014.6 mb 0.00 in0.0 mm 0.00 in0.0 mm 0.00 in0.0 mm
06:11 AM 50.4°F10.2°C 48.5°F9.2°C 93% 2.9 mph N4.7 kmh N 4.0 mph6.4 kmh 29.96 in1014.6 mb 0.00 in0.0 mm 0.00 in0.0 mm 0.00 in0.0 mm
06:12 AM 50.6°F10.3°C 48.7°F9.3°C 93% 3.2 mph NNE5.1 kmh NNE 4.0 mph6.4 kmh 29.96 in1014.6 mb 0.00 in0.0 mm 0.00 in0.0 mm 0.00 in0.0 mm
06:13 AM 50.6°F10.3°C 48.7°F9.3°C 93% 3.0 mph NNE4.8 kmh NNE 4.0 mph6.4 kmh 29.96 in1014.6 mb 0.00 in0.0 mm 0.00 in0.0 mm 0.00 in0.0 mm
06:14 AM 50.7°F10.4°C 48.8°F9.3°C 93% 3.3 mph NNE5.3 kmh NNE 4.0 mph6.4 kmh 29.96 in1014.6 mb 0.00 in0.0 mm 0.00 in0.0 mm 0.00 in0.0 mm
06:15 AM 50.8°F10.4°C 48.8°F9.3°C 93% 3.3 mph NNE5.3 kmh NNE 4.0 mph6.4 kmh 29.96 in1014.6 mb 0.00 in0.0 mm 0.00 in0.0 mm 0.00 in0.0 mm
06:16 AM 50.8°F10.4°C 48.8°F9.3°C 93% 3.6 mph NE5.8 kmh NE 4.0 mph6.4 kmh 29.96 in1014.6 mb 0.00 in0.0 mm 0.00 in0.0 mm 0.00 in0.0 mm
06:17 AM 50.9°F10.5°C 48.9°F9.4°C 93% 3.2 mph NE5.1 kmh NE 4.0 mph6.4 kmh 29.96 in1014.6 mb 0.00 in0.0 mm 0.00 in0.0 mm 0.00 in0.0 mm
06:18 AM 51.0°F10.6°C 49.0°F9.4°C 93% 3.8 mph NE6.1 kmh NE 5.0 mph8.0 kmh 29.96 in1014.6 mb 0.00 in0.0 mm 0.00 in0.0 mm 0.00 in0.0 mm
06:19 AM 51.0°F10.6°C 48.8°F9.3°C 92% 3.9 mph NE6.3 kmh NE 5.0 mph8.0 kmh 29.96 in1014.6 mb 0.00 in0.0 mm 0.00 in0.0 mm 0.00 in0.0 mm
06:20 AM 51.2°F10.7°C 49.0°F9.4°C 92% 4.3 mph NE6.9 kmh NE 5.0 mph8.0 kmh 29.96 in1014.6 mb 0.00 in0.0 mm 0.00 in0.0 mm 0.00 in0.0 mm
06:21 AM 51.2°F10.7°C 49.0°F9.4°C 92% 3.5 mph NE5.6 kmh NE 5.0 mph8.0 kmh 29.96 in1014.6 mb 0.00 in0.0 mm 0.00 in0.0 mm 0.00 in0.0 mm
06:22 AM 51.3°F10.7°C 49.1°F9.5°C 92% 4.5 mph NE7.2 kmh NE 6.0 mph9.7 kmh 29.96 in1014.6 mb 0.00 in0.0 mm 0.00 in0.0 mm 0.00 in0.0 mm
06:23 AM 51.4°F10.8°C 49.2°F9.6°C 92% 3.8 mph NE6.1 kmh NE 6.0 mph9.7 kmh 29.96 in1014.6 mb 0.00 in0.0 mm 0.00 in0.0 mm 0.00 in0.0 mm
06:24 AM 51.5°F10.8°C 49.3°F9.6°C 92% 4.3 mph NE6.9 kmh NE 5.0 mph8.0 kmh 29.96 in1014.6 mb 0.00 in0.0 mm 0.00 in0.0 mm 0.00 in0.0 mm
06:25 AM 51.6°F10.9°C 49.4°F9.7°C 92% 4.5 mph NE7.2 kmh NE 5.0 mph8.0 kmh 29.96 in1014.6 mb 0.00 in0.0 mm 0.00 in0.0 mm 0.00 in0.0 mm
06:26 AM 51.7°F10.9°C 49.2°F9.6°C 91% 4.9 mph NE7.9 kmh NE 6.0 mph9.7 kmh 29.96 in1014.6 mb 0.00 in0.0 mm 0.00 in0.0 mm 0.00 in0.0 mm
06:27 AM 51.9°F11.1°C 49.4°F9.7°C 91% 4.5 mph NE7.2 kmh NE 7.0 mph11.3 kmh 29.95 in1014.2 mb 0.00 in0.0 mm 0.00 in0.0 mm 0.00 in0.0 mm
06:28 AM 52.0°F11.1°C 49.5°F9.7°C 91% 5.8 mph NE9.3 kmh NE 8.0 mph12.9 kmh 29.95 in1014.2 mb 0.00 in0.0 mm 0.00 in0.0 mm 0.00 in0.0 mm
06:29 AM 52.1°F11.2°C 49.6°F9.8°C 91% 4.7 mph NE7.6 kmh NE 8.0 mph12.9 kmh 29.96 in1014.6 mb 0.00 in0.0 mm 0.00 in0.0 mm 0.00 in0.0 mm
06:30 AM 52.3°F11.3°C 49.5°F9.7°C 90% 4.8 mph NE7.7 kmh NE 6.0 mph9.7 kmh 29.95 in1014.2 mb 0.00 in0.0 mm 0.00 in0.0 mm 0.00 in0.0 mm
06:31 AM 52.4°F11.3°C 49.6°F9.8°C 90% 5.4 mph NE8.7 kmh NE 6.0 mph9.7 kmh 29.95 in1014.2 mb 0.00 in0.0 mm 0.00 in0.0 mm 0.00 in0.0 mm
06:32 AM 52.5°F11.4°C 49.7°F9.8°C 90% 4.8 mph NE7.7 kmh NE 6.0 mph9.7 kmh 29.95 in1014.2 mb 0.00 in0.0 mm 0.00 in0.0 mm 0.00 in0.0 mm
06:33 AM 52.6°F11.4°C 49.8°F9.9°C 90% 4.1 mph NE6.6 kmh NE 6.0 mph9.7 kmh 29.95 in1014.2 mb 0.00 in0.0 mm 0.00 in0.0 mm 0.00 in0.0 mm
06:34 AM 52.7°F11.5°C 49.8°F9.9°C 90% 3.9 mph NE6.3 kmh NE 5.0 mph8.0 kmh 29.95 in1014.2 mb 0.00 in0.0 mm 0.00 in0.0 mm 0.00 in0.0 mm
06:35 AM 52.8°F11.6°C 49.9°F9.9°C 90% 4.5 mph NE7.2 kmh NE 6.0 mph9.7 kmh 29.95 in1014.2 mb 0.00 in0.0 mm 0.00 in0.0 mm 0.00 in0.0 mm
06:36 AM 53.0°F11.7°C 49.8°F9.9°C 89% 4.3 mph NE6.9 kmh NE 6.0 mph9.7 kmh 29.95 in1014.2 mb 0.00 in0.0 mm 0.00 in0.0 mm 0.00 in0.0 mm
06:37 AM 53.1°F11.7°C 49.9°F9.9°C 89% 4.1 mph NE6.6 kmh NE 6.0 mph9.7 kmh 29.95 in1014.2 mb 0.00 in0.0 mm 0.00 in0.0 mm 0.00 in0.0 mm
06:38 AM 53.2°F11.8°C 50.0°F10.0°C 89% 3.7 mph NE6.0 kmh NE 5.0 mph8.0 kmh 29.95 in1014.2 mb 0.00 in0.0 mm 0.00 in0.0 mm 0.00 in0.0 mm
06:39 AM 53.3°F11.8°C 50.1°F10.1°C 89% 3.8 mph NE6.1 kmh NE 5.0 mph8.0 kmh 29.96 in1014.6 mb 0.00 in0.0 mm 0.00 in0.0 mm 0.00 in0.0 mm
06:40 AM 53.5°F11.9°C 50.3°F10.2°C 89% 4.4 mph NE7.1 kmh NE 5.0 mph8.0 kmh 29.95 in1014.2 mb 0.00 in0.0 mm 0.00 in0.0 mm 0.00 in0.0 mm
06:41 AM 53.5°F11.9°C 50.0°F10.0°C 88% 3.9 mph NE6.3 kmh NE 5.0 mph8.0 kmh 29.95 in1014.2 mb 0.00 in0.0 mm 0.00 in0.0 mm 0.00 in0.0 mm
06:42 AM 53.7°F12.1°C 50.2°F10.1°C 88% 3.6 mph NE5.8 kmh NE 5.0 mph8.0 kmh 29.95 in1014.2 mb 0.00 in0.0 mm 0.00 in0.0 mm 0.00 in0.0 mm
06:43 AM 53.8°F12.1°C 50.3°F10.2°C 88% 3.8 mph NE6.1 kmh NE 5.0 mph8.0 kmh 29.95 in1014.2 mb 0.00 in0.0 mm 0.00 in0.0 mm 0.00 in0.0 mm
06:44 AM 53.9°F12.2°C 50.4°F10.2°C 88% 3.7 mph NE6.0 kmh NE 5.0 mph8.0 kmh 29.95 in1014.2 mb 0.00 in0.0 mm 0.00 in0.0 mm 0.00 in0.0 mm
06:45 AM 54.0°F12.2°C 50.5°F10.3°C 88% 3.4 mph NE5.5 kmh NE 5.0 mph8.0 kmh 29.95 in1014.2 mb 0.00 in0.0 mm 0.00 in0.0 mm 0.00 in0.0 mm
06:46 AM 54.1°F12.3°C 50.6°F10.3°C 88% 3.6 mph NE5.8 kmh NE 7.0 mph11.3 kmh 29.95 in1014.2 mb 0.00 in0.0 mm 0.00 in0.0 mm 0.00 in0.0 mm
06:47 AM 54.2°F12.3°C 50.7°F10.4°C 88% 4.8 mph NNE7.7 kmh NNE 7.0 mph11.3 kmh 29.95 in1014.2 mb 0.00 in0.0 mm 0.00 in0.0 mm 0.00 in0.0 mm
06:48 AM 54.4°F12.4°C 50.9°F10.5°C 88% 3.2 mph N5.1 kmh N 7.0 mph11.3 kmh 29.95 in1014.2 mb 0.00 in0.0 mm 0.00 in0.0 mm 0.00 in0.0 mm
06:49 AM 54.5°F12.5°C 51.3°F10.7°C 89% 4.9 mph NNE7.9 kmh NNE 7.0 mph11.3 kmh 29.95 in1014.2 mb 0.00 in0.0 mm 0.00 in0.0 mm 0.00 in0.0 mm
06:50 AM 54.6°F12.6°C 51.4°F10.8°C 89% 4.3 mph NE6.9 kmh NE 7.0 mph11.3 kmh 29.95 in1014.2 mb 0.00 in0.0 mm 0.00 in0.0 mm 0.00 in0.0 mm
06:51 AM 54.7°F12.6°C 51.5°F10.8°C 89% 3.9 mph NNE6.3 kmh NNE 6.0 mph9.7 kmh 29.95 in1014.2 mb 0.00 in0.0 mm 0.00 in0.0 mm 0.00 in0.0 mm
06:52 AM 54.7°F12.6°C 51.2°F10.7°C 88% 4.6 mph NNE7.4 kmh NNE 8.0 mph12.9 kmh 29.95 in1014.2 mb 0.00 in0.0 mm 0.00 in0.0 mm 0.00 in0.0 mm
06:53 AM 54.9°F12.7°C 51.4°F10.8°C 88% 5.3 mph N8.5 kmh N 8.0 mph12.9 kmh 29.96 in1014.6 mb 0.00 in0.0 mm 0.00 in0.0 mm 0.00 in0.0 mm
06:54 AM 54.9°F12.7°C 51.4°F10.8°C 88% 4.6 mph N7.4 kmh N 7.0 mph11.3 kmh 29.95 in1014.2 mb 0.00 in0.0 mm 0.00 in0.0 mm 0.00 in0.0 mm
06:55 AM 55.0°F12.8°C 51.5°F10.8°C 88% 4.7 mph NNE7.6 kmh NNE 6.0 mph9.7 kmh 29.96 in1014.6 mb 0.00 in0.0 mm 0.00 in0.0 mm 0.00 in0.0 mm
06:56 AM 55.0°F12.8°C 51.5°F10.8°C 88% 4.5 mph N7.2 kmh N 6.0 mph9.7 kmh 29.96 in1014.6 mb 0.00 in0.0 mm 0.00 in0.0 mm 0.00 in0.0 mm
06:57 AM 55.1°F12.8°C 51.3°F10.7°C 87% 3.8 mph N6.1 kmh N 5.0 mph8.0 kmh 29.96 in1014.6 mb 0.00 in0.0 mm 0.00 in0.0 mm 0.00 in0.0 mm
06:58 AM 55.2°F12.9°C 51.4°F10.8°C 87% 4.4 mph NNE7.1 kmh NNE 5.0 mph8.0 kmh 29.96 in1014.6 mb 0.00 in0.0 mm 0.00 in0.0 mm 0.00 in0.0 mm
06:59 AM 55.3°F12.9°C 51.8°F11.0°C 88% 4.2 mph N6.8 kmh N 5.0 mph8.0 kmh 29.96 in1014.6 mb 0.00 in0.0 mm 0.00 in0.0 mm 0.00 in0.0 mm
07:00 AM 55.3°F12.9°C 51.5°F10.8°C 87% 4.9 mph N7.9 kmh N 7.0 mph11.3 kmh 29.96 in1014.6 mb 0.00 in0.0 mm 0.00 in0.0 mm 0.00 in0.0 mm
07:01 AM 55.3°F12.9°C 51.5°F10.8°C 87% 6.0 mph NNE9.7 kmh NNE 8.0 mph12.9 kmh 29.96 in1014.6 mb 0.00 in0.0 mm 0.00 in0.0 mm 0.00 in0.0 mm
07:02 AM 55.4°F13.0°C 51.3°F10.7°C 86% 5.1 mph N8.2 kmh N 8.0 mph12.9 kmh 29.96 in1014.6 mb 0.00 in0.0 mm 0.00 in0.0 mm 0.00 in0.0 mm
07:03 AM 55.3°F12.9°C 51.5°F10.8°C 87% 4.9 mph N7.9 kmh N 8.0 mph12.9 kmh 29.95 in1014.2 mb 0.00 in0.0 mm 0.00 in0.0 mm 0.00 in0.0 mm
07:04 AM 55.5°F13.1°C 51.7°F10.9°C 87% 4.7 mph NNE7.6 kmh NNE 8.0 mph12.9 kmh 29.95 in1014.2 mb 0.00 in0.0 mm 0.00 in0.0 mm 0.00 in0.0 mm
07:05 AM 55.5°F13.1°C 51.4°F10.8°C 86% 3.1 mph NE5.0 kmh NE 7.0 mph11.3 kmh 29.95 in1014.2 mb 0.00 in0.0 mm 0.00 in0.0 mm 0.00 in0.0 mm
07:06 AM 55.5°F13.1°C 51.4°F10.8°C 86% 2.6 mph NNE4.2 kmh NNE 4.0 mph6.4 kmh 29.95 in1014.2 mb 0.00 in0.0 mm 0.00 in0.0 mm 0.00 in0.0 mm
07:07 AM 55.6°F13.1°C 51.5°F10.8°C 86% 3.8 mph NNE6.1 kmh NNE 5.0 mph8.0 kmh 29.95 in1014.2 mb 0.00 in0.0 mm 0.00 in0.0 mm 0.00 in0.0 mm
07:08 AM 55.5°F13.1°C 51.4°F10.8°C 86% 3.8 mph NNE6.1 kmh NNE 5.0 mph8.0 kmh 29.95 in1014.2 mb 0.00 in0.0 mm 0.00 in0.0 mm 0.00 in0.0 mm
07:09 AM 55.7°F13.2°C 51.6°F10.9°C 86% 3.5 mph NNE5.6 kmh NNE 5.0 mph8.0 kmh 29.96 in1014.6 mb 0.00 in0.0 mm 0.00 in0.0 mm 0.00 in0.0 mm
07:10 AM 55.6°F13.1°C 51.2°F10.7°C 85% 5.6 mph NNE9.0 kmh NNE 7.0 mph11.3 kmh 29.95 in1014.2 mb 0.00 in0.0 mm 0.00 in0.0 mm 0.00 in0.0 mm
07:11 AM 55.6°F13.1°C 51.2°F10.7°C 85% 4.6 mph NNE7.4 kmh NNE 7.0 mph11.3 kmh 29.95 in1014.2 mb 0.00 in0.0 mm 0.00 in0.0 mm 0.00 in0.0 mm
07:12 AM 55.6°F13.1°C 51.2°F10.7°C 85% 4.1 mph NNE6.6 kmh NNE 5.0 mph8.0 kmh 29.95 in1014.2 mb 0.00 in0.0 mm 0.00 in0.0 mm 0.00 in0.0 mm
07:13 AM 55.6°F13.1°C 51.2°F10.7°C 85% 4.4 mph NNE7.1 kmh NNE 7.0 mph11.3 kmh 29.95 in1014.2 mb 0.00 in0.0 mm 0.00 in0.0 mm 0.00 in0.0 mm
07:14 AM 55.6°F13.1°C 51.2°F10.7°C 85% 3.1 mph NNE5.0 kmh NNE 7.0 mph11.3 kmh 29.95 in1014.2 mb 0.00 in0.0 mm 0.00 in0.0 mm 0.00 in0.0 mm
07:15 AM 55.6°F13.1°C 51.5°F10.8°C 86% 2.4 mph NNE3.9 kmh NNE 4.0 mph6.4 kmh 29.95 in1014.2 mb 0.00 in0.0 mm 0.00 in0.0 mm 0.00 in0.0 mm
07:16 AM 55.6°F13.1°C 51.5°F10.8°C 86% 2.2 mph NNE3.5 kmh NNE 3.0 mph4.8 kmh 29.95 in1014.2 mb 0.00 in0.0 mm 0.00 in0.0 mm 0.00 in0.0 mm
07:17 AM 55.7°F13.2°C 51.6°F10.9°C 86% 3.5 mph NNE5.6 kmh NNE 5.0 mph8.0 kmh 29.95 in1014.2 mb 0.00 in0.0 mm 0.00 in0.0 mm 0.00 in0.0 mm
07:18 AM 55.7°F13.2°C 51.6°F10.9°C 86% 3.1 mph NNE5.0 kmh NNE 5.0 mph8.0 kmh 29.95 in1014.2 mb 0.00 in0.0 mm 0.00 in0.0 mm 0.00 in0.0 mm
07:19 AM 55.7°F13.2°C 51.6°F10.9°C 86% 3.9 mph NNE6.3 kmh NNE 5.0 mph8.0 kmh 29.95 in1014.2 mb 0.00 in0.0 mm 0.00 in0.0 mm 0.00 in0.0 mm
07:20 AM 55.9°F13.3°C 51.8°F11.0°C 86% 3.5 mph N5.6 kmh N 5.0 mph8.0 kmh 29.95 in1014.2 mb 0.00 in0.0 mm 0.00 in0.0 mm 0.00 in0.0 mm
07:21 AM 55.9°F13.3°C 51.5°F10.8°C 85% 3.5 mph NNE5.6 kmh NNE 5.0 mph8.0 kmh 29.95 in1014.2 mb 0.00 in0.0 mm 0.00 in0.0 mm 0.00 in0.0 mm
07:22 AM 55.9°F13.3°C 51.5°F10.8°C 85% 4.0 mph N6.4 kmh N 5.0 mph8.0 kmh 29.95 in1014.2 mb 0.00 in0.0 mm 0.00 in0.0 mm 0.00 in0.0 mm
07:23 AM 56.0°F13.3°C 51.6°F10.9°C 85% 3.6 mph N5.8 kmh N 5.0 mph8.0 kmh 29.95 in1014.2 mb 0.00 in0.0 mm 0.00 in0.0 mm 0.00 in0.0 mm
07:24 AM 56.0°F13.3°C 51.6°F10.9°C 85% 3.2 mph N5.1 kmh N 4.0 mph6.4 kmh 29.95 in1014.2 mb 0.00 in0.0 mm 0.00 in0.0 mm 0.00 in0.0 mm
07:25 AM 56.1°F13.4°C 51.7°F10.9°C 85% 2.8 mph N4.5 kmh N 4.0 mph6.4 kmh 29.95 in1014.2 mb 0.00 in0.0 mm 0.00 in0.0 mm 0.00 in0.0 mm
07:26 AM 56.1°F13.4°C 51.7°F10.9°C 85% 2.6 mph N4.2 kmh N 4.0 mph6.4 kmh 29.95 in1014.2 mb 0.00 in0.0 mm 0.00 in0.0 mm 0.00 in0.0 mm
07:27 AM 56.1°F13.4°C 51.7°F10.9°C 85% 2.2 mph NNE3.5 kmh NNE 4.0 mph6.4 kmh 29.95 in1014.2 mb 0.00 in0.0 mm 0.00 in0.0 mm 0.00 in0.0 mm
07:28 AM 56.2°F13.4°C 51.7°F10.9°C 85% 3.9 mph NNE6.3 kmh NNE 5.0 mph8.0 kmh 29.95 in1014.2 mb 0.00 in0.0 mm 0.00 in0.0 mm 0.00 in0.0 mm
07:29 AM 56.2°F13.4°C 51.7°F10.9°C 85% 2.9 mph N4.7 kmh N 5.0 mph8.0 kmh 29.95 in1014.2 mb 0.00 in0.0 mm 0.00 in0.0 mm 0.00 in0.0 mm
07:30 AM 56.3°F13.5°C 51.8°F11.0°C 85% 3.8 mph NNE6.1 kmh NNE 5.0 mph8.0 kmh 29.95 in1014.2 mb 0.00 in0.0 mm 0.00 in0.0 mm 0.00 in0.0 mm
07:31 AM 56.3°F13.5°C 52.2°F11.2°C 86% 3.2 mph N5.1 kmh N 5.0 mph8.0 kmh 29.95 in1014.2 mb 0.00 in0.0 mm 0.00 in0.0 mm 0.00 in0.0 mm
07:32 AM 56.5°F13.6°C 52.4°F11.3°C 86% 3.6 mph NNE5.8 kmh NNE 4.0 mph6.4 kmh 29.95 in1014.2 mb 0.00 in0.0 mm 0.00 in0.0 mm 0.00 in0.0 mm
07:33 AM 56.5°F13.6°C 52.4°F11.3°C 86% 4.2 mph NNE6.8 kmh NNE 5.0 mph8.0 kmh 29.95 in1014.2 mb 0.00 in0.0 mm 0.00 in0.0 mm 0.00 in0.0 mm
07:34 AM 56.6°F13.7°C 52.1°F11.2°C 85% 5.2 mph NNE8.4 kmh NNE 7.0 mph11.3 kmh 29.95 in1014.2 mb 0.00 in0.0 mm 0.00 in0.0 mm 0.00 in0.0 mm
07:35 AM 56.6°F13.7°C 52.1°F11.2°C 85% 5.5 mph NNE8.9 kmh NNE 7.0 mph11.3 kmh 29.95 in1014.2 mb 0.00 in0.0 mm 0.00 in0.0 mm 0.00 in0.0 mm
07:36 AM 56.6°F13.7°C 52.1°F11.2°C 85% 5.2 mph NE8.4 kmh NE 7.0 mph11.3 kmh 29.95 in1014.2 mb 0.00 in0.0 mm 0.00 in0.0 mm 0.00 in0.0 mm
07:37 AM 56.7°F13.7°C 52.2°F11.2°C 85% 5.1 mph NE8.2 kmh NE 7.0 mph11.3 kmh 29.95 in1014.2 mb 0.00 in0.0 mm 0.00 in0.0 mm 0.00 in0.0 mm
07:38 AM 56.7°F13.7°C 52.2°F11.2°C 85% 4.2 mph NE6.8 kmh NE 6.0 mph9.7 kmh 29.95 in1014.2 mb 0.00 in0.0 mm 0.00 in0.0 mm 0.00 in0.0 mm
07:39 AM 56.8°F13.8°C 52.3°F11.3°C 85% 4.8 mph NE7.7 kmh NE 6.0 mph9.7 kmh 29.95 in1014.2 mb 0.00 in0.0 mm 0.00 in0.0 mm 0.00 in0.0 mm
07:40 AM 56.9°F13.8°C 52.4°F11.3°C 85% 3.1 mph NE5.0 kmh NE 6.0 mph9.7 kmh 29.95 in1014.2 mb 0.00 in0.0 mm 0.00 in0.0 mm 0.00 in0.0 mm
07:41 AM 56.9°F13.8°C 52.4°F11.3°C 85% 3.2 mph NE5.1 kmh NE 4.0 mph6.4 kmh 29.95 in1014.2 mb 0.00 in0.0 mm 0.00 in0.0 mm 0.00 in0.0 mm
07:42 AM 57.0°F13.9°C 52.5°F11.4°C 85% 2.8 mph NE4.5 kmh NE 4.0 mph6.4 kmh 29.95 in1014.2 mb 0.00 in0.0 mm 0.00 in0.0 mm 0.00 in0.0 mm
07:43 AM 57.0°F13.9°C 52.5°F11.4°C 85% 4.2 mph NE6.8 kmh NE 6.0 mph9.7 kmh 29.95 in1014.2 mb 0.00 in0.0 mm 0.00 in0.0 mm 0.00 in0.0 mm
07:44 AM 57.2°F14.0°C 52.7°F11.5°C 85% 4.2 mph NNE6.8 kmh NNE 6.0 mph9.7 kmh 29.95 in1014.2 mb 0.00 in0.0 mm 0.00 in0.0 mm 0.00 in0.0 mm
07:45 AM 57.3°F14.1°C 52.8°F11.6°C 85% 4.0 mph NNE6.4 kmh NNE 7.0 mph11.3 kmh 29.95 in1014.2 mb 0.00 in0.0 mm 0.00 in0.0 mm 0.00 in0.0 mm
07:46 AM 57.3°F14.1°C 52.5°F11.4°C 84% 6.9 mph N11.1 kmh N 9.0 mph14.5 kmh 29.95 in1014.2 mb 0.00 in0.0 mm 0.00 in0.0 mm 0.00 in0.0 mm
07:47 AM 57.4°F14.1°C 52.6°F11.4°C 84% 8.0 mph N12.9 kmh N 9.0 mph14.5 kmh 29.95 in1014.2 mb 0.00 in0.0 mm 0.00 in0.0 mm 0.00 in0.0 mm
07:48 AM 57.6°F14.2°C 52.8°F11.6°C 84% 5.3 mph NNE8.5 kmh NNE 9.0 mph14.5 kmh 29.95 in1014.2 mb 0.00 in0.0 mm 0.00 in0.0 mm 0.00 in0.0 mm
07:49 AM 57.7°F14.3°C 52.9°F11.6°C 84% 4.8 mph N7.7 kmh N 7.0 mph11.3 kmh 29.95 in1014.2 mb 0.00 in0.0 mm 0.00 in0.0 mm 0.00 in0.0 mm
07:50 AM 57.7°F14.3°C 52.9°F11.6°C 84% 6.2 mph N10.0 kmh N 8.0 mph12.9 kmh 29.95 in1014.2 mb 0.00 in0.0 mm 0.00 in0.0 mm 0.00 in0.0 mm
07:51 AM 57.8°F14.3°C 52.7°F11.5°C 83% 5.8 mph N9.3 kmh N 8.0 mph12.9 kmh 29.95 in1014.2 mb 0.00 in0.0 mm 0.00 in0.0 mm 0.00 in0.0 mm
07:52 AM 57.9°F14.4°C 52.8°F11.6°C 83% 5.7 mph N9.2 kmh N 8.0 mph12.9 kmh 29.95 in1014.2 mb 0.00 in0.0 mm 0.00 in0.0 mm 0.00 in0.0 mm
07:53 AM 57.8°F14.3°C 52.7°F11.5°C 83% 6.9 mph 11.1 kmh 8.0 mph12.9 kmh 29.95 in1014.2 mb 0.00 in0.0 mm 0.00 in0.0 mm 0.00 in0.0 mm
07:54 AM 57.8°F14.3°C 52.7°F11.5°C 83% 7.0 mph N11.3 kmh N 9.0 mph14.5 kmh 29.95 in1014.2 mb 0.00 in0.0 mm 0.00 in0.0 mm 0.00 in0.0 mm
07:55 AM 57.8°F14.3°C 52.7°F11.5°C 83% 6.9 mph N11.1 kmh N 9.0 mph14.5 kmh 29.95 in1014.2 mb 0.00 in0.0 mm 0.00 in0.0 mm 0.00 in0.0 mm
07:56 AM 57.8°F14.3°C 52.3°F11.3°C 82% 7.1 mph N11.4 kmh N 8.0 mph12.9 kmh 29.95 in1014.2 mb 0.00 in0.0 mm 0.00 in0.0 mm 0.00 in0.0 mm
07:57 AM 57.7°F14.3°C 52.6°F11.4°C 83% 6.1 mph N9.8 kmh N 8.0 mph12.9 kmh 29.95 in1014.2 mb 0.00 in0.0 mm 0.00 in0.0 mm 0.00 in0.0 mm
07:58 AM 57.7°F14.3°C 52.6°F11.4°C 83% 5.6 mph N9.0 kmh N 8.0 mph12.9 kmh 29.95 in1014.2 mb 0.00 in0.0 mm 0.00 in0.0 mm 0.00 in0.0 mm
07:59 AM 57.7°F14.3°C 52.6°F11.4°C 83% 6.3 mph N10.1 kmh N 8.0 mph12.9 kmh 29.95 in1014.2 mb 0.00 in0.0 mm 0.00 in0.0 mm 0.00 in0.0 mm
08:00 AM 57.7°F14.3°C 52.6°F11.4°C 83% 6.4 mph N10.3 kmh N 8.0 mph12.9 kmh 29.95 in1014.2 mb 0.00 in0.0 mm 0.00 in0.0 mm 0.00 in0.0 mm
08:01 AM 57.7°F14.3°C 52.6°F11.4°C 83% 6.4 mph N10.3 kmh N 9.0 mph14.5 kmh 29.95 in1014.2 mb 0.00 in0.0 mm 0.00 in0.0 mm 0.00 in0.0 mm
08:02 AM 57.7°F14.3°C 52.6°F11.4°C 83% 6.5 mph N10.5 kmh N 9.0 mph14.5 kmh 29.95 in1014.2 mb 0.00 in0.0 mm 0.00 in0.0 mm 0.00 in0.0 mm
08:03 AM 57.7°F14.3°C 52.9°F11.6°C 84% 7.1 mph N11.4 kmh N 8.0 mph12.9 kmh 29.95 in1014.2 mb 0.00 in0.0 mm 0.00 in0.0 mm 0.00 in0.0 mm
08:04 AM 57.7°F14.3°C 52.6°F11.4°C 83% 7.5 mph N12.1 kmh N 8.0 mph12.9 kmh 29.95 in1014.2 mb 0.00 in0.0 mm 0.00 in0.0 mm 0.00 in0.0 mm
08:05 AM 57.8°F14.3°C 52.7°F11.5°C 83% 7.0 mph N11.3 kmh N 8.0 mph12.9 kmh 29.95 in1014.2 mb 0.00 in0.0 mm 0.00 in0.0 mm 0.00 in0.0 mm
08:06 AM 57.8°F14.3°C 53.0°F11.7°C 84% 6.7 mph NNE10.8 kmh NNE 8.0 mph12.9 kmh 29.95 in1014.2 mb 0.00 in0.0 mm 0.00 in0.0 mm 0.00 in0.0 mm
08:07 AM 57.8°F14.3°C 53.0°F11.7°C 84% 6.2 mph N10.0 kmh N 9.0 mph14.5 kmh 29.95 in1014.2 mb 0.00 in0.0 mm 0.00 in0.0 mm 0.00 in0.0 mm
08:08 AM 57.8°F14.3°C 52.7°F11.5°C 83% 7.1 mph N11.4 kmh N 9.0 mph14.5 kmh 29.95 in1014.2 mb 0.00 in0.0 mm 0.00 in0.0 mm 0.00 in0.0 mm
08:09 AM 57.9°F14.4°C 52.8°F11.6°C 83% 6.8 mph N10.9 kmh N 9.0 mph14.5 kmh 29.95 in1014.2 mb 0.00 in0.0 mm 0.00 in0.0 mm 0.00 in0.0 mm
08:10 AM 57.9°F14.4°C 52.8°F11.6°C 83% 7.1 mph N11.4 kmh N 8.0 mph12.9 kmh 29.95 in1014.2 mb 0.00 in0.0 mm 0.00 in0.0 mm 0.00 in0.0 mm
08:11 AM 57.9°F14.4°C 52.8°F11.6°C 83% 7.7 mph N12.4 kmh N 9.0 mph14.5 kmh 29.95 in1014.2 mb 0.00 in0.0 mm 0.00 in0.0 mm 0.00 in0.0 mm
08:12 AM 58.0°F14.4°C 52.9°F11.6°C 83% 6.5 mph N10.5 kmh N 9.0 mph14.5 kmh 29.95 in1014.2 mb 0.00 in0.0 mm 0.00 in0.0 mm 0.00 in0.0 mm
08:13 AM 57.9°F14.4°C 52.8°F11.6°C 83% 6.5 mph N10.5 kmh N 8.0 mph12.9 kmh 29.95 in1014.2 mb 0.00 in0.0 mm 0.00 in0.0 mm 0.00 in0.0 mm
08:14 AM 58.0°F14.4°C 52.9°F11.6°C 83% 5.6 mph N9.0 kmh N 8.0 mph12.9 kmh 29.95 in1014.2 mb 0.00 in0.0 mm 0.00 in0.0 mm 0.00 in0.0 mm
08:15 AM 58.0°F14.4°C 52.9°F11.6°C 83% 6.3 mph N10.1 kmh N 9.0 mph14.5 kmh 29.95 in1014.2 mb 0.00 in0.0 mm 0.00 in0.0 mm 0.00 in0.0 mm
08:16 AM 58.1°F14.5°C 53.0°F11.7°C 83% 7.3 mph N11.7 kmh N 9.0 mph14.5 kmh 29.95 in1014.2 mb 0.00 in0.0 mm 0.00 in0.0 mm 0.00 in0.0 mm
08:17 AM 58.1°F14.5°C 53.0°F11.7°C 83% 7.0 mph NNE11.3 kmh NNE 9.0 mph14.5 kmh 29.95 in1014.2 mb 0.00 in0.0 mm 0.00 in0.0 mm 0.00 in0.0 mm
08:18 AM 58.2°F14.6°C 53.1°F11.7°C 83% 5.6 mph N9.0 kmh N 9.0 mph14.5 kmh 29.95 in1014.2 mb 0.00 in0.0 mm 0.00 in0.0 mm 0.00 in0.0 mm
08:19 AM 58.2°F14.6°C 53.4°F11.9°C 84% 5.7 mph N9.2 kmh N 9.0 mph14.5 kmh 29.95 in1014.2 mb 0.00 in0.0 mm 0.00 in0.0 mm 0.00 in0.0 mm
08:20 AM 58.3°F14.6°C 52.8°F11.6°C 82% 7.7 mph N12.4 kmh N 9.0 mph14.5 kmh 29.95 in1014.2 mb 0.00 in0.0 mm 0.00 in0.0 mm 0.00 in0.0 mm
08:21 AM 58.3°F14.6°C 53.2°F11.8°C 83% 7.8 mph N12.6 kmh N 9.0 mph14.5 kmh 29.95 in1014.2 mb 0.00 in0.0 mm 0.00 in0.0 mm 0.00 in0.0 mm
08:22 AM 58.4°F14.7°C 52.9°F11.6°C 82% 7.6 mph N12.2 kmh N 9.0 mph14.5 kmh 29.95 in1014.2 mb 0.00 in0.0 mm 0.00 in0.0 mm 0.00 in0.0 mm
08:23 AM 58.4°F14.7°C 52.9°F11.6°C 82% 8.8 mph N14.2 kmh N 11.0 mph17.7 kmh 29.95 in1014.2 mb 0.00 in0.0 mm 0.00 in0.0 mm 0.00 in0.0 mm
08:24 AM 58.4°F14.7°C 52.9°F11.6°C 82% 7.8 mph NNE12.6 kmh NNE 11.0 mph17.7 kmh 29.95 in1014.2 mb 0.00 in0.0 mm 0.00 in0.0 mm 0.00 in0.0 mm
08:25 AM 58.4°F14.7°C 52.9°F11.6°C 82% 7.3 mph N11.7 kmh N 10.0 mph16.1 kmh 29.95 in1014.2 mb 0.00 in0.0 mm 0.00 in0.0 mm 0.00 in0.0 mm
08:26 AM 58.4°F14.7°C 52.9°F11.6°C 82% 8.8 mph N14.2 kmh N 10.0 mph16.1 kmh 29.95 in1014.2 mb 0.00 in0.0 mm 0.00 in0.0 mm 0.00 in0.0 mm
08:27 AM 58.4°F14.7°C 52.6°F11.4°C 81% 8.1 mph N13.0 kmh N 10.0 mph16.1 kmh 29.96 in1014.6 mb 0.00 in0.0 mm 0.00 in0.0 mm 0.00 in0.0 mm
08:28 AM 58.5°F14.7°C 53.0°F11.7°C 82% 6.2 mph N10.0 kmh N 9.0 mph14.5 kmh 29.95 in1014.2 mb 0.00 in0.0 mm 0.00 in0.0 mm 0.00 in0.0 mm
08:29 AM 58.5°F14.7°C 53.0°F11.7°C 82% 8.5 mph N13.7 kmh N 10.0 mph16.1 kmh 29.95 in1014.2 mb 0.00 in0.0 mm 0.00 in0.0 mm 0.00 in0.0 mm
08:30 AM 58.6°F14.8°C 53.5°F11.9°C 83% 7.8 mph N12.6 kmh N 10.0 mph16.1 kmh 29.95 in1014.2 mb 0.00 in0.0 mm 0.00 in0.0 mm 0.00 in0.0 mm
08:31 AM 58.6°F14.8°C 53.5°F11.9°C 83% 7.1 mph N11.4 kmh N 10.0 mph16.1 kmh 29.96 in1014.6 mb 0.00 in0.0 mm 0.00 in0.0 mm 0.00 in0.0 mm
08:32 AM 58.7°F14.8°C 53.5°F11.9°C 83% 7.7 mph N12.4 kmh N 10.0 mph16.1 kmh 29.96 in1014.6 mb 0.00 in0.0 mm 0.00 in0.0 mm 0.00 in0.0 mm
08:33 AM 58.7°F14.8°C 53.2°F11.8°C 82% 8.1 mph N13.0 kmh N 10.0 mph16.1 kmh 29.95 in1014.2 mb 0.00 in0.0 mm 0.00 in0.0 mm 0.00 in0.0 mm
08:34 AM 58.7°F14.8°C 53.2°F11.8°C 82% 8.5 mph N13.7 kmh N 10.0 mph16.1 kmh 29.95 in1014.2 mb 0.00 in0.0 mm 0.00 in0.0 mm 0.00 in0.0 mm
08:35 AM 58.8°F14.9°C 53.3°F11.8°C 82% 9.2 mph N14.8 kmh N 10.0 mph16.1 kmh 29.95 in1014.2 mb 0.00 in0.0 mm 0.00 in0.0 mm 0.00 in0.0 mm
08:36 AM 58.8°F14.9°C 53.3°F11.8°C 82% 9.5 mph N15.3 kmh N 10.0 mph16.1 kmh 29.96 in1014.6 mb 0.00 in0.0 mm 0.00 in0.0 mm 0.00 in0.0 mm
08:37 AM 58.8°F14.9°C 53.0°F11.7°C 81% 8.3 mph N13.4 kmh N 10.0 mph16.1 kmh 29.96 in1014.6 mb 0.00 in0.0 mm 0.00 in0.0 mm 0.00 in0.0 mm
08:38 AM 58.7°F14.8°C 52.9°F11.6°C 81% 9.9 mph N15.9 kmh N 11.0 mph17.7 kmh 29.95 in1014.2 mb 0.00 in0.0 mm 0.00 in0.0 mm 0.00 in0.0 mm
08:39 AM 58.8°F14.9°C 53.3°F11.8°C 82% 9.4 mph N15.1 kmh N 11.0 mph17.7 kmh 29.95 in1014.2 mb 0.00 in0.0 mm 0.00 in0.0 mm 0.00 in0.0 mm
08:40 AM 58.8°F14.9°C 53.3°F11.8°C 82% 9.6 mph N15.4 kmh N 11.0 mph17.7 kmh 29.95 in1014.2 mb 0.00 in0.0 mm 0.00 in0.0 mm 0.00 in0.0 mm
08:41 AM 58.8°F14.9°C 53.0°F11.7°C 81% 9.9 mph N15.9 kmh N 11.0 mph17.7 kmh 29.95 in1014.2 mb 0.00 in0.0 mm 0.00 in0.0 mm 0.00 in0.0 mm
08:42 AM 58.9°F14.9°C 53.1°F11.7°C 81% 9.3 mph N15.0 kmh N 11.0 mph17.7 kmh 29.96 in1014.6 mb 0.00 in0.0 mm 0.00 in0.0 mm 0.00 in0.0 mm
08:43 AM 58.9°F14.9°C 53.4°F11.9°C 82% 9.1 mph NNE14.6 kmh NNE 11.0 mph17.7 kmh 29.95 in1014.2 mb 0.00 in0.0 mm 0.00 in0.0 mm 0.00 in0.0 mm
08:44 AM 58.9°F14.9°C 53.4°F11.9°C 82% 8.9 mph NNE14.3 kmh NNE 10.0 mph16.1 kmh 29.95 in1014.2 mb 0.00 in0.0 mm 0.00 in0.0 mm 0.00 in0.0 mm
08:45 AM 59.0°F15.0°C 53.8°F12.1°C 83% 9.0 mph NNE14.5 kmh NNE 11.0 mph17.7 kmh 29.95 in1014.2 mb 0.00 in0.0 mm 0.00 in0.0 mm 0.00 in0.0 mm
08:46 AM 59.0°F15.0°C 53.5°F11.9°C 82% 9.7 mph NNE15.6 kmh NNE 11.0 mph17.7 kmh 29.95 in1014.2 mb 0.00 in0.0 mm 0.00 in0.0 mm 0.00 in0.0 mm
08:47 AM 59.1°F15.1°C 53.3°F11.8°C 81% 7.6 mph NNE12.2 kmh NNE 11.0 mph17.7 kmh 29.95 in1014.2 mb 0.00 in0.0 mm 0.00 in0.0 mm 0.00 in0.0 mm
08:48 AM 59.2°F15.1°C 53.7°F12.1°C 82% 9.1 mph NNE14.6 kmh NNE 10.0 mph16.1 kmh 29.95 in1014.2 mb 0.00 in0.0 mm 0.00 in0.0 mm 0.00 in0.0 mm
08:49 AM 59.2°F15.1°C 53.4°F11.9°C 81% 9.5 mph NNE15.3 kmh NNE 11.0 mph17.7 kmh 29.95 in1014.2 mb 0.00 in0.0 mm 0.00 in0.0 mm 0.00 in0.0 mm
08:50 AM 59.2°F15.1°C 53.4°F11.9°C 81% 8.9 mph NNE14.3 kmh NNE 11.0 mph17.7 kmh 29.95 in1014.2 mb 0.00 in0.0 mm 0.00 in0.0 mm 0.00 in0.0 mm
08:51 AM 59.2°F15.1°C 53.4°F11.9°C 81% 7.8 mph NNE12.6 kmh NNE 10.0 mph16.1 kmh 29.96 in1014.6 mb 0.00 in0.0 mm 0.00 in0.0 mm 0.00 in0.0 mm
08:52 AM 59.3°F15.2°C 53.8°F12.1°C 82% 9.2 mph NNE14.8 kmh NNE 11.0 mph17.7 kmh 29.96 in1014.6 mb 0.00 in0.0 mm 0.00 in0.0 mm 0.00 in0.0 mm
08:53 AM 59.3°F15.2°C 53.5°F11.9°C 81% 9.1 mph NNE14.6 kmh NNE 11.0 mph17.7 kmh 29.96 in1014.6 mb 0.00 in0.0 mm 0.00 in0.0 mm 0.00 in0.0 mm
08:54 AM 59.3°F15.2°C 53.8°F12.1°C 82% 9.4 mph NNE15.1 kmh NNE 11.0 mph17.7 kmh 29.96 in1014.6 mb 0.00 in0.0 mm 0.00 in0.0 mm 0.00 in0.0 mm
08:55 AM 59.3°F15.2°C 53.5°F11.9°C 81% 9.6 mph NNE15.4 kmh NNE 11.0 mph17.7 kmh 29.96 in1014.6 mb 0.00 in0.0 mm 0.00 in0.0 mm 0.00 in0.0 mm
08:56 AM 59.3°F15.2°C 53.8°F12.1°C 82% 9.3 mph NNE15.0 kmh NNE 11.0 mph17.7 kmh 29.96 in1014.6 mb 0.00 in0.0 mm 0.00 in0.0 mm 0.00 in0.0 mm
08:57 AM 59.4°F15.2°C 53.9°F12.2°C 82% 9.5 mph NNE15.3 kmh NNE 11.0 mph17.7 kmh 29.96 in1014.6 mb 0.00 in0.0 mm 0.00 in0.0 mm 0.00 in0.0 mm
08:58 AM 59.3°F15.2°C 53.1°F11.7°C 80% 10.9 mph NE17.5 kmh NE 12.0 mph19.3 kmh 29.96 in1014.6 mb 0.00 in0.0 mm 0.00 in0.0 mm 0.00 in0.0 mm
08:59 AM 59.4°F15.2°C 53.2°F11.8°C 80% 8.3 mph NNE13.4 kmh NNE 12.0 mph19.3 kmh 29.96 in1014.6 mb 0.00 in0.0 mm 0.00 in0.0 mm 0.00 in0.0 mm
09:00 AM 59.4°F15.2°C 53.6°F12.0°C 81% 9.7 mph NNE15.6 kmh NNE 11.0 mph17.7 kmh 29.96 in1014.6 mb 0.00 in0.0 mm 0.00 in0.0 mm 0.00 in0.0 mm
09:01 AM 59.5°F15.3°C 54.0°F12.2°C 82% 8.7 mph NNE14.0 kmh NNE 11.0 mph17.7 kmh 29.96 in1014.6 mb 0.00 in0.0 mm 0.00 in0.0 mm 0.00 in0.0 mm
09:02 AM 59.5°F15.3°C 53.7°F12.1°C 81% 9.1 mph NNE14.6 kmh NNE 10.0 mph16.1 kmh 29.96 in1014.6 mb 0.00 in0.0 mm 0.00 in0.0 mm 0.00 in0.0 mm
09:03 AM 59.5°F15.3°C 53.7°F12.1°C 81% 9.2 mph NNE14.8 kmh NNE 11.0 mph17.7 kmh 29.96 in1014.6 mb 0.00 in0.0 mm 0.00 in0.0 mm 0.00 in0.0 mm
09:04 AM 59.6°F15.3°C 54.1°F12.3°C 82% 8.2 mph NNE13.2 kmh NNE 11.0 mph17.7 kmh 29.96 in1014.6 mb 0.00 in0.0 mm 0.00 in0.0 mm 0.00 in0.0 mm
09:05 AM 59.6°F15.3°C 54.1°F12.3°C 82% 8.7 mph N14.0 kmh N 11.0 mph17.7 kmh 29.96 in1014.6 mb 0.00 in0.0 mm 0.00 in0.0 mm 0.00 in0.0 mm
09:06 AM 59.7°F15.4°C 54.2°F12.3°C 82% 8.7 mph NNE14.0 kmh NNE 11.0 mph17.7 kmh 29.96 in1014.6 mb 0.00 in0.0 mm 0.00 in0.0 mm 0.00 in0.0 mm
09:07 AM 59.7°F15.4°C 53.9°F12.2°C 81% 8.4 mph NNE13.5 kmh NNE 10.0 mph16.1 kmh 29.96 in1014.6 mb 0.00 in0.0 mm 0.00 in0.0 mm 0.00 in0.0 mm
09:08 AM 59.8°F15.4°C 54.0°F12.2°C 81% 9.1 mph N14.6 kmh N 10.0 mph16.1 kmh 29.96 in1014.6 mb 0.00 in0.0 mm 0.00 in0.0 mm 0.00 in0.0 mm
09:09 AM 59.8°F15.4°C 54.0°F12.2°C 81% 9.7 mph N15.6 kmh N 12.0 mph19.3 kmh 29.96 in1014.6 mb 0.00 in0.0 mm 0.00 in0.0 mm 0.00 in0.0 mm
09:10 AM 59.8°F15.4°C 54.0°F12.2°C 81% 11.1 mph N17.9 kmh N 12.0 mph19.3 kmh 29.96 in1014.6 mb 0.00 in0.0 mm 0.00 in0.0 mm 0.00 in0.0 mm
09:11 AM 59.8°F15.4°C 54.0°F12.2°C 81% 9.5 mph N15.3 kmh N 12.0 mph19.3 kmh 29.96 in1014.6 mb 0.00 in0.0 mm 0.00 in0.0 mm 0.00 in0.0 mm
09:12 AM 59.8°F15.4°C 53.6°F12.0°C 80% 8.2 mph N13.2 kmh N 10.0 mph16.1 kmh 29.96 in1014.6 mb 0.00 in0.0 mm 0.00 in0.0 mm 0.00 in0.0 mm
09:13 AM 59.9°F15.5°C 54.1°F12.3°C 81% 8.5 mph N13.7 kmh N 10.0 mph16.1 kmh 29.96 in1014.6 mb 0.00 in0.0 mm 0.00 in0.0 mm 0.00 in0.0 mm
09:14 AM 60.0°F15.6°C 54.1°F12.3°C 81% 8.0 mph NNE12.9 kmh NNE 10.0 mph16.1 kmh 29.96 in1014.6 mb 0.00 in0.0 mm 0.00 in0.0 mm 0.00 in0.0 mm
09:15 AM 60.1°F15.6°C 54.6°F12.6°C 82% 8.6 mph NNE13.8 kmh NNE 11.0 mph17.7 kmh 29.96 in1014.6 mb 0.00 in0.0 mm 0.00 in0.0 mm 0.00 in0.0 mm
09:16 AM 60.1°F15.6°C 54.2°F12.3°C 81% 7.3 mph NNE11.7 kmh NNE 11.0 mph17.7 kmh 29.96 in1014.6 mb 0.00 in0.0 mm 0.00 in0.0 mm 0.00 in0.0 mm
09:17 AM 60.2°F15.7°C 54.0°F12.2°C 80% 8.2 mph NNE13.2 kmh NNE 10.0 mph16.1 kmh 29.96 in1014.6 mb 0.00 in0.0 mm 0.00 in0.0 mm 0.00 in0.0 mm
09:18 AM 60.1°F15.6°C 53.9°F12.2°C 80% 8.5 mph NNE13.7 kmh NNE 10.0 mph16.1 kmh 29.96 in1014.6 mb 0.00 in0.0 mm 0.00 in0.0 mm 0.00 in0.0 mm
09:19 AM 60.0°F15.6°C 53.8°F12.1°C 80% 6.6 mph NNE10.6 kmh NNE 10.0 mph16.1 kmh 29.96 in1014.6 mb 0.00 in0.0 mm 0.00 in0.0 mm 0.00 in0.0 mm
09:20 AM 60.0°F15.6°C 54.1°F12.3°C 81% 7.8 mph N12.6 kmh N 11.0 mph17.7 kmh 29.96 in1014.6 mb 0.00 in0.0 mm 0.00 in0.0 mm 0.00 in0.0 mm
09:21 AM 60.0°F15.6°C 53.8°F12.1°C 80% 7.5 mph N12.1 kmh N 11.0 mph17.7 kmh 29.96 in1014.6 mb 0.00 in0.0 mm 0.00 in0.0 mm 0.00 in0.0 mm
09:22 AM 60.0°F15.6°C 54.1°F12.3°C 81% 5.9 mph N9.5 kmh N 10.0 mph16.1 kmh 29.96 in1014.6 mb 0.00 in0.0 mm 0.00 in0.0 mm 0.00 in0.0 mm
09:23 AM 60.1°F15.6°C 54.2°F12.3°C 81% 7.8 mph 12.6 kmh 10.0 mph16.1 kmh 29.96 in1014.6 mb 0.00 in0.0 mm 0.00 in0.0 mm 0.00 in0.0 mm
09:24 AM 60.1°F15.6°C 54.2°F12.3°C 81% 9.3 mph N15.0 kmh N 11.0 mph17.7 kmh 29.96 in1014.6 mb 0.00 in0.0 mm 0.00 in0.0 mm 0.00 in0.0 mm
09:25 AM 60.3°F15.7°C 54.1°F12.3°C 80% 9.5 mph NNE15.3 kmh NNE 11.0 mph17.7 kmh 29.96 in1014.6 mb 0.00 in0.0 mm 0.00 in0.0 mm 0.00 in0.0 mm
09:26 AM 60.4°F15.8°C 54.2°F12.3°C 80% 9.3 mph NNE15.0 kmh NNE 12.0 mph19.3 kmh 29.95 in1014.2 mb 0.00 in0.0 mm 0.00 in0.0 mm 0.00 in0.0 mm
09:27 AM 60.5°F15.8°C 55.0°F12.8°C 82% 9.8 mph NNE15.8 kmh NNE 13.0 mph20.9 kmh 29.95 in1014.2 mb 0.00 in0.0 mm 0.00 in0.0 mm 0.00 in0.0 mm
09:28 AM 60.7°F15.9°C 54.8°F12.7°C 81% 11.5 mph NNE18.5 kmh NNE 14.0 mph22.5 kmh 29.96 in1014.6 mb 0.00 in0.0 mm 0.00 in0.0 mm 0.00 in0.0 mm
09:29 AM 60.8°F16.0°C 54.6°F12.6°C 80% 10.4 mph NNE16.7 kmh NNE 14.0 mph22.5 kmh 29.95 in1014.2 mb 0.00 in0.0 mm 0.00 in0.0 mm 0.00 in0.0 mm
09:30 AM 60.7°F15.9°C 54.1°F12.3°C 79% 9.4 mph NNE15.1 kmh NNE 12.0 mph19.3 kmh 29.95 in1014.2 mb 0.00 in0.0 mm 0.00 in0.0 mm 0.00 in0.0 mm
09:31 AM 60.7°F15.9°C 54.1°F12.3°C 79% 9.7 mph NNE15.6 kmh NNE 12.0 mph19.3 kmh 29.96 in1014.6 mb 0.00 in0.0 mm 0.00 in0.0 mm 0.00 in0.0 mm
09:32 AM 60.7°F15.9°C 54.1°F12.3°C 79% 9.7 mph NNE15.6 kmh NNE 12.0 mph19.3 kmh 29.96 in1014.6 mb 0.00 in0.0 mm 0.00 in0.0 mm 0.00 in0.0 mm
09:33 AM 60.7°F15.9°C 54.5°F12.5°C 80% 10.3 mph NNE16.6 kmh NNE 11.0 mph17.7 kmh 29.96 in1014.6 mb 0.00 in0.0 mm 0.00 in0.0 mm 0.00 in0.0 mm
09:34 AM 60.5°F15.8°C 54.3°F12.4°C 80% 9.6 mph N15.4 kmh N 11.0 mph17.7 kmh 29.96 in1014.6 mb 0.00 in0.0 mm 0.00 in0.0 mm 0.00 in0.0 mm
09:35 AM 60.4°F15.8°C 54.5°F12.5°C 81% 10.2 mph N16.4 kmh N 11.0 mph17.7 kmh 29.96 in1014.6 mb 0.00 in0.0 mm 0.00 in0.0 mm 0.00 in0.0 mm
09:36 AM 60.2°F15.7°C 53.7°F12.1°C 79% 10.1 mph N16.3 kmh N 11.0 mph17.7 kmh 29.96 in1014.6 mb 0.00 in0.0 mm 0.00 in0.0 mm 0.00 in0.0 mm
09:37 AM 60.1°F15.6°C 53.9°F12.2°C 80% 9.8 mph N15.8 kmh N 13.0 mph20.9 kmh 29.96 in1014.6 mb 0.00 in0.0 mm 0.00 in0.0 mm 0.00 in0.0 mm
09:38 AM 60.0°F15.6°C 53.5°F11.9°C 79% 10.0 mph N16.1 kmh N 13.0 mph20.9 kmh 29.96 in1014.6 mb 0.00 in0.0 mm 0.00 in0.0 mm 0.00 in0.0 mm
09:39 AM 59.9°F15.5°C 53.7°F12.1°C 80% 9.7 mph N15.6 kmh N 11.0 mph17.7 kmh 29.96 in1014.6 mb 0.00 in0.0 mm 0.00 in0.0 mm 0.00 in0.0 mm
09:40 AM 59.7°F15.4°C 53.5°F11.9°C 80% 9.2 mph NNE14.8 kmh NNE 11.0 mph17.7 kmh 29.96 in1014.6 mb 0.00 in0.0 mm 0.00 in0.0 mm 0.00 in0.0 mm
09:41 AM 59.6°F15.3°C 53.4°F11.9°C 80% 10.3 mph NNE16.6 kmh NNE 11.0 mph17.7 kmh 29.96 in1014.6 mb 0.00 in0.0 mm 0.00 in0.0 mm 0.00 in0.0 mm
09:42 AM 59.4°F15.2°C 53.2°F11.8°C 80% 9.7 mph N15.6 kmh N 11.0 mph17.7 kmh 29.96 in1014.6 mb 0.00 in0.0 mm 0.00 in0.0 mm 0.00 in0.0 mm
09:43 AM 59.4°F15.2°C 53.9°F12.2°C 82% 9.5 mph N15.3 kmh N 11.0 mph17.7 kmh 29.96 in1014.6 mb 0.00 in0.0 mm 0.00 in0.0 mm 0.00 in0.0 mm
09:44 AM 59.3°F15.2°C 53.5°F11.9°C 81% 9.9 mph N15.9 kmh N 12.0 mph19.3 kmh 29.96 in1014.6 mb 0.00 in0.0 mm 0.00 in0.0 mm 0.00 in0.0 mm
09:45 AM 59.2°F15.1°C 53.4°F11.9°C 81% 10.5 mph N16.9 kmh N 12.0 mph19.3 kmh 29.96 in1014.6 mb 0.00 in0.0 mm 0.00 in0.0 mm 0.00 in0.0 mm
09:46 AM 59.2°F15.1°C 53.7°F12.1°C 82% 9.8 mph N15.8 kmh N 12.0 mph19.3 kmh 29.96 in1014.6 mb 0.00 in0.0 mm 0.00 in0.0 mm 0.00 in0.0 mm
09:47 AM 59.2°F15.1°C 53.4°F11.9°C 81% 9.5 mph N15.3 kmh N 12.0 mph19.3 kmh 29.96 in1014.6 mb 0.00 in0.0 mm 0.00 in0.0 mm 0.00 in0.0 mm
09:48 AM 59.1°F15.1°C 53.3°F11.8°C 81% 9.7 mph N15.6 kmh N 12.0 mph19.3 kmh 29.96 in1014.6 mb 0.00 in0.0 mm 0.00 in0.0 mm 0.00 in0.0 mm
09:49 AM 59.1°F15.1°C 53.3°F11.8°C 81% 7.9 mph N12.7 kmh N 11.0 mph17.7 kmh 29.96 in1014.6 mb 0.00 in0.0 mm 0.00 in0.0 mm 0.00 in0.0 mm
09:50 AM 59.1°F15.1°C 53.6°F12.0°C 82% 9.4 mph N15.1 kmh N 11.0 mph17.7 kmh 29.96 in1014.6 mb 0.00 in0.0 mm 0.00 in0.0 mm 0.00 in0.0 mm
09:51 AM 59.1°F15.1°C 53.6°F12.0°C 82% 9.0 mph N14.5 kmh N 11.0 mph17.7 kmh 29.96 in1014.6 mb 0.00 in0.0 mm 0.00 in0.0 mm 0.00 in0.0 mm
09:52 AM 59.0°F15.0°C 53.5°F11.9°C 82% 8.3 mph N13.4 kmh N 10.0 mph16.1 kmh 29.96 in1014.6 mb 0.00 in0.0 mm 0.00 in0.0 mm 0.00 in0.0 mm
09:53 AM 59.1°F15.1°C 53.6°F12.0°C 82% 7.8 mph N12.6 kmh N 10.0 mph16.1 kmh 29.96 in1014.6 mb 0.00 in0.0 mm 0.00 in0.0 mm 0.00 in0.0 mm
09:54 AM 59.1°F15.1°C 53.6°F12.0°C 82% 7.6 mph N12.2 kmh N 11.0 mph17.7 kmh 29.96 in1014.6 mb 0.00 in0.0 mm 0.00 in0.0 mm 0.00 in0.0 mm
09:55 AM 59.1°F15.1°C 53.6°F12.0°C 82% 8.6 mph N13.8 kmh N 11.0 mph17.7 kmh 29.96 in1014.6 mb 0.00 in0.0 mm 0.00 in0.0 mm 0.00 in0.0 mm
09:56 AM 59.1°F15.1°C 53.6°F12.0°C 82% 8.9 mph N14.3 kmh N 11.0 mph17.7 kmh 29.96 in1014.6 mb 0.00 in0.0 mm 0.00 in0.0 mm 0.00 in0.0 mm
09:57 AM 59.2°F15.1°C 53.7°F12.1°C 82% 8.9 mph 14.3 kmh 11.0 mph17.7 kmh 29.96 in1014.6 mb 0.00 in0.0 mm 0.00 in0.0 mm 0.00 in0.0 mm
09:58 AM 59.2°F15.1°C 53.7°F12.1°C 82% 9.2 mph N14.8 kmh N 11.0 mph17.7 kmh 29.96 in1014.6 mb 0.00 in0.0 mm 0.00 in0.0 mm 0.00 in0.0 mm
09:59 AM 59.3°F15.2°C 53.8°F12.1°C 82% 9.5 mph N15.3 kmh N 11.0 mph17.7 kmh 29.96 in1014.6 mb 0.00 in0.0 mm 0.00 in0.0 mm 0.00 in0.0 mm
10:00 AM 59.3°F15.2°C 53.8°F12.1°C 82% 7.2 mph N11.6 kmh N 10.0 mph16.1 kmh 29.96 in1014.6 mb 0.00 in0.0 mm 0.00 in0.0 mm 0.00 in0.0 mm
10:01 AM 59.5°F15.3°C 54.0°F12.2°C 82% 9.1 mph N14.6 kmh N 11.0 mph17.7 kmh 29.96 in1014.6 mb 0.00 in0.0 mm 0.00 in0.0 mm 0.00 in0.0 mm
10:02 AM 59.7°F15.4°C 54.5°F12.5°C 83% 6.1 mph N9.8 kmh N 11.0 mph17.7 kmh 29.96 in1014.6 mb 0.00 in0.0 mm 0.00 in0.0 mm 0.00 in0.0 mm
10:03 AM 59.7°F15.4°C 54.2°F12.3°C 82% 7.8 mph N12.6 kmh N 9.0 mph14.5 kmh 29.96 in1014.6 mb 0.00 in0.0 mm 0.00 in0.0 mm 0.00 in0.0 mm
10:04 AM 59.8°F15.4°C 54.3°F12.4°C 82% 6.5 mph N10.5 kmh N 9.0 mph14.5 kmh 29.96 in1014.6 mb 0.00 in0.0 mm 0.00 in0.0 mm 0.00 in0.0 mm
10:05 AM 59.9°F15.5°C 54.4°F12.4°C 82% 5.6 mph N9.0 kmh N 8.0 mph12.9 kmh 29.96 in1014.6 mb 0.00 in0.0 mm 0.00 in0.0 mm 0.00 in0.0 mm
10:06 AM 60.1°F15.6°C 54.9°F12.7°C 83% 6.9 mph N11.1 kmh N 9.0 mph14.5 kmh 29.96 in1014.6 mb 0.00 in0.0 mm 0.00 in0.0 mm 0.00 in0.0 mm
10:07 AM 60.1°F15.6°C 54.2°F12.3°C 81% 9.1 mph N14.6 kmh N 10.0 mph16.1 kmh 29.96 in1014.6 mb 0.00 in0.0 mm 0.00 in0.0 mm 0.00 in0.0 mm
10:08 AM 60.2°F15.7°C 54.3°F12.4°C 81% 8.8 mph N14.2 kmh N 10.0 mph16.1 kmh 29.96 in1014.6 mb 0.00 in0.0 mm 0.00 in0.0 mm 0.00 in0.0 mm
10:09 AM 60.2°F15.7°C 54.0°F12.2°C 80% 8.8 mph N14.2 kmh N 11.0 mph17.7 kmh 29.96 in1014.6 mb 0.00 in0.0 mm 0.00 in0.0 mm 0.00 in0.0 mm
10:10 AM 60.2°F15.7°C 54.0°F12.2°C 80% 8.2 mph N13.2 kmh N 11.0 mph17.7 kmh 29.96 in1014.6 mb 0.00 in0.0 mm 0.00 in0.0 mm 0.00 in0.0 mm
10:11 AM 60.3°F15.7°C 54.4°F12.4°C 81% 7.8 mph N12.6 kmh N 10.0 mph16.1 kmh 29.96 in1014.6 mb 0.00 in0.0 mm 0.00 in0.0 mm 0.00 in0.0 mm
10:12 AM 60.4°F15.8°C 54.2°F12.3°C 80% 9.6 mph N15.4 kmh N 12.0 mph19.3 kmh 29.96 in1014.6 mb 0.00 in0.0 mm 0.00 in0.0 mm 0.00 in0.0 mm
10:13 AM 60.5°F15.8°C 54.3°F12.4°C 80% 8.2 mph N13.2 kmh N 12.0 mph19.3 kmh 29.96 in1014.6 mb 0.00 in0.0 mm 0.00 in0.0 mm 0.00 in0.0 mm
10:14 AM 60.5°F15.8°C 54.3°F12.4°C 80% 9.0 mph N14.5 kmh N 11.0 mph17.7 kmh 29.96 in1014.6 mb 0.00 in0.0 mm 0.00 in0.0 mm 0.00 in0.0 mm
10:15 AM 60.7°F15.9°C 54.5°F12.5°C 80% 8.6 mph 13.8 kmh 11.0 mph17.7 kmh 29.96 in1014.6 mb 0.00 in0.0 mm 0.00 in0.0 mm 0.00 in0.0 mm
10:16 AM 60.6°F15.9°C 54.0°F12.2°C 79% 9.5 mph N15.3 kmh N 11.0 mph17.7 kmh 29.96 in1014.6 mb 0.00 in0.0 mm 0.00 in0.0 mm 0.00 in0.0 mm
10:17 AM 60.6°F15.9°C 54.4°F12.4°C 80% 8.5 mph N13.7 kmh N 11.0 mph17.7 kmh 29.96 in1014.6 mb 0.00 in0.0 mm 0.00 in0.0 mm 0.00 in0.0 mm
10:18 AM 60.6°F15.9°C 54.4°F12.4°C 80% 7.6 mph N12.2 kmh N 11.0 mph17.7 kmh 29.96 in1014.6 mb 0.00 in0.0 mm 0.00 in0.0 mm 0.00 in0.0 mm
10:19 AM 60.6°F15.9°C 54.0°F12.2°C 79% 8.3 mph N13.4 kmh N 11.0 mph17.7 kmh 29.96 in1014.6 mb 0.00 in0.0 mm 0.00 in0.0 mm 0.00 in0.0 mm
10:20 AM 60.6°F15.9°C 54.4°F12.4°C 80% 7.7 mph N12.4 kmh N 9.0 mph14.5 kmh 29.96 in1014.6 mb 0.00 in0.0 mm 0.00 in0.0 mm 0.00 in0.0 mm
10:21 AM 60.6°F15.9°C 54.0°F12.2°C 79% 6.8 mph N10.9 kmh N 9.0 mph14.5 kmh 29.96 in1014.6 mb 0.00 in0.0 mm 0.00 in0.0 mm 0.00 in0.0 mm
10:22 AM 60.5°F15.8°C 54.6°F12.6°C 81% 9.0 mph NNW14.5 kmh NNW 10.0 mph16.1 kmh 29.96 in1014.6 mb 0.00 in0.0 mm 0.00 in0.0 mm 0.00 in0.0 mm
10:23 AM 60.5°F15.8°C 54.3°F12.4°C 80% 8.3 mph NNW13.4 kmh NNW 11.0 mph17.7 kmh 29.96 in1014.6 mb 0.00 in0.0 mm 0.00 in0.0 mm 0.00 in0.0 mm
10:24 AM 60.4°F15.8°C 54.5°F12.5°C 81% 8.2 mph NNW13.2 kmh NNW 11.0 mph17.7 kmh 29.96 in1014.6 mb 0.00 in0.0 mm 0.00 in0.0 mm 0.00 in0.0 mm
10:25 AM 60.2°F15.7°C 54.0°F12.2°C 80% 9.5 mph NNW15.3 kmh NNW 11.0 mph17.7 kmh 29.96 in1014.6 mb 0.00 in0.0 mm 0.00 in0.0 mm 0.00 in0.0 mm
10:26 AM 60.2°F15.7°C 54.0°F12.2°C 80% 8.5 mph NNW13.7 kmh NNW 11.0 mph17.7 kmh 29.96 in1014.6 mb 0.00 in0.0 mm 0.00 in0.0 mm 0.00 in0.0 mm
10:27 AM 60.1°F15.6°C 53.9°F12.2°C 80% 7.2 mph N11.6 kmh N 10.0 mph16.1 kmh 29.96 in1014.6 mb 0.00 in0.0 mm 0.00 in0.0 mm 0.00 in0.0 mm
10:28 AM 60.1°F15.6°C 54.6°F12.6°C 82% 8.0 mph NNW12.9 kmh NNW 10.0 mph16.1 kmh 29.96 in1014.6 mb 0.00 in0.0 mm 0.00 in0.0 mm 0.00 in0.0 mm
10:29 AM 60.1°F15.6°C 54.2°F12.3°C 81% 8.8 mph NNW14.2 kmh NNW 10.0 mph16.1 kmh 29.96 in1014.6 mb 0.00 in0.0 mm 0.00 in0.0 mm 0.00 in0.0 mm
10:30 AM 60.1°F15.6°C 54.2°F12.3°C 81% 6.5 mph N10.5 kmh N 10.0 mph16.1 kmh 29.96 in1014.6 mb 0.00 in0.0 mm 0.00 in0.0 mm 0.00 in0.0 mm
10:31 AM 60.1°F15.6°C 53.9°F12.2°C 80% 6.9 mph NNW11.1 kmh NNW 10.0 mph16.1 kmh 29.96 in1014.6 mb 0.00 in0.0 mm 0.00 in0.0 mm 0.00 in0.0 mm
10:32 AM 60.1°F15.6°C 53.9°F12.2°C 80% 8.7 mph NNW14.0 kmh NNW 11.0 mph17.7 kmh 29.96 in1014.6 mb 0.00 in0.0 mm 0.00 in0.0 mm 0.00 in0.0 mm
10:33 AM 60.1°F15.6°C 53.9°F12.2°C 80% 7.2 mph N11.6 kmh N 11.0 mph17.7 kmh 29.96 in1014.6 mb 0.00 in0.0 mm 0.00 in0.0 mm 0.00 in0.0 mm
10:34 AM 60.1°F15.6°C 54.2°F12.3°C 81% 7.6 mph NNW12.2 kmh NNW 11.0 mph17.7 kmh 29.96 in1014.6 mb 0.00 in0.0 mm 0.00 in0.0 mm 0.00 in0.0 mm
10:35 AM 60.0°F15.6°C 53.8°F12.1°C 80% 9.0 mph N14.5 kmh N 11.0 mph17.7 kmh 29.96 in1014.6 mb 0.00 in0.0 mm 0.00 in0.0 mm 0.00 in0.0 mm
10:36 AM 60.1°F15.6°C 53.9°F12.2°C 80% 8.8 mph N14.2 kmh N 11.0 mph17.7 kmh 29.96 in1014.6 mb 0.00 in0.0 mm 0.00 in0.0 mm 0.00 in0.0 mm
10:37 AM 60.0°F15.6°C 53.8°F12.1°C 80% 8.7 mph N14.0 kmh N 11.0 mph17.7 kmh 29.96 in1014.6 mb 0.00 in0.0 mm 0.00 in0.0 mm 0.00 in0.0 mm
10:38 AM 59.9°F15.5°C 53.7°F12.1°C 80% 8.0 mph N12.9 kmh N 10.0 mph16.1 kmh 29.96 in1014.6 mb 0.00 in0.0 mm 0.00 in0.0 mm 0.00 in0.0 mm
10:39 AM 59.9°F15.5°C 54.1°F12.3°C 81% 8.4 mph N13.5 kmh N 10.0 mph16.1 kmh 29.96 in1014.6 mb 0.00 in0.0 mm 0.00 in0.0 mm 0.00 in0.0 mm
10:40 AM 59.9°F15.5°C 54.1°F12.3°C 81% 9.7 mph NNW15.6 kmh NNW 11.0 mph17.7 kmh 29.96 in1014.6 mb 0.00 in0.0 mm 0.00 in0.0 mm 0.00 in0.0 mm
10:41 AM 59.9°F15.5°C 54.1°F12.3°C 81% 9.3 mph N15.0 kmh N 11.0 mph17.7 kmh 29.96 in1014.6 mb 0.00 in0.0 mm 0.00 in0.0 mm 0.00 in0.0 mm
10:42 AM 59.8°F15.4°C 54.0°F12.2°C 81% 9.5 mph N15.3 kmh N 11.0 mph17.7 kmh 29.96 in1014.6 mb 0.00 in0.0 mm 0.00 in0.0 mm 0.00 in0.0 mm
10:43 AM 59.8°F15.4°C 54.0°F12.2°C 81% 7.2 mph N11.6 kmh N 11.0 mph17.7 kmh 29.96 in1014.6 mb 0.00 in0.0 mm 0.00 in0.0 mm 0.00 in0.0 mm
10:44 AM 59.8°F15.4°C 54.0°F12.2°C 81% 8.3 mph N13.4 kmh N 10.0 mph16.1 kmh 29.96 in1014.6 mb 0.00 in0.0 mm 0.00 in0.0 mm 0.00 in0.0 mm
10:45 AM 59.8°F15.4°C 54.0°F12.2°C 81% 7.4 mph N11.9 kmh N 10.0 mph16.1 kmh 29.96 in1014.6 mb 0.00 in0.0 mm 0.00 in0.0 mm 0.00 in0.0 mm
10:46 AM 59.8°F15.4°C 54.0°F12.2°C 81% 6.8 mph N10.9 kmh N 9.0 mph14.5 kmh 29.96 in1014.6 mb 0.00 in0.0 mm 0.00 in0.0 mm 0.00 in0.0 mm
10:47 AM 59.8°F15.4°C 54.0°F12.2°C 81% 8.2 mph N13.2 kmh N 10.0 mph16.1 kmh 29.96 in1014.6 mb 0.00 in0.0 mm 0.00 in0.0 mm 0.00 in0.0 mm
10:48 AM 59.8°F15.4°C 54.3°F12.4°C 82% 8.6 mph N13.8 kmh N 10.0 mph16.1 kmh 29.96 in1014.6 mb 0.00 in0.0 mm 0.00 in0.0 mm 0.00 in0.0 mm
10:49 AM 59.9°F15.5°C 54.1°F12.3°C 81% 8.0 mph N12.9 kmh N 10.0 mph16.1 kmh 29.96 in1014.6 mb 0.00 in0.0 mm 0.00 in0.0 mm 0.00 in0.0 mm
10:50 AM 59.9°F15.5°C 54.1°F12.3°C 81% 7.7 mph N12.4 kmh N 10.0 mph16.1 kmh 29.96 in1014.6 mb 0.00 in0.0 mm 0.00 in0.0 mm 0.00 in0.0 mm
10:51 AM 59.9°F15.5°C 54.4°F12.4°C 82% 8.0 mph N12.9 kmh N 10.0 mph16.1 kmh 29.96 in1014.6 mb 0.00 in0.0 mm 0.00 in0.0 mm 0.00 in0.0 mm
10:52 AM 60.0°F15.6°C 54.1°F12.3°C 81% 7.8 mph N12.6 kmh N 9.0 mph14.5 kmh 29.96 in1014.6 mb 0.00 in0.0 mm 0.00 in0.0 mm 0.00 in0.0 mm
10:53 AM 59.9°F15.5°C 54.1°F12.3°C 81% 8.4 mph N13.5 kmh N 9.0 mph14.5 kmh 29.96 in1014.6 mb 0.00 in0.0 mm 0.00 in0.0 mm 0.00 in0.0 mm
10:54 AM 60.0°F15.6°C 54.1°F12.3°C 81% 6.7 mph N10.8 kmh N 9.0 mph14.5 kmh 29.96 in1014.6 mb 0.00 in0.0 mm 0.00 in0.0 mm 0.00 in0.0 mm
10:55 AM 60.0°F15.6°C 54.1°F12.3°C 81% 7.6 mph N12.2 kmh N 9.0 mph14.5 kmh 29.96 in1014.6 mb 0.00 in0.0 mm 0.00 in0.0 mm 0.00 in0.0 mm
10:56 AM 60.0°F15.6°C 54.1°F12.3°C 81% 5.9 mph N9.5 kmh N 9.0 mph14.5 kmh 29.96 in1014.6 mb 0.00 in0.0 mm 0.00 in0.0 mm 0.00 in0.0 mm
10:57 AM 60.1°F15.6°C 54.2°F12.3°C 81% 5.2 mph N8.4 kmh N 9.0 mph14.5 kmh 29.96 in1014.6 mb 0.00 in0.0 mm 0.00 in0.0 mm 0.00 in0.0 mm
10:58 AM 60.2°F15.7°C 54.0°F12.2°C 80% 5.5 mph N8.9 kmh N 10.0 mph16.1 kmh 29.96 in1014.6 mb 0.00 in0.0 mm 0.00 in0.0 mm 0.00 in0.0 mm
10:59 AM 60.2°F15.7°C 54.0°F12.2°C 80% 8.2 mph N13.2 kmh N 10.0 mph16.1 kmh 29.96 in1014.6 mb 0.00 in0.0 mm 0.00 in0.0 mm 0.00 in0.0 mm
11:00 AM 60.3°F15.7°C 54.1°F12.3°C 80% 8.3 mph N13.4 kmh N 10.0 mph16.1 kmh 29.96 in1014.6 mb 0.00 in0.0 mm 0.00 in0.0 mm 0.00 in0.0 mm
11:01 AM 60.4°F15.8°C 54.2°F12.3°C 80% 8.1 mph N13.0 kmh N 10.0 mph16.1 kmh 29.96 in1014.6 mb 0.00 in0.0 mm 0.00 in0.0 mm 0.00 in0.0 mm
11:02 AM 60.4°F15.8°C 54.5°F12.5°C 81% 8.5 mph N13.7 kmh N 10.0 mph16.1 kmh 29.96 in1014.6 mb 0.00 in0.0 mm 0.00 in0.0 mm 0.00 in0.0 mm
11:03 AM 60.5°F15.8°C 54.0°F12.2°C 79% 8.2 mph N13.2 kmh N 10.0 mph16.1 kmh 29.96 in1014.6 mb 0.00 in0.0 mm 0.00 in0.0 mm 0.00 in0.0 mm
11:04 AM 60.5°F15.8°C 54.0°F12.2°C 79% 8.5 mph N13.7 kmh N 10.0 mph16.1 kmh 29.96 in1014.6 mb 0.00 in0.0 mm 0.00 in0.0 mm 0.00 in0.0 mm
11:05 AM 60.5°F15.8°C 54.3°F12.4°C 80% 8.1 mph N13.0 kmh N 10.0 mph16.1 kmh 29.96 in1014.6 mb 0.00 in0.0 mm 0.00 in0.0 mm 0.00 in0.0 mm
11:06 AM 60.5°F15.8°C 54.3°F12.4°C 80% 8.1 mph N13.0 kmh N 9.0 mph14.5 kmh 29.96 in1014.6 mb 0.00 in0.0 mm 0.00 in0.0 mm 0.00 in0.0 mm
11:07 AM 60.6°F15.9°C 54.0°F12.2°C 79% 8.1 mph N13.0 kmh N 10.0 mph16.1 kmh 29.97 in1014.9 mb 0.00 in0.0 mm 0.00 in0.0 mm 0.00 in0.0 mm
11:08 AM 60.6°F15.9°C 54.0°F12.2°C 79% 8.3 mph N13.4 kmh N 10.0 mph16.1 kmh 29.97 in1014.9 mb 0.00 in0.0 mm 0.00 in0.0 mm 0.00 in0.0 mm
11:09 AM 60.6°F15.9°C 53.7°F12.1°C 78% 8.8 mph N14.2 kmh N 10.0 mph16.1 kmh 29.97 in1014.9 mb 0.00 in0.0 mm 0.00 in0.0 mm 0.00 in0.0 mm
11:10 AM 60.5°F15.8°C 54.0°F12.2°C 79% 8.5 mph N13.7 kmh N 10.0 mph16.1 kmh 29.97 in1014.9 mb 0.00 in0.0 mm 0.00 in0.0 mm 0.00 in0.0 mm
11:11 AM 60.5°F15.8°C 54.0°F12.2°C 79% 8.3 mph NNE13.4 kmh NNE 10.0 mph16.1 kmh 29.97 in1014.9 mb 0.00 in0.0 mm 0.00 in0.0 mm 0.00 in0.0 mm
11:12 AM 60.6°F15.9°C 54.0°F12.2°C 79% 8.4 mph N13.5 kmh N 10.0 mph16.1 kmh 29.97 in1014.9 mb 0.00 in0.0 mm 0.00 in0.0 mm 0.00 in0.0 mm
11:13 AM 60.5°F15.8°C 54.0°F12.2°C 79% 8.5 mph N13.7 kmh N 10.0 mph16.1 kmh 29.97 in1014.9 mb 0.00 in0.0 mm 0.00 in0.0 mm 0.00 in0.0 mm
11:14 AM 60.5°F15.8°C 54.0°F12.2°C 79% 8.2 mph N13.2 kmh N 10.0 mph16.1 kmh 29.97 in1014.9 mb 0.00 in0.0 mm 0.00 in0.0 mm 0.00 in0.0 mm
11:15 AM 60.5°F15.8°C 54.0°F12.2°C 79% 7.7 mph N12.4 kmh N 10.0 mph16.1 kmh 29.97 in1014.9 mb 0.00 in0.0 mm 0.00 in0.0 mm 0.00 in0.0 mm
11:16 AM 60.6°F15.9°C 54.4°F12.4°C 80% 7.8 mph N12.6 kmh N 9.0 mph14.5 kmh 29.97 in1014.9 mb 0.00 in0.0 mm 0.00 in0.0 mm 0.00 in0.0 mm
11:17 AM 60.6°F15.9°C 54.4°F12.4°C 80% 8.1 mph N13.0 kmh N 9.0 mph14.5 kmh 29.96 in1014.6 mb 0.00 in0.0 mm 0.00 in0.0 mm 0.00 in0.0 mm
11:18 AM 60.7°F15.9°C 54.5°F12.5°C 80% 8.1 mph NNE13.0 kmh NNE 9.0 mph14.5 kmh 29.97 in1014.9 mb 0.00 in0.0 mm 0.00 in0.0 mm 0.00 in0.0 mm
11:19 AM 60.7°F15.9°C 54.1°F12.3°C 79% 8.0 mph NNE12.9 kmh NNE 9.0 mph14.5 kmh 29.97 in1014.9 mb 0.00 in0.0 mm 0.00 in0.0 mm 0.00 in0.0 mm
11:20 AM 60.7°F15.9°C 54.5°F12.5°C 80% 7.8 mph NNE12.6 kmh NNE 9.0 mph14.5 kmh 29.97 in1014.9 mb 0.00 in0.0 mm 0.00 in0.0 mm 0.00 in0.0 mm
11:21 AM 60.7°F15.9°C 54.5°F12.5°C 80% 6.2 mph NNE10.0 kmh NNE 9.0 mph14.5 kmh 29.97 in1014.9 mb 0.00 in0.0 mm 0.00 in0.0 mm 0.00 in0.0 mm
11:22 AM 60.7°F15.9°C 54.5°F12.5°C 80% 7.1 mph NE11.4 kmh NE 11.0 mph17.7 kmh 29.97 in1014.9 mb 0.00 in0.0 mm 0.00 in0.0 mm 0.00 in0.0 mm
11:23 AM 60.7°F15.9°C 54.1°F12.3°C 79% 8.0 mph NE12.9 kmh NE 11.0 mph17.7 kmh 29.97 in1014.9 mb 0.00 in0.0 mm 0.00 in0.0 mm 0.00 in0.0 mm
11:24 AM 60.7°F15.9°C 54.1°F12.3°C 79% 7.1 mph NNE11.4 kmh NNE 10.0 mph16.1 kmh 29.96 in1014.6 mb 0.00 in0.0 mm 0.00 in0.0 mm 0.00 in0.0 mm
11:25 AM 60.7°F15.9°C 54.5°F12.5°C 80% 8.6 mph NNE13.8 kmh NNE 10.0 mph16.1 kmh 29.97 in1014.9 mb 0.00 in0.0 mm 0.00 in0.0 mm 0.00 in0.0 mm
11:26 AM 60.7°F15.9°C 54.5°F12.5°C 80% 6.7 mph NE10.8 kmh NE 10.0 mph16.1 kmh 29.97 in1014.9 mb 0.00 in0.0 mm 0.00 in0.0 mm 0.00 in0.0 mm
11:27 AM 60.7°F15.9°C 54.1°F12.3°C 79% 6.9 mph NE11.1 kmh NE 10.0 mph16.1 kmh 29.96 in1014.6 mb 0.00 in0.0 mm 0.00 in0.0 mm 0.00 in0.0 mm
11:28 AM 60.8°F16.0°C 54.2°F12.3°C 79% 7.0 mph NE11.3 kmh NE 11.0 mph17.7 kmh 29.96 in1014.6 mb 0.00 in0.0 mm 0.00 in0.0 mm 0.00 in0.0 mm
11:29 AM 60.8°F16.0°C 54.2°F12.3°C 79% 7.4 mph NE11.9 kmh NE 11.0 mph17.7 kmh 29.96 in1014.6 mb 0.00 in0.0 mm 0.00 in0.0 mm 0.00 in0.0 mm
11:30 AM 60.8°F16.0°C 54.2°F12.3°C 79% 8.0 mph NE12.9 kmh NE 11.0 mph17.7 kmh 29.97 in1014.9 mb 0.00 in0.0 mm 0.00 in0.0 mm 0.00 in0.0 mm
11:31 AM 60.8°F16.0°C 54.2°F12.3°C 79% 9.4 mph NE15.1 kmh NE 11.0 mph17.7 kmh 29.97 in1014.9 mb 0.00 in0.0 mm 0.00 in0.0 mm 0.00 in0.0 mm
11:32 AM 60.8°F16.0°C 54.2°F12.3°C 79% 7.6 mph NE12.2 kmh NE 11.0 mph17.7 kmh 29.96 in1014.6 mb 0.00 in0.0 mm 0.00 in0.0 mm 0.00 in0.0 mm
11:33 AM 60.9°F16.1°C 54.3°F12.4°C 79% 6.4 mph NE10.3 kmh NE 10.0 mph16.1 kmh 29.96 in1014.6 mb 0.00 in0.0 mm 0.00 in0.0 mm 0.00 in0.0 mm
11:34 AM 60.8°F16.0°C 54.2°F12.3°C 79% 5.6 mph NE9.0 kmh NE 9.0 mph14.5 kmh 29.97 in1014.9 mb 0.00 in0.0 mm 0.00 in0.0 mm 0.00 in0.0 mm
11:35 AM 60.9°F16.1°C 54.3°F12.4°C 79% 4.7 mph NE7.6 kmh NE 8.0 mph12.9 kmh 29.97 in1014.9 mb 0.00 in0.0 mm 0.00 in0.0 mm 0.00 in0.0 mm
11:36 AM 60.9°F16.1°C 54.3°F12.4°C 79% 6.3 mph NE10.1 kmh NE 9.0 mph14.5 kmh 29.97 in1014.9 mb 0.00 in0.0 mm 0.00 in0.0 mm 0.00 in0.0 mm
11:37 AM 60.9°F16.1°C 54.3°F12.4°C 79% 5.9 mph NE9.5 kmh NE 9.0 mph14.5 kmh 29.97 in1014.9 mb 0.00 in0.0 mm 0.00 in0.0 mm 0.00 in0.0 mm
11:38 AM 61.0°F16.1°C 54.1°F12.3°C 78% 7.9 mph NE12.7 kmh NE 10.0 mph16.1 kmh 29.97 in1014.9 mb 0.00 in0.0 mm 0.00 in0.0 mm 0.00 in0.0 mm
11:39 AM 60.9°F16.1°C 54.0°F12.2°C 78% 7.7 mph NE12.4 kmh NE 10.0 mph16.1 kmh 29.97 in1014.9 mb 0.00 in0.0 mm 0.00 in0.0 mm 0.00 in0.0 mm
11:40 AM 60.9°F16.1°C 54.0°F12.2°C 78% 6.9 mph NE11.1 kmh NE 10.0 mph16.1 kmh 29.96 in1014.6 mb 0.00 in0.0 mm 0.00 in0.0 mm 0.00 in0.0 mm
11:41 AM 60.9°F16.1°C 54.3°F12.4°C 79% 5.2 mph ENE8.4 kmh ENE 10.0 mph16.1 kmh 29.97 in1014.9 mb 0.00 in0.0 mm 0.00 in0.0 mm 0.00 in0.0 mm
11:42 AM 60.9°F16.1°C 54.3°F12.4°C 79% 4.6 mph NE7.4 kmh NE 7.0 mph11.3 kmh 29.97 in1014.9 mb 0.00 in0.0 mm 0.00 in0.0 mm 0.00 in0.0 mm
11:43 AM 61.0°F16.1°C 54.4°F12.4°C 79% 6.2 mph NE10.0 kmh NE 8.0 mph12.9 kmh 29.97 in1014.9 mb 0.00 in0.0 mm 0.00 in0.0 mm 0.00 in0.0 mm
11:44 AM 61.0°F16.1°C 54.4°F12.4°C 79% 5.4 mph NE8.7 kmh NE 8.0 mph12.9 kmh 29.97 in1014.9 mb 0.00 in0.0 mm 0.00 in0.0 mm 0.00 in0.0 mm
11:45 AM 61.0°F16.1°C 54.4°F12.4°C 79% 5.2 mph NE8.4 kmh NE 8.0 mph12.9 kmh 29.97 in1014.9 mb 0.00 in0.0 mm 0.00 in0.0 mm 0.00 in0.0 mm
11:46 AM 61.1°F16.2°C 54.5°F12.5°C 79% 4.8 mph NE7.7 kmh NE 8.0 mph12.9 kmh 29.97 in1014.9 mb 0.00 in0.0 mm 0.00 in0.0 mm 0.00 in0.0 mm
11:47 AM 61.2°F16.2°C 54.6°F12.6°C 79% 5.3 mph NE8.5 kmh NE 7.0 mph11.3 kmh 29.97 in1014.9 mb 0.00 in0.0 mm 0.00 in0.0 mm 0.00 in0.0 mm
11:48 AM 61.2°F16.2°C 54.6°F12.6°C 79% 5.0 mph NE8.0 kmh NE 7.0 mph11.3 kmh 29.97 in1014.9 mb 0.00 in0.0 mm 0.00 in0.0 mm 0.00 in0.0 mm
11:49 AM 61.2°F16.2°C 54.6°F12.6°C 79% 5.6 mph NE9.0 kmh NE 8.0 mph12.9 kmh 29.97 in1014.9 mb 0.00 in0.0 mm 0.00 in0.0 mm 0.00 in0.0 mm
11:50 AM 61.2°F16.2°C 54.6°F12.6°C 79% 6.3 mph NE10.1 kmh NE 9.0 mph14.5 kmh 29.97 in1014.9 mb 0.00 in0.0 mm 0.00 in0.0 mm 0.00 in0.0 mm
11:51 AM 61.2°F16.2°C 54.6°F12.6°C 79% 5.2 mph NE8.4 kmh NE 9.0 mph14.5 kmh 29.97 in1014.9 mb 0.00 in0.0 mm 0.00 in0.0 mm 0.00 in0.0 mm
11:52 AM 61.3°F16.3°C 54.7°F12.6°C 79% 4.7 mph NE7.6 kmh NE 9.0 mph14.5 kmh 29.97 in1014.9 mb 0.00 in0.0 mm 0.00 in0.0 mm 0.00 in0.0 mm
11:53 AM 61.3°F16.3°C 54.7°F12.6°C 79% 5.9 mph NE9.5 kmh NE 9.0 mph14.5 kmh 29.97 in1014.9 mb 0.00 in0.0 mm 0.00 in0.0 mm 0.00 in0.0 mm
11:54 AM 61.3°F16.3°C 54.4°F12.4°C 78% 5.3 mph NE8.5 kmh NE 9.0 mph14.5 kmh 29.97 in1014.9 mb 0.00 in0.0 mm 0.00 in0.0 mm 0.00 in0.0 mm
11:55 AM 61.3°F16.3°C 54.4°F12.4°C 78% 4.7 mph NE7.6 kmh NE 8.0 mph12.9 kmh 29.97 in1014.9 mb 0.00 in0.0 mm 0.00 in0.0 mm 0.00 in0.0 mm
11:56 AM 61.3°F16.3°C 54.7°F12.6°C 79% 5.6 mph NE9.0 kmh NE 10.0 mph16.1 kmh 29.97 in1014.9 mb 0.00 in0.0 mm 0.00 in0.0 mm 0.00 in0.0 mm
11:57 AM 61.3°F16.3°C 54.7°F12.6°C 79% 5.0 mph NE8.0 kmh NE 10.0 mph16.1 kmh 29.97 in1014.9 mb 0.00 in0.0 mm 0.00 in0.0 mm 0.00 in0.0 mm
11:58 AM 61.3°F16.3°C 54.4°F12.4°C 78% 5.9 mph NE9.5 kmh NE 7.0 mph11.3 kmh 29.97 in1014.9 mb 0.00 in0.0 mm 0.00 in0.0 mm 0.00 in0.0 mm
11:59 AM 61.3°F16.3°C 54.4°F12.4°C 78% 4.8 mph NE7.7 kmh NE 8.0 mph12.9 kmh 29.97 in1014.9 mb 0.00 in0.0 mm 0.00 in0.0 mm 0.00 in0.0 mm
12:00 PM 61.2°F16.2°C 54.6°F12.6°C 79% 5.0 mph NE8.0 kmh NE 6.0 mph9.7 kmh 29.97 in1014.9 mb 0.00 in0.0 mm 0.00 in0.0 mm 0.00 in0.0 mm
12:01 PM 61.2°F16.2°C 54.3°F12.4°C 78% 5.1 mph NNE8.2 kmh NNE 7.0 mph11.3 kmh 29.97 in1014.9 mb 0.00 in0.0 mm 0.00 in0.0 mm 0.00 in0.0 mm
12:02 PM 61.1°F16.2°C 54.2°F12.3°C 78% 5.2 mph NNE8.4 kmh NNE 7.0 mph11.3 kmh 29.97 in1014.9 mb 0.00 in0.0 mm 0.00 in0.0 mm 0.00 in0.0 mm
12:03 PM 61.0°F16.1°C 54.4°F12.4°C 79% 4.5 mph NNE7.2 kmh NNE 7.0 mph11.3 kmh 29.97 in1014.9 mb 0.00 in0.0 mm 0.00 in0.0 mm 0.00 in0.0 mm
12:04 PM 61.0°F16.1°C 54.4°F12.4°C 79% 5.3 mph NNE8.5 kmh NNE 7.0 mph11.3 kmh 29.97 in1014.9 mb 0.00 in0.0 mm 0.00 in0.0 mm 0.00 in0.0 mm
12:05 PM 60.9°F16.1°C 54.3°F12.4°C 79% 4.9 mph NNE7.9 kmh NNE 7.0 mph11.3 kmh 29.97 in1014.9 mb 0.00 in0.0 mm 0.00 in0.0 mm 0.00 in0.0 mm
12:06 PM 60.8°F16.0°C 54.2°F12.3°C 79% 4.0 mph NNE6.4 kmh NNE 7.0 mph11.3 kmh 29.97 in1014.9 mb 0.00 in0.0 mm 0.00 in0.0 mm 0.00 in0.0 mm
12:07 PM 60.8°F16.0°C 54.2°F12.3°C 79% 4.5 mph N7.2 kmh N 7.0 mph11.3 kmh 29.97 in1014.9 mb 0.00 in0.0 mm 0.00 in0.0 mm 0.00 in0.0 mm
12:08 PM 60.7°F15.9°C 54.1°F12.3°C 79% 4.7 mph N7.6 kmh N 7.0 mph11.3 kmh 29.97 in1014.9 mb 0.00 in0.0 mm 0.00 in0.0 mm 0.00 in0.0 mm
12:09 PM 60.7°F15.9°C 54.1°F12.3°C 79% 3.9 mph N6.3 kmh N 5.0 mph8.0 kmh 29.97 in1014.9 mb 0.00 in0.0 mm 0.00 in0.0 mm 0.00 in0.0 mm
12:10 PM 60.7°F15.9°C 54.5°F12.5°C 80% 3.6 mph N5.8 kmh N 5.0 mph8.0 kmh 29.97 in1014.9 mb 0.00 in0.0 mm 0.00 in0.0 mm 0.00 in0.0 mm
12:11 PM 60.7°F15.9°C 54.5°F12.5°C 80% 4.0 mph N6.4 kmh N 5.0 mph8.0 kmh 29.97 in1014.9 mb 0.00 in0.0 mm 0.00 in0.0 mm 0.00 in0.0 mm
12:12 PM 60.7°F15.9°C 54.5°F12.5°C 80% 4.2 mph N6.8 kmh N 5.0 mph8.0 kmh 29.97 in1014.9 mb 0.00 in0.0 mm 0.00 in0.0 mm 0.00 in0.0 mm
12:13 PM 60.7°F15.9°C 54.5°F12.5°C 80% 4.1 mph 6.6 kmh 6.0 mph9.7 kmh 29.97 in1014.9 mb 0.00 in0.0 mm 0.00 in0.0 mm 0.00 in0.0 mm
12:14 PM 60.7°F15.9°C 54.5°F12.5°C 80% 4.6 mph N7.4 kmh N 6.0 mph9.7 kmh 29.97 in1014.9 mb 0.00 in0.0 mm 0.00 in0.0 mm 0.00 in0.0 mm
12:15 PM 60.7°F15.9°C 54.5°F12.5°C 80% 3.9 mph N6.3 kmh N 5.0 mph8.0 kmh 29.97 in1014.9 mb 0.00 in0.0 mm 0.00 in0.0 mm 0.00 in0.0 mm
12:16 PM 60.8°F16.0°C 54.6°F12.6°C 80% 3.4 mph N5.5 kmh N 5.0 mph8.0 kmh 29.97 in1014.9 mb 0.00 in0.0 mm 0.00 in0.0 mm 0.00 in0.0 mm
12:17 PM 60.8°F16.0°C 54.6°F12.6°C 80% 3.9 mph N6.3 kmh N 5.0 mph8.0 kmh 29.97 in1014.9 mb 0.00 in0.0 mm 0.00 in0.0 mm 0.00 in0.0 mm
12:18 PM 60.8°F16.0°C 54.6°F12.6°C 80% 3.3 mph N5.3 kmh N 5.0 mph8.0 kmh 29.97 in1014.9 mb 0.00 in0.0 mm 0.00 in0.0 mm 0.00 in0.0 mm
12:19 PM 60.8°F16.0°C 54.9°F12.7°C 81% 3.7 mph N6.0 kmh N 5.0 mph8.0 kmh 29.97 in1014.9 mb 0.00 in0.0 mm 0.00 in0.0 mm 0.00 in0.0 mm
12:20 PM 60.8°F16.0°C 54.6°F12.6°C 80% 3.4 mph N5.5 kmh N 5.0 mph8.0 kmh 29.97 in1014.9 mb 0.00 in0.0 mm 0.00 in0.0 mm 0.00 in0.0 mm
12:21 PM 60.9°F16.1°C 54.7°F12.6°C 80% 2.5 mph N4.0 kmh N 4.0 mph6.4 kmh 29.97 in1014.9 mb 0.00 in0.0 mm 0.00 in0.0 mm 0.00 in0.0 mm
12:22 PM 60.9°F16.1°C 55.0°F12.8°C 81% 4.0 mph NNE6.4 kmh NNE 5.0 mph8.0 kmh 29.97 in1014.9 mb 0.00 in0.0 mm 0.00 in0.0 mm 0.00 in0.0 mm
12:23 PM 60.9°F16.1°C 54.7°F12.6°C 80% 3.8 mph N6.1 kmh N 5.0 mph8.0 kmh 29.97 in1014.9 mb 0.00 in0.0 mm 0.00 in0.0 mm 0.00 in0.0 mm
12:24 PM 60.9°F16.1°C 54.7°F12.6°C 80% 3.1 mph N5.0 kmh N 5.0 mph8.0 kmh 29.97 in1014.9 mb 0.00 in0.0 mm 0.00 in0.0 mm 0.00 in0.0 mm
12:25 PM 61.0°F16.1°C 55.1°F12.8°C 81% 4.1 mph N6.6 kmh N 5.0 mph8.0 kmh 29.97 in1014.9 mb 0.00 in0.0 mm 0.00 in0.0 mm 0.00 in0.0 mm
12:26 PM 61.0°F16.1°C 54.8°F12.7°C 80% 4.3 mph N6.9 kmh N 5.0 mph8.0 kmh 29.97 in1014.9 mb 0.00 in0.0 mm 0.00 in0.0 mm 0.00 in0.0 mm
12:27 PM 61.1°F16.2°C 54.9°F12.7°C 80% 3.2 mph N5.1 kmh N 5.0 mph8.0 kmh 29.97 in1014.9 mb 0.00 in0.0 mm 0.00 in0.0 mm 0.00 in0.0 mm
12:28 PM 61.1°F16.2°C 54.9°F12.7°C 80% 3.3 mph N5.3 kmh N 5.0 mph8.0 kmh 29.97 in1014.9 mb 0.00 in0.0 mm 0.00 in0.0 mm 0.00 in0.0 mm
12:29 PM 61.1°F16.2°C 54.5°F12.5°C 79% 3.7 mph N6.0 kmh N 5.0 mph8.0 kmh 29.97 in1014.9 mb 0.00 in0.0 mm 0.00 in0.0 mm 0.00 in0.0 mm
12:30 PM 61.1°F16.2°C 54.9°F12.7°C 80% 6.6 mph N10.6 kmh N 9.0 mph14.5 kmh 29.97 in1014.9 mb 0.00 in0.0 mm 0.00 in0.0 mm 0.00 in0.0 mm
12:31 PM 61.1°F16.2°C 54.5°F12.5°C 79% 5.4 mph N8.7 kmh N 9.0 mph14.5 kmh 29.97 in1014.9 mb 0.00 in0.0 mm 0.00 in0.0 mm 0.00 in0.0 mm
12:32 PM 61.1°F16.2°C 54.9°F12.7°C 80% 5.6 mph N9.0 kmh N 9.0 mph14.5 kmh 29.97 in1014.9 mb 0.00 in0.0 mm 0.00 in0.0 mm 0.00 in0.0 mm
12:33 PM 61.1°F16.2°C 54.5°F12.5°C 79% 6.4 mph N10.3 kmh N 9.0 mph14.5 kmh 29.97 in1014.9 mb 0.00 in0.0 mm 0.00 in0.0 mm 0.00 in0.0 mm
12:34 PM 61.1°F16.2°C 54.5°F12.5°C 79% 8.0 mph N12.9 kmh N 9.0 mph14.5 kmh 29.97 in1014.9 mb 0.00 in0.0 mm 0.00 in0.0 mm 0.00 in0.0 mm
12:35 PM 61.1°F16.2°C 54.5°F12.5°C 79% 5.8 mph N9.3 kmh N 9.0 mph14.5 kmh 29.97 in1014.9 mb 0.00 in0.0 mm 0.00 in0.0 mm 0.00 in0.0 mm
12:36 PM 61.2°F16.2°C 55.0°F12.8°C 80% 5.3 mph N8.5 kmh N 8.0 mph12.9 kmh 29.97 in1014.9 mb 0.00 in0.0 mm 0.00 in0.0 mm 0.00 in0.0 mm
12:37 PM 61.2°F16.2°C 55.0°F12.8°C 80% 4.5 mph N7.2 kmh N 8.0 mph12.9 kmh 29.97 in1014.9 mb 0.00 in0.0 mm 0.00 in0.0 mm 0.00 in0.0 mm
12:38 PM 61.2°F16.2°C 55.0°F12.8°C 80% 6.2 mph N10.0 kmh N 10.0 mph16.1 kmh 29.97 in1014.9 mb 0.00 in0.0 mm 0.00 in0.0 mm 0.00 in0.0 mm
12:39 PM 61.2°F16.2°C 55.0°F12.8°C 80% 5.9 mph N9.5 kmh N 10.0 mph16.1 kmh 29.97 in1014.9 mb 0.00 in0.0 mm 0.00 in0.0 mm 0.00 in0.0 mm
12:40 PM 61.2°F16.2°C 54.6°F12.6°C 79% 6.5 mph N10.5 kmh N 9.0 mph14.5 kmh 29.97 in1014.9 mb 0.00 in0.0 mm 0.00 in0.0 mm 0.00 in0.0 mm
12:41 PM 61.2°F16.2°C 54.6°F12.6°C 79% 7.6 mph N12.2 kmh N 10.0 mph16.1 kmh 29.96 in1014.6 mb 0.00 in0.0 mm 0.00 in0.0 mm 0.00 in0.0 mm
12:42 PM 61.3°F16.3°C 55.1°F12.8°C 80% 5.3 mph N8.5 kmh N 10.0 mph16.1 kmh 29.96 in1014.6 mb 0.00 in0.0 mm 0.00 in0.0 mm 0.00 in0.0 mm
12:43 PM 61.2°F16.2°C 54.6°F12.6°C 79% 7.2 mph N11.6 kmh N 9.0 mph14.5 kmh 29.96 in1014.6 mb 0.00 in0.0 mm 0.00 in0.0 mm 0.00 in0.0 mm
12:44 PM 61.3°F16.3°C 54.7°F12.6°C 79% 6.7 mph N10.8 kmh N 10.0 mph16.1 kmh 29.96 in1014.6 mb 0.00 in0.0 mm 0.00 in0.0 mm 0.00 in0.0 mm
12:45 PM 61.3°F16.3°C 54.7°F12.6°C 79% 5.8 mph N9.3 kmh N 9.0 mph14.5 kmh 29.96 in1014.6 mb 0.00 in0.0 mm 0.00 in0.0 mm 0.00 in0.0 mm
12:46 PM 61.2°F16.2°C 54.6°F12.6°C 79% 6.6 mph N10.6 kmh N 9.0 mph14.5 kmh 29.96 in1014.6 mb 0.00 in0.0 mm 0.00 in0.0 mm 0.00 in0.0 mm
12:47 PM 61.2°F16.2°C 54.6°F12.6°C 79% 5.3 mph N8.5 kmh N 9.0 mph14.5 kmh 29.96 in1014.6 mb 0.00 in0.0 mm 0.00 in0.0 mm 0.00 in0.0 mm
12:48 PM 61.3°F16.3°C 54.7°F12.6°C 79% 5.6 mph N9.0 kmh N 8.0 mph12.9 kmh 29.96 in1014.6 mb 0.00 in0.0 mm 0.00 in0.0 mm 0.00 in0.0 mm
12:49 PM 61.3°F16.3°C 55.1°F12.8°C 80% 6.7 mph NNW10.8 kmh NNW 10.0 mph16.1 kmh 29.96 in1014.6 mb 0.00 in0.0 mm 0.00 in0.0 mm 0.00 in0.0 mm
12:50 PM 61.3°F16.3°C 55.1°F12.8°C 80% 6.9 mph N11.1 kmh N 10.0 mph16.1 kmh 29.97 in1014.9 mb 0.00 in0.0 mm 0.00 in0.0 mm 0.00 in0.0 mm
12:51 PM 61.4°F16.3°C 55.2°F12.9°C 80% 7.2 mph N11.6 kmh N 9.0 mph14.5 kmh 29.97 in1014.9 mb 0.00 in0.0 mm 0.00 in0.0 mm 0.00 in0.0 mm
12:52 PM 61.4°F16.3°C 55.2°F12.9°C 80% 8.7 mph N14.0 kmh N 10.0 mph16.1 kmh 29.96 in1014.6 mb 0.00 in0.0 mm 0.00 in0.0 mm 0.00 in0.0 mm
12:53 PM 61.4°F16.3°C 54.8°F12.7°C 79% 8.8 mph N14.2 kmh N 11.0 mph17.7 kmh 29.97 in1014.9 mb 0.00 in0.0 mm 0.00 in0.0 mm 0.00 in0.0 mm
12:54 PM 61.4°F16.3°C 54.8°F12.7°C 79% 9.1 mph N14.6 kmh N 11.0 mph17.7 kmh 29.97 in1014.9 mb 0.00 in0.0 mm 0.00 in0.0 mm 0.00 in0.0 mm
12:55 PM 61.4°F16.3°C 55.2°F12.9°C 80% 9.5 mph N15.3 kmh N 11.0 mph17.7 kmh 29.97 in1014.9 mb 0.00 in0.0 mm 0.00 in0.0 mm 0.00 in0.0 mm
12:56 PM 61.4°F16.3°C 54.8°F12.7°C 79% 9.8 mph N15.8 kmh N 11.0 mph17.7 kmh 29.97 in1014.9 mb 0.00 in0.0 mm 0.00 in0.0 mm 0.00 in0.0 mm
12:57 PM 61.4°F16.3°C 54.8°F12.7°C 79% 8.3 mph N13.4 kmh N 11.0 mph17.7 kmh 29.97 in1014.9 mb 0.00 in0.0 mm 0.00 in0.0 mm 0.00 in0.0 mm
12:58 PM 61.4°F16.3°C 54.8°F12.7°C 79% 9.1 mph N14.6 kmh N 11.0 mph17.7 kmh 29.97 in1014.9 mb 0.00 in0.0 mm 0.00 in0.0 mm 0.00 in0.0 mm
12:59 PM 61.4°F16.3°C 55.2°F12.9°C 80% 9.9 mph 15.9 kmh 11.0 mph17.7 kmh 29.97 in1014.9 mb 0.00 in0.0 mm 0.00 in0.0 mm 0.00 in0.0 mm
01:00 PM 61.4°F16.3°C 55.2°F12.9°C 80% 8.8 mph N14.2 kmh N 11.0 mph17.7 kmh 29.97 in1014.9 mb 0.00 in0.0 mm 0.00 in0.0 mm 0.00 in0.0 mm
01:01 PM 61.4°F16.3°C 55.2°F12.9°C 80% 9.1 mph N14.6 kmh N 10.0 mph16.1 kmh 29.97 in1014.9 mb 0.00 in0.0 mm 0.00 in0.0 mm 0.00 in0.0 mm
01:02 PM 61.4°F16.3°C 55.2°F12.9°C 80% 10.5 mph NNE16.9 kmh NNE 13.0 mph20.9 kmh 29.97 in1014.9 mb 0.00 in0.0 mm 0.00 in0.0 mm 0.00 in0.0 mm
01:03 PM 61.4°F16.3°C 54.5°F12.5°C 78% 11.6 mph NNE18.7 kmh NNE 13.0 mph20.9 kmh 29.97 in1014.9 mb 0.00 in0.0 mm 0.00 in0.0 mm 0.00 in0.0 mm
01:04 PM 61.4°F16.3°C 54.5°F12.5°C 78% 11.1 mph NNE17.9 kmh NNE 13.0 mph20.9 kmh 29.97 in1014.9 mb 0.00 in0.0 mm 0.00 in0.0 mm 0.00 in0.0 mm
01:05 PM 61.4°F16.3°C 54.1°F12.3°C 77% 11.2 mph NNE18.0 kmh NNE 13.0 mph20.9 kmh 29.97 in1014.9 mb 0.00 in0.0 mm 0.00 in0.0 mm 0.00 in0.0 mm
01:06 PM 61.4°F16.3°C 53.8°F12.1°C 76% 10.7 mph NNE17.2 kmh NNE 12.0 mph19.3 kmh 29.97 in1014.9 mb 0.00 in0.0 mm 0.00 in0.0 mm 0.00 in0.0 mm
01:07 PM 61.4°F16.3°C 54.1°F12.3°C 77% 9.1 mph NNE14.6 kmh NNE 11.0 mph17.7 kmh 29.97 in1014.9 mb 0.00 in0.0 mm 0.00 in0.0 mm 0.00 in0.0 mm
01:08 PM 61.4°F16.3°C 54.1°F12.3°C 77% 9.5 mph N15.3 kmh N 11.0 mph17.7 kmh 29.97 in1014.9 mb 0.00 in0.0 mm 0.00 in0.0 mm 0.00 in0.0 mm
01:09 PM 61.4°F16.3°C 54.1°F12.3°C 77% 8.9 mph NNE14.3 kmh NNE 11.0 mph17.7 kmh 29.97 in1014.9 mb 0.00 in0.0 mm 0.00 in0.0 mm 0.00 in0.0 mm
01:10 PM 61.5°F16.4°C 54.2°F12.3°C 77% 7.1 mph NNE11.4 kmh NNE 10.0 mph16.1 kmh 29.97 in1014.9 mb 0.00 in0.0 mm 0.00 in0.0 mm 0.00 in0.0 mm
01:11 PM 61.5°F16.4°C 54.6°F12.6°C 78% 8.5 mph N13.7 kmh N 10.0 mph16.1 kmh 29.97 in1014.9 mb 0.00 in0.0 mm 0.00 in0.0 mm 0.00 in0.0 mm
01:12 PM 61.6°F16.4°C 54.3°F12.4°C 77% 8.9 mph NNE14.3 kmh NNE 10.0 mph16.1 kmh 29.97 in1014.9 mb 0.00 in0.0 mm 0.00 in0.0 mm 0.00 in0.0 mm
01:13 PM 61.7°F16.5°C 54.1°F12.3°C 76% 9.3 mph N15.0 kmh N 11.0 mph17.7 kmh 29.97 in1014.9 mb 0.00 in0.0 mm 0.00 in0.0 mm 0.00 in0.0 mm
01:14 PM 61.7°F16.5°C 53.7°F12.1°C 75% 9.2 mph NNE14.8 kmh NNE 11.0 mph17.7 kmh 29.97 in1014.9 mb 0.00 in0.0 mm 0.00 in0.0 mm 0.00 in0.0 mm
01:15 PM 61.8°F16.6°C 54.2°F12.3°C 76% 9.0 mph N14.5 kmh N 10.0 mph16.1 kmh 29.97 in1014.9 mb 0.00 in0.0 mm 0.00 in0.0 mm 0.00 in0.0 mm
01:16 PM 61.8°F16.6°C 54.2°F12.3°C 76% 8.9 mph N14.3 kmh N 10.0 mph16.1 kmh 29.97 in1014.9 mb 0.00 in0.0 mm 0.00 in0.0 mm 0.00 in0.0 mm
01:17 PM 61.8°F16.6°C 54.2°F12.3°C 76% 7.8 mph N12.6 kmh N 10.0 mph16.1 kmh 29.97 in1014.9 mb 0.00 in0.0 mm 0.00 in0.0 mm 0.00 in0.0 mm
01:18 PM 61.9°F16.6°C 54.6°F12.6°C 77% 6.7 mph N10.8 kmh N 9.0 mph14.5 kmh 29.97 in1014.9 mb 0.00 in0.0 mm 0.00 in0.0 mm 0.00 in0.0 mm
01:19 PM 61.9°F16.6°C 54.6°F12.6°C 77% 6.7 mph NNE10.8 kmh NNE 9.0 mph14.5 kmh 29.97 in1014.9 mb 0.00 in0.0 mm 0.00 in0.0 mm 0.00 in0.0 mm
01:20 PM 62.0°F16.7°C 54.7°F12.6°C 77% 6.9 mph N11.1 kmh N 9.0 mph14.5 kmh 29.96 in1014.6 mb 0.00 in0.0 mm 0.00 in0.0 mm 0.00 in0.0 mm
01:21 PM 62.1°F16.7°C 54.8°F12.7°C 77% 6.0 mph N9.7 kmh N 8.0 mph12.9 kmh 29.96 in1014.6 mb 0.00 in0.0 mm 0.00 in0.0 mm 0.00 in0.0 mm
01:22 PM 62.1°F16.7°C 54.4°F12.4°C 76% 6.6 mph N10.6 kmh N 8.0 mph12.9 kmh 29.96 in1014.6 mb 0.00 in0.0 mm 0.00 in0.0 mm 0.00 in0.0 mm
01:23 PM 62.1°F16.7°C 54.4°F12.4°C 76% 5.5 mph N8.9 kmh N 8.0 mph12.9 kmh 29.96 in1014.6 mb 0.00 in0.0 mm 0.00 in0.0 mm 0.00 in0.0 mm
01:24 PM 62.1°F16.7°C 54.8°F12.7°C 77% 5.1 mph N8.2 kmh N 7.0 mph11.3 kmh 29.96 in1014.6 mb 0.00 in0.0 mm 0.00 in0.0 mm 0.00 in0.0 mm
01:25 PM 62.1°F16.7°C 54.8°F12.7°C 77% 4.7 mph N7.6 kmh N 7.0 mph11.3 kmh 29.96 in1014.6 mb 0.00 in0.0 mm 0.00 in0.0 mm 0.00 in0.0 mm
01:26 PM 62.2°F16.8°C 54.5°F12.5°C 76% 6.7 mph N10.8 kmh N 8.0 mph12.9 kmh 29.96 in1014.6 mb 0.00 in0.0 mm 0.00 in0.0 mm 0.00 in0.0 mm
01:27 PM 62.1°F16.7°C 54.4°F12.4°C 76% 6.3 mph N10.1 kmh N 8.0 mph12.9 kmh 29.96 in1014.6 mb 0.00 in0.0 mm 0.00 in0.0 mm 0.00 in0.0 mm
01:28 PM 62.1°F16.7°C 54.1°F12.3°C 75% 5.0 mph N8.0 kmh N 8.0 mph12.9 kmh 29.96 in1014.6 mb 0.00 in0.0 mm 0.00 in0.0 mm 0.00 in0.0 mm
01:29 PM 62.2°F16.8°C 54.5°F12.5°C 76% 4.8 mph N7.7 kmh N 7.0 mph11.3 kmh 29.96 in1014.6 mb 0.00 in0.0 mm 0.00 in0.0 mm 0.00 in0.0 mm
01:30 PM 62.2°F16.8°C 54.5°F12.5°C 76% 4.9 mph NNE7.9 kmh NNE 7.0 mph11.3 kmh 29.96 in1014.6 mb 0.00 in0.0 mm 0.00 in0.0 mm 0.00 in0.0 mm
01:31 PM 62.2°F16.8°C 54.9°F12.7°C 77% 4.3 mph N6.9 kmh N 7.0 mph11.3 kmh 29.96 in1014.6 mb 0.00 in0.0 mm 0.00 in0.0 mm 0.00 in0.0 mm
01:32 PM 62.3°F16.8°C 55.0°F12.8°C 77% 4.2 mph N6.8 kmh N 7.0 mph11.3 kmh 29.96 in1014.6 mb 0.00 in0.0 mm 0.00 in0.0 mm 0.00 in0.0 mm
01:33 PM 62.4°F16.9°C 54.7°F12.6°C 76% 5.6 mph N9.0 kmh N 7.0 mph11.3 kmh 29.96 in1014.6 mb 0.00 in0.0 mm 0.00 in0.0 mm 0.00 in0.0 mm
01:34 PM 62.4°F16.9°C 54.4°F12.4°C 75% 4.2 mph N6.8 kmh N 7.0 mph11.3 kmh 29.96 in1014.6 mb 0.00 in0.0 mm 0.00 in0.0 mm 0.00 in0.0 mm
01:35 PM 62.4°F16.9°C 54.7°F12.6°C 76% 3.7 mph N6.0 kmh N 6.0 mph9.7 kmh 29.96 in1014.6 mb 0.00 in0.0 mm 0.00 in0.0 mm 0.00 in0.0 mm
01:36 PM 62.4°F16.9°C 55.1°F12.8°C 77% 5.2 mph N8.4 kmh N 8.0 mph12.9 kmh 29.96 in1014.6 mb 0.00 in0.0 mm 0.00 in0.0 mm 0.00 in0.0 mm
01:37 PM 62.4°F16.9°C 54.7°F12.6°C 76% 4.9 mph N7.9 kmh N 8.0 mph12.9 kmh 29.96 in1014.6 mb 0.00 in0.0 mm 0.00 in0.0 mm 0.00 in0.0 mm
01:38 PM 62.4°F16.9°C 55.1°F12.8°C 77% 4.7 mph N7.6 kmh N 7.0 mph11.3 kmh 29.96 in1014.6 mb 0.00 in0.0 mm 0.00 in0.0 mm 0.00 in0.0 mm
01:39 PM 62.4°F16.9°C 54.7°F12.6°C 76% 3.9 mph 6.3 kmh 7.0 mph11.3 kmh 29.96 in1014.6 mb 0.00 in0.0 mm 0.00 in0.0 mm 0.00 in0.0 mm
01:40 PM 62.4°F16.9°C 55.1°F12.8°C 77% 3.7 mph N6.0 kmh N 5.0 mph8.0 kmh 29.96 in1014.6 mb 0.00 in0.0 mm 0.00 in0.0 mm 0.00 in0.0 mm
01:41 PM 62.4°F16.9°C 55.1°F12.8°C 77% 3.6 mph N5.8 kmh N 5.0 mph8.0 kmh 29.96 in1014.6 mb 0.00 in0.0 mm 0.00 in0.0 mm 0.00 in0.0 mm
01:42 PM 62.3°F16.8°C 54.6°F12.6°C 76% 5.5 mph NNW8.9 kmh NNW 8.0 mph12.9 kmh 29.96 in1014.6 mb 0.00 in0.0 mm 0.00 in0.0 mm 0.00 in0.0 mm
01:43 PM 62.4°F16.9°C 55.1°F12.8°C 77% 5.0 mph NNW8.0 kmh NNW 8.0 mph12.9 kmh 29.96 in1014.6 mb 0.00 in0.0 mm 0.00 in0.0 mm 0.00 in0.0 mm
01:44 PM 62.4°F16.9°C 55.1°F12.8°C 77% 5.0 mph N8.0 kmh N 7.0 mph11.3 kmh 29.96 in1014.6 mb 0.00 in0.0 mm 0.00 in0.0 mm 0.00 in0.0 mm
01:45 PM 62.3°F16.8°C 54.6°F12.6°C 76% 4.3 mph N6.9 kmh N 7.0 mph11.3 kmh 29.96 in1014.6 mb 0.00 in0.0 mm 0.00 in0.0 mm 0.00 in0.0 mm
01:46 PM 62.4°F16.9°C 54.7°F12.6°C 76% 4.4 mph N7.1 kmh N 5.0 mph8.0 kmh 29.96 in1014.6 mb 0.00 in0.0 mm 0.00 in0.0 mm 0.00 in0.0 mm
01:47 PM 62.4°F16.9°C 54.7°F12.6°C 76% 4.5 mph N7.2 kmh N 6.0 mph9.7 kmh 29.96 in1014.6 mb 0.00 in0.0 mm 0.00 in0.0 mm 0.00 in0.0 mm
01:48 PM 62.4°F16.9°C 54.4°F12.4°C 75% 7.1 mph NNW11.4 kmh NNW 8.0 mph12.9 kmh 29.96 in1014.6 mb 0.00 in0.0 mm 0.00 in0.0 mm 0.00 in0.0 mm
01:49 PM 62.5°F16.9°C 54.8°F12.7°C 76% 6.2 mph NNW10.0 kmh NNW 9.0 mph14.5 kmh 29.96 in1014.6 mb 0.00 in0.0 mm 0.00 in0.0 mm 0.00 in0.0 mm
01:50 PM 62.5°F16.9°C 54.5°F12.5°C 75% 6.6 mph NNW10.6 kmh NNW 9.0 mph14.5 kmh 29.96 in1014.6 mb 0.00 in0.0 mm 0.00 in0.0 mm 0.00 in0.0 mm
01:51 PM 62.5°F16.9°C 54.8°F12.7°C 76% 8.1 mph NNW13.0 kmh NNW 9.0 mph14.5 kmh 29.96 in1014.6 mb 0.00 in0.0 mm 0.00 in0.0 mm 0.00 in0.0 mm
01:52 PM 62.5°F16.9°C 55.2°F12.9°C 77% 8.1 mph NNW13.0 kmh NNW 9.0 mph14.5 kmh 29.96 in1014.6 mb 0.00 in0.0 mm 0.00 in0.0 mm 0.00 in0.0 mm
01:53 PM 62.4°F16.9°C 55.1°F12.8°C 77% 8.8 mph NNW14.2 kmh NNW 10.0 mph16.1 kmh 29.96 in1014.6 mb 0.00 in0.0 mm 0.00 in0.0 mm 0.00 in0.0 mm
01:54 PM 62.2°F16.8°C 54.9°F12.7°C 77% 9.4 mph NW15.1 kmh NW 11.0 mph17.7 kmh 29.96 in1014.6 mb 0.00 in0.0 mm 0.00 in0.0 mm 0.00 in0.0 mm
01:55 PM 62.1°F16.7°C 54.8°F12.7°C 77% 9.1 mph NNW14.6 kmh NNW 11.0 mph17.7 kmh 29.96 in1014.6 mb 0.00 in0.0 mm 0.00 in0.0 mm 0.00 in0.0 mm
01:56 PM 62.0°F16.7°C 54.3°F12.4°C 76% 8.9 mph NNW14.3 kmh NNW 10.0 mph16.1 kmh 29.96 in1014.6 mb 0.00 in0.0 mm 0.00 in0.0 mm 0.00 in0.0 mm
01:57 PM 61.9°F16.6°C 54.2°F12.3°C 76% 8.5 mph NNW13.7 kmh NNW 10.0 mph16.1 kmh 29.96 in1014.6 mb 0.00 in0.0 mm 0.00 in0.0 mm 0.00 in0.0 mm
01:58 PM 61.8°F16.6°C 54.9°F12.7°C 78% 7.6 mph NNW12.2 kmh NNW 9.0 mph14.5 kmh 29.96 in1014.6 mb 0.00 in0.0 mm 0.00 in0.0 mm 0.00 in0.0 mm
01:59 PM 61.8°F16.6°C 54.9°F12.7°C 78% 6.8 mph NNW10.9 kmh NNW 9.0 mph14.5 kmh 29.96 in1014.6 mb 0.00 in0.0 mm 0.00 in0.0 mm 0.00 in0.0 mm
02:00 PM 61.8°F16.6°C 54.2°F12.3°C 76% 5.9 mph NW9.5 kmh NW 9.0 mph14.5 kmh 29.96 in1014.6 mb 0.00 in0.0 mm 0.00 in0.0 mm 0.00 in0.0 mm
02:01 PM 61.8°F16.6°C 54.5°F12.5°C 77% 6.2 mph NW10.0 kmh NW 8.0 mph12.9 kmh 29.96 in1014.6 mb 0.00 in0.0 mm 0.00 in0.0 mm 0.00 in0.0 mm
02:02 PM 61.8°F16.6°C 54.5°F12.5°C 77% 7.4 mph NNW11.9 kmh NNW 9.0 mph14.5 kmh 29.96 in1014.6 mb 0.00 in0.0 mm 0.00 in0.0 mm 0.00 in0.0 mm
02:03 PM 61.8°F16.6°C 54.9°F12.7°C 78% 6.8 mph N10.9 kmh N 9.0 mph14.5 kmh 29.96 in1014.6 mb 0.00 in0.0 mm 0.00 in0.0 mm 0.00 in0.0 mm
02:04 PM 61.8°F16.6°C 54.5°F12.5°C 77% 6.7 mph N10.8 kmh N 9.0 mph14.5 kmh 29.96 in1014.6 mb 0.00 in0.0 mm 0.00 in0.0 mm 0.00 in0.0 mm
02:05 PM 61.8°F16.6°C 54.9°F12.7°C 78% 6.2 mph NNW10.0 kmh NNW 8.0 mph12.9 kmh 29.96 in1014.6 mb 0.00 in0.0 mm 0.00 in0.0 mm 0.00 in0.0 mm
02:06 PM 61.9°F16.6°C 55.0°F12.8°C 78% 6.1 mph NNW9.8 kmh NNW 8.0 mph12.9 kmh 29.96 in1014.6 mb 0.00 in0.0 mm 0.00 in0.0 mm 0.00 in0.0 mm
02:07 PM 62.0°F16.7°C 55.1°F12.8°C 78% 6.8 mph NNW10.9 kmh NNW 9.0 mph14.5 kmh 29.96 in1014.6 mb 0.00 in0.0 mm 0.00 in0.0 mm 0.00 in0.0 mm
02:08 PM 62.0°F16.7°C 54.7°F12.6°C 77% 8.7 mph NNW14.0 kmh NNW 10.0 mph16.1 kmh 29.97 in1014.9 mb 0.00 in0.0 mm 0.00 in0.0 mm 0.00 in0.0 mm
02:09 PM 62.0°F16.7°C 54.7°F12.6°C 77% 8.9 mph NNW14.3 kmh NNW 10.0 mph16.1 kmh 29.97 in1014.9 mb 0.00 in0.0 mm 0.00 in0.0 mm 0.00 in0.0 mm
02:10 PM 62.0°F16.7°C 55.1°F12.8°C 78% 8.7 mph NW14.0 kmh NW 10.0 mph16.1 kmh 29.97 in1014.9 mb 0.00 in0.0 mm 0.00 in0.0 mm 0.00 in0.0 mm
02:11 PM 61.9°F16.6°C 55.3°F12.9°C 79% 9.1 mph NW14.6 kmh NW 10.0 mph16.1 kmh 29.97 in1014.9 mb 0.00 in0.0 mm 0.00 in0.0 mm 0.00 in0.0 mm
02:12 PM 61.8°F16.6°C 55.2°F12.9°C 79% 9.3 mph NW15.0 kmh NW 11.0 mph17.7 kmh 29.97 in1014.9 mb 0.00 in0.0 mm 0.00 in0.0 mm 0.00 in0.0 mm
02:13 PM 61.7°F16.5°C 55.1°F12.8°C 79% 9.5 mph NW15.3 kmh NW 11.0 mph17.7 kmh 29.97 in1014.9 mb 0.00 in0.0 mm 0.00 in0.0 mm 0.00 in0.0 mm
02:14 PM 61.5°F16.4°C 54.6°F12.6°C 78% 8.8 mph NW14.2 kmh NW 10.0 mph16.1 kmh 29.97 in1014.9 mb 0.00 in0.0 mm 0.00 in0.0 mm 0.00 in0.0 mm
02:15 PM 61.5°F16.4°C 54.9°F12.7°C 79% 8.2 mph NW13.2 kmh NW 10.0 mph16.1 kmh 29.97 in1014.9 mb 0.00 in0.0 mm 0.00 in0.0 mm 0.00 in0.0 mm
02:16 PM 61.5°F16.4°C 54.6°F12.6°C 78% 8.3 mph NW13.4 kmh NW 9.0 mph14.5 kmh 29.97 in1014.9 mb 0.00 in0.0 mm 0.00 in0.0 mm 0.00 in0.0 mm
02:17 PM 61.3°F16.3°C 54.7°F12.6°C 79% 7.3 mph NW11.7 kmh NW 9.0 mph14.5 kmh 29.97 in1014.9 mb 0.00 in0.0 mm 0.00 in0.0 mm 0.00 in0.0 mm
02:18 PM 61.4°F16.3°C 54.8°F12.7°C 79% 7.9 mph NW12.7 kmh NW 9.0 mph14.5 kmh 29.96 in1014.6 mb 0.00 in0.0 mm 0.00 in0.0 mm 0.00 in0.0 mm
02:19 PM 61.5°F16.4°C 54.9°F12.7°C 79% 6.7 mph N10.8 kmh N 9.0 mph14.5 kmh 29.96 in1014.6 mb 0.00 in0.0 mm 0.00 in0.0 mm 0.00 in0.0 mm
02:20 PM 61.5°F16.4°C 54.9°F12.7°C 79% 7.8 mph N12.6 kmh N 10.0 mph16.1 kmh 29.96 in1014.6 mb 0.00 in0.0 mm 0.00 in0.0 mm 0.00 in0.0 mm
02:21 PM 61.6°F16.4°C 54.7°F12.6°C 78% 5.8 mph N9.3 kmh N 10.0 mph16.1 kmh 29.97 in1014.9 mb 0.00 in0.0 mm 0.00 in0.0 mm 0.00 in0.0 mm
02:22 PM 61.8°F16.6°C 54.9°F12.7°C 78% 6.3 mph N10.1 kmh N 8.0 mph12.9 kmh 29.96 in1014.6 mb 0.00 in0.0 mm 0.00 in0.0 mm 0.00 in0.0 mm
02:23 PM 61.9°F16.6°C 55.0°F12.8°C 78% 7.0 mph N11.3 kmh N 9.0 mph14.5 kmh 29.96 in1014.6 mb 0.00 in0.0 mm 0.00 in0.0 mm 0.00 in0.0 mm
02:24 PM 62.0°F16.7°C 55.1°F12.8°C 78% 6.7 mph N10.8 kmh N 9.0 mph14.5 kmh 29.97 in1014.9 mb 0.00 in0.0 mm 0.00 in0.0 mm 0.00 in0.0 mm
02:25 PM 62.1°F16.7°C 54.4°F12.4°C 76% 9.6 mph N15.4 kmh N 11.0 mph17.7 kmh 29.97 in1014.9 mb 0.00 in0.0 mm 0.00 in0.0 mm 0.00 in0.0 mm
02:26 PM 62.1°F16.7°C 54.4°F12.4°C 76% 7.2 mph N11.6 kmh N 11.0 mph17.7 kmh 29.97 in1014.9 mb 0.00 in0.0 mm 0.00 in0.0 mm 0.00 in0.0 mm
02:27 PM 62.1°F16.7°C 54.4°F12.4°C 76% 7.6 mph N12.2 kmh N 9.0 mph14.5 kmh 29.97 in1014.9 mb 0.00 in0.0 mm 0.00 in0.0 mm 0.00 in0.0 mm
02:28 PM 62.2°F16.8°C 54.5°F12.5°C 76% 9.7 mph N15.6 kmh N 10.0 mph16.1 kmh 29.97 in1014.9 mb 0.00 in0.0 mm 0.00 in0.0 mm 0.00 in0.0 mm
02:29 PM 62.2°F16.8°C 54.2°F12.3°C 75% 8.8 mph NNE14.2 kmh NNE 10.0 mph16.1 kmh 29.97 in1014.9 mb 0.00 in0.0 mm 0.00 in0.0 mm 0.00 in0.0 mm
02:30 PM 62.3°F16.8°C 53.9°F12.2°C 74% 8.4 mph NNE13.5 kmh NNE 10.0 mph16.1 kmh 29.96 in1014.6 mb 0.00 in0.0 mm 0.00 in0.0 mm 0.00 in0.0 mm
02:31 PM 62.3°F16.8°C 53.9°F12.2°C 74% 8.1 mph NNE13.0 kmh NNE 10.0 mph16.1 kmh 29.96 in1014.6 mb 0.00 in0.0 mm 0.00 in0.0 mm 0.00 in0.0 mm
02:32 PM 62.3°F16.8°C 54.6°F12.6°C 76% 6.2 mph N10.0 kmh N 9.0 mph14.5 kmh 29.96 in1014.6 mb 0.00 in0.0 mm 0.00 in0.0 mm 0.00 in0.0 mm
02:33 PM 62.3°F16.8°C 55.0°F12.8°C 77% 5.4 mph N8.7 kmh N 9.0 mph14.5 kmh 29.96 in1014.6 mb 0.00 in0.0 mm 0.00 in0.0 mm 0.00 in0.0 mm
02:34 PM 62.4°F16.9°C 54.4°F12.4°C 75% 7.5 mph N12.1 kmh N 9.0 mph14.5 kmh 29.97 in1014.9 mb 0.00 in0.0 mm 0.00 in0.0 mm 0.00 in0.0 mm
02:35 PM 62.3°F16.8°C 53.5°F11.9°C 73% 7.4 mph N11.9 kmh N 9.0 mph14.5 kmh 29.97 in1014.9 mb 0.00 in0.0 mm 0.00 in0.0 mm 0.00 in0.0 mm
02:36 PM 62.4°F16.9°C 54.0°F12.2°C 74% 8.1 mph NNE13.0 kmh NNE 10.0 mph16.1 kmh 29.97 in1014.9 mb 0.00 in0.0 mm 0.00 in0.0 mm 0.00 in0.0 mm
02:37 PM 62.3°F16.8°C 53.9°F12.2°C 74% 8.1 mph NNE13.0 kmh NNE 10.0 mph16.1 kmh 29.97 in1014.9 mb 0.00 in0.0 mm 0.00 in0.0 mm 0.00 in0.0 mm
02:38 PM 62.4°F16.9°C 54.0°F12.2°C 74% 7.8 mph NNE12.6 kmh NNE 9.0 mph14.5 kmh 29.97 in1014.9 mb 0.00 in0.0 mm 0.00 in0.0 mm 0.00 in0.0 mm
02:39 PM 62.5°F16.9°C 53.7°F12.1°C 73% 7.5 mph NNE12.1 kmh NNE 9.0 mph14.5 kmh 29.97 in1014.9 mb 0.00 in0.0 mm 0.00 in0.0 mm 0.00 in0.0 mm
02:40 PM 62.5°F16.9°C 53.7°F12.1°C 73% 8.3 mph NNE13.4 kmh NNE 10.0 mph16.1 kmh 29.97 in1014.9 mb 0.00 in0.0 mm 0.00 in0.0 mm 0.00 in0.0 mm
02:41 PM 62.5°F16.9°C 53.7°F12.1°C 73% 7.2 mph N11.6 kmh N 10.0 mph16.1 kmh 29.97 in1014.9 mb 0.00 in0.0 mm 0.00 in0.0 mm 0.00 in0.0 mm
02:42 PM 62.6°F17.0°C 53.8°F12.1°C 73% 7.5 mph N12.1 kmh N 9.0 mph14.5 kmh 29.97 in1014.9 mb 0.00 in0.0 mm 0.00 in0.0 mm 0.00 in0.0 mm
02:43 PM 62.6°F17.0°C 54.2°F12.3°C 74% 5.5 mph NNE8.9 kmh NNE 9.0 mph14.5 kmh 29.96 in1014.6 mb 0.00 in0.0 mm 0.00 in0.0 mm 0.00 in0.0 mm
02:44 PM 62.8°F17.1°C 54.8°F12.7°C 75% 7.5 mph NNE12.1 kmh NNE 9.0 mph14.5 kmh 29.96 in1014.6 mb 0.00 in0.0 mm 0.00 in0.0 mm 0.00 in0.0 mm
02:45 PM 62.9°F17.2°C 54.5°F12.5°C 74% 5.4 mph NNE8.7 kmh NNE 9.0 mph14.5 kmh 29.96 in1014.6 mb 0.00 in0.0 mm 0.00 in0.0 mm 0.00 in0.0 mm
02:46 PM 63.0°F17.2°C 54.2°F12.3°C 73% 4.3 mph NNE6.9 kmh NNE 8.0 mph12.9 kmh 29.96 in1014.6 mb 0.00 in0.0 mm 0.00 in0.0 mm 0.00 in0.0 mm
02:47 PM 63.1°F17.3°C 54.3°F12.4°C 73% 4.0 mph NNE6.4 kmh NNE 5.0 mph8.0 kmh 29.96 in1014.6 mb 0.00 in0.0 mm 0.00 in0.0 mm 0.00 in0.0 mm
02:48 PM 63.3°F17.4°C 54.9°F12.7°C 74% 4.9 mph NNE7.9 kmh NNE 7.0 mph11.3 kmh 29.96 in1014.6 mb 0.00 in0.0 mm 0.00 in0.0 mm 0.00 in0.0 mm
02:49 PM 63.4°F17.4°C 54.2°F12.3°C 72% 6.6 mph NNE10.6 kmh NNE 8.0 mph12.9 kmh 29.96 in1014.6 mb 0.00 in0.0 mm 0.00 in0.0 mm 0.00 in0.0 mm
02:50 PM 63.6°F17.6°C 54.4°F12.4°C 72% 7.9 mph N12.7 kmh N 10.0 mph16.1 kmh 29.96 in1014.6 mb 0.00 in0.0 mm 0.00 in0.0 mm 0.00 in0.0 mm
02:51 PM 63.6°F17.6°C 54.0°F12.2°C 71% 8.1 mph N13.0 kmh N 10.0 mph16.1 kmh 29.96 in1014.6 mb 0.00 in0.0 mm 0.00 in0.0 mm 0.00 in0.0 mm
02:52 PM 63.7°F17.6°C 54.1°F12.3°C 71% 8.1 mph N13.0 kmh N 10.0 mph16.1 kmh 29.96 in1014.6 mb 0.00 in0.0 mm 0.00 in0.0 mm 0.00 in0.0 mm
02:53 PM 63.7°F17.6°C 54.1°F12.3°C 71% 7.8 mph N12.6 kmh N 10.0 mph16.1 kmh 29.96 in1014.6 mb 0.00 in0.0 mm 0.00 in0.0 mm 0.00 in0.0 mm
02:54 PM 63.7°F17.6°C 54.5°F12.5°C 72% 6.4 mph NNE10.3 kmh NNE 9.0 mph14.5 kmh 29.96 in1014.6 mb 0.00 in0.0 mm 0.00 in0.0 mm 0.00 in0.0 mm
02:55 PM 63.8°F17.7°C 54.6°F12.6°C 72% 6.6 mph NNE10.6 kmh NNE 8.0 mph12.9 kmh 29.96 in1014.6 mb 0.00 in0.0 mm 0.00 in0.0 mm 0.00 in0.0 mm
02:56 PM 63.8°F17.7°C 53.8°F12.1°C 70% 5.3 mph NNE8.5 kmh NNE 8.0 mph12.9 kmh 29.96 in1014.6 mb 0.00 in0.0 mm 0.00 in0.0 mm 0.00 in0.0 mm
02:57 PM 63.9°F17.7°C 54.3°F12.4°C 71% 6.8 mph NNE10.9 kmh NNE 9.0 mph14.5 kmh 29.96 in1014.6 mb 0.00 in0.0 mm 0.00 in0.0 mm 0.00 in0.0 mm
02:58 PM 63.8°F17.7°C 54.6°F12.6°C 72% 6.1 mph NNE9.8 kmh NNE 9.0 mph14.5 kmh 29.96 in1014.6 mb 0.00 in0.0 mm 0.00 in0.0 mm 0.00 in0.0 mm
02:59 PM 63.9°F17.7°C 54.3°F12.4°C 71% 5.3 mph NNE8.5 kmh NNE 7.0 mph11.3 kmh 29.96 in1014.6 mb 0.00 in0.0 mm 0.00 in0.0 mm 0.00 in0.0 mm
03:00 PM 63.9°F17.7°C 54.3°F12.4°C 71% 5.6 mph N9.0 kmh N 8.0 mph12.9 kmh 29.96 in1014.6 mb 0.00 in0.0 mm 0.00 in0.0 mm 0.00 in0.0 mm
03:01 PM 63.9°F17.7°C 54.3°F12.4°C 71% 4.4 mph N7.1 kmh N 8.0 mph12.9 kmh 29.96 in1014.6 mb 0.00 in0.0 mm 0.00 in0.0 mm 0.00 in0.0 mm
03:02 PM 63.9°F17.7°C 54.3°F12.4°C 71% 5.5 mph N8.9 kmh N 7.0 mph11.3 kmh 29.96 in1014.6 mb 0.00 in0.0 mm 0.00 in0.0 mm 0.00 in0.0 mm
03:03 PM 63.9°F17.7°C 54.7°F12.6°C 72% 6.1 mph NNE9.8 kmh NNE 8.0 mph12.9 kmh 29.96 in1014.6 mb 0.00 in0.0 mm 0.00 in0.0 mm 0.00 in0.0 mm
03:04 PM 64.0°F17.8°C 54.4°F12.4°C 71% 6.8 mph N10.9 kmh N 9.0 mph14.5 kmh 29.96 in1014.6 mb 0.00 in0.0 mm 0.00 in0.0 mm 0.00 in0.0 mm
03:05 PM 64.0°F17.8°C 54.4°F12.4°C 71% 5.8 mph N9.3 kmh N 9.0 mph14.5 kmh 29.96 in1014.6 mb 0.00 in0.0 mm 0.00 in0.0 mm 0.00 in0.0 mm
03:06 PM 64.0°F17.8°C 54.0°F12.2°C 70% 5.8 mph N9.3 kmh N 8.0 mph12.9 kmh 29.96 in1014.6 mb 0.00 in0.0 mm 0.00 in0.0 mm 0.00 in0.0 mm
03:07 PM 64.0°F17.8°C 54.0°F12.2°C 70% 4.9 mph N7.9 kmh N 7.0 mph11.3 kmh 29.96 in1014.6 mb 0.00 in0.0 mm 0.00 in0.0 mm 0.00 in0.0 mm
03:08 PM 64.1°F17.8°C 54.5°F12.5°C 71% 4.4 mph N7.1 kmh N 7.0 mph11.3 kmh 29.97 in1014.9 mb 0.00 in0.0 mm 0.00 in0.0 mm 0.00 in0.0 mm
03:09 PM 64.1°F17.8°C 54.9°F12.7°C 72% 5.7 mph N9.2 kmh N 8.0 mph12.9 kmh 29.97 in1014.9 mb 0.00 in0.0 mm 0.00 in0.0 mm 0.00 in0.0 mm
03:10 PM 64.1°F17.8°C 54.1°F12.3°C 70% 7.4 mph N11.9 kmh N 9.0 mph14.5 kmh 29.97 in1014.9 mb 0.00 in0.0 mm 0.00 in0.0 mm 0.00 in0.0 mm
03:11 PM 64.1°F17.8°C 54.1°F12.3°C 70% 6.2 mph N10.0 kmh N 9.0 mph14.5 kmh 29.97 in1014.9 mb 0.00 in0.0 mm 0.00 in0.0 mm 0.00 in0.0 mm
03:12 PM 64.1°F17.8°C 53.7°F12.1°C 69% 5.8 mph N9.3 kmh N 8.0 mph12.9 kmh 29.97 in1014.9 mb 0.00 in0.0 mm 0.00 in0.0 mm 0.00 in0.0 mm
03:13 PM 64.1°F17.8°C 54.5°F12.5°C 71% 6.8 mph NNE10.9 kmh NNE 8.0 mph12.9 kmh 29.96 in1014.6 mb 0.00 in0.0 mm 0.00 in0.0 mm 0.00 in0.0 mm
03:14 PM 64.2°F17.9°C 54.2°F12.3°C 70% 5.4 mph N8.7 kmh N 8.0 mph12.9 kmh 29.97 in1014.9 mb 0.00 in0.0 mm 0.00 in0.0 mm 0.00 in0.0 mm
03:15 PM 64.3°F17.9°C 54.7°F12.6°C 71% 5.7 mph N9.2 kmh N 7.0 mph11.3 kmh 29.96 in1014.6 mb 0.00 in0.0 mm 0.00 in0.0 mm 0.00 in0.0 mm
03:16 PM 64.3°F17.9°C 54.7°F12.6°C 71% 5.3 mph N8.5 kmh N 7.0 mph11.3 kmh 29.96 in1014.6 mb 0.00 in0.0 mm 0.00 in0.0 mm 0.00 in0.0 mm
03:17 PM 64.3°F17.9°C 54.7°F12.6°C 71% 6.2 mph 10.0 kmh 9.0 mph14.5 kmh 29.96 in1014.6 mb 0.00 in0.0 mm 0.00 in0.0 mm 0.00 in0.0 mm
03:18 PM 64.3°F17.9°C 54.7°F12.6°C 71% 7.5 mph N12.1 kmh N 9.0 mph14.5 kmh 29.96 in1014.6 mb 0.00 in0.0 mm 0.00 in0.0 mm 0.00 in0.0 mm
03:19 PM 64.3°F17.9°C 54.7°F12.6°C 71% 8.8 mph N14.2 kmh N 11.0 mph17.7 kmh 29.96 in1014.6 mb 0.00 in0.0 mm 0.00 in0.0 mm 0.00 in0.0 mm
03:20 PM 64.1°F17.8°C 54.9°F12.7°C 72% 8.2 mph NNE13.2 kmh NNE 11.0 mph17.7 kmh 29.96 in1014.6 mb 0.00 in0.0 mm 0.00 in0.0 mm 0.00 in0.0 mm
03:21 PM 64.0°F17.8°C 55.5°F13.1°C 74% 10.2 mph NNE16.4 kmh NNE 12.0 mph19.3 kmh 29.96 in1014.6 mb 0.00 in0.0 mm 0.00 in0.0 mm 0.00 in0.0 mm
03:22 PM 63.8°F17.7°C 55.3°F12.9°C 74% 10.8 mph NNE17.4 kmh NNE 12.0 mph19.3 kmh 29.96 in1014.6 mb 0.00 in0.0 mm 0.00 in0.0 mm 0.00 in0.0 mm
03:23 PM 63.7°F17.6°C 55.3°F12.9°C 74% 9.2 mph NNE14.8 kmh NNE 12.0 mph19.3 kmh 29.96 in1014.6 mb 0.00 in0.0 mm 0.00 in0.0 mm 0.00 in0.0 mm
03:24 PM 63.6°F17.6°C 55.5°F13.1°C 75% 8.0 mph NNE12.9 kmh NNE 11.0 mph17.7 kmh 29.97 in1014.9 mb 0.00 in0.0 mm 0.00 in0.0 mm 0.00 in0.0 mm
03:25 PM 63.5°F17.5°C 55.4°F13.0°C 75% 9.5 mph NNE15.3 kmh NNE 12.0 mph19.3 kmh 29.97 in1014.9 mb 0.00 in0.0 mm 0.00 in0.0 mm 0.00 in0.0 mm
03:26 PM 63.4°F17.4°C 54.6°F12.6°C 73% 9.2 mph NNE14.8 kmh NNE 12.0 mph19.3 kmh 29.97 in1014.9 mb 0.00 in0.0 mm 0.00 in0.0 mm 0.00 in0.0 mm
03:27 PM 63.3°F17.4°C 55.2°F12.9°C 75% 7.6 mph NNE12.2 kmh NNE 10.0 mph16.1 kmh 29.97 in1014.9 mb 0.00 in0.0 mm 0.00 in0.0 mm 0.00 in0.0 mm
03:28 PM 63.2°F17.3°C 54.8°F12.7°C 74% 9.3 mph NNE15.0 kmh NNE 10.0 mph16.1 kmh 29.97 in1014.9 mb 0.00 in0.0 mm 0.00 in0.0 mm 0.00 in0.0 mm
03:29 PM 63.1°F17.3°C 54.7°F12.6°C 74% 8.6 mph NNE13.8 kmh NNE 10.0 mph16.1 kmh 29.97 in1014.9 mb 0.00 in0.0 mm 0.00 in0.0 mm 0.00 in0.0 mm
03:30 PM 63.0°F17.2°C 54.9°F12.7°C 75% 8.8 mph NNE14.2 kmh NNE 10.0 mph16.1 kmh 29.97 in1014.9 mb 0.00 in0.0 mm 0.00 in0.0 mm 0.00 in0.0 mm
03:31 PM 62.9°F17.2°C 54.8°F12.7°C 75% 6.4 mph NNE10.3 kmh NNE 10.0 mph16.1 kmh 29.97 in1014.9 mb 0.00 in0.0 mm 0.00 in0.0 mm 0.00 in0.0 mm
03:32 PM 63.0°F17.2°C 54.9°F12.7°C 75% 6.1 mph NE9.8 kmh NE 9.0 mph14.5 kmh 29.97 in1014.9 mb 0.00 in0.0 mm 0.00 in0.0 mm 0.00 in0.0 mm
03:33 PM 62.9°F17.2°C 54.8°F12.7°C 75% 6.9 mph NE11.1 kmh NE 8.0 mph12.9 kmh 29.97 in1014.9 mb 0.00 in0.0 mm 0.00 in0.0 mm 0.00 in0.0 mm
03:34 PM 63.0°F17.2°C 54.2°F12.3°C 73% 6.6 mph NE10.6 kmh NE 8.0 mph12.9 kmh 29.97 in1014.9 mb 0.00 in0.0 mm 0.00 in0.0 mm 0.00 in0.0 mm
03:35 PM 63.0°F17.2°C 54.6°F12.6°C 74% 6.5 mph NNE10.5 kmh NNE 8.0 mph12.9 kmh 29.97 in1014.9 mb 0.00 in0.0 mm 0.00 in0.0 mm 0.00 in0.0 mm
03:36 PM 63.0°F17.2°C 54.6°F12.6°C 74% 7.0 mph NNE11.3 kmh NNE 8.0 mph12.9 kmh 29.97 in1014.9 mb 0.00 in0.0 mm 0.00 in0.0 mm 0.00 in0.0 mm
03:37 PM 63.1°F17.3°C 55.0°F12.8°C 75% 6.2 mph NNE10.0 kmh NNE 9.0 mph14.5 kmh 29.97 in1014.9 mb 0.00 in0.0 mm 0.00 in0.0 mm 0.00 in0.0 mm
03:38 PM 63.3°F17.4°C 55.2°F12.9°C 75% 8.3 mph NNE13.4 kmh NNE 10.0 mph16.1 kmh 29.97 in1014.9 mb 0.00 in0.0 mm 0.00 in0.0 mm 0.00 in0.0 mm
03:39 PM 63.3°F17.4°C 54.9°F12.7°C 74% 9.5 mph NNE15.3 kmh NNE 11.0 mph17.7 kmh 29.97 in1014.9 mb 0.00 in0.0 mm 0.00 in0.0 mm 0.00 in0.0 mm
03:40 PM 63.4°F17.4°C 55.0°F12.8°C 74% 9.1 mph N14.6 kmh N 11.0 mph17.7 kmh 29.97 in1014.9 mb 0.00 in0.0 mm 0.00 in0.0 mm 0.00 in0.0 mm
03:41 PM 63.4°F17.4°C 54.6°F12.6°C 73% 9.9 mph N15.9 kmh N 11.0 mph17.7 kmh 29.97 in1014.9 mb 0.00 in0.0 mm 0.00 in0.0 mm 0.00 in0.0 mm
03:42 PM 63.4°F17.4°C 54.6°F12.6°C 73% 9.9 mph N15.9 kmh N 12.0 mph19.3 kmh 29.97 in1014.9 mb 0.00 in0.0 mm 0.00 in0.0 mm 0.00 in0.0 mm
03:43 PM 63.3°F17.4°C 53.7°F12.1°C 71% 7.3 mph N11.7 kmh N 12.0 mph19.3 kmh 29.97 in1014.9 mb 0.00 in0.0 mm 0.00 in0.0 mm 0.00 in0.0 mm
03:44 PM 63.3°F17.4°C 54.5°F12.5°C 73% 7.6 mph N12.2 kmh N 10.0 mph16.1 kmh 29.97 in1014.9 mb 0.00 in0.0 mm 0.00 in0.0 mm 0.00 in0.0 mm
03:45 PM 63.3°F17.4°C 54.5°F12.5°C 73% 7.3 mph N11.7 kmh N 10.0 mph16.1 kmh 29.97 in1014.9 mb 0.00 in0.0 mm 0.00 in0.0 mm 0.00 in0.0 mm
03:46 PM 63.4°F17.4°C 54.2°F12.3°C 72% 7.2 mph N11.6 kmh N 10.0 mph16.1 kmh 29.97 in1014.9 mb 0.00 in0.0 mm 0.00 in0.0 mm 0.00 in0.0 mm
03:47 PM 63.3°F17.4°C 54.1°F12.3°C 72% 7.3 mph N11.7 kmh N 10.0 mph16.1 kmh 29.97 in1014.9 mb 0.00 in0.0 mm 0.00 in0.0 mm 0.00 in0.0 mm
03:48 PM 63.3°F17.4°C 54.1°F12.3°C 72% 9.5 mph N15.3 kmh N 11.0 mph17.7 kmh 29.97 in1014.9 mb 0.00 in0.0 mm 0.00 in0.0 mm 0.00 in0.0 mm
03:49 PM 63.3°F17.4°C 54.1°F12.3°C 72% 8.8 mph N14.2 kmh N 11.0 mph17.7 kmh 29.97 in1014.9 mb 0.00 in0.0 mm 0.00 in0.0 mm 0.00 in0.0 mm
03:50 PM 63.4°F17.4°C 54.2°F12.3°C 72% 7.8 mph NNE12.6 kmh NNE 10.0 mph16.1 kmh 29.97 in1014.9 mb 0.00 in0.0 mm 0.00 in0.0 mm 0.00 in0.0 mm
03:51 PM 63.4°F17.4°C 53.8°F12.1°C 71% 6.7 mph N10.8 kmh N 9.0 mph14.5 kmh 29.97 in1014.9 mb 0.00 in0.0 mm 0.00 in0.0 mm 0.00 in0.0 mm
03:52 PM 63.4°F17.4°C 54.2°F12.3°C 72% 8.0 mph NNE12.9 kmh NNE 9.0 mph14.5 kmh 29.97 in1014.9 mb 0.00 in0.0 mm 0.00 in0.0 mm 0.00 in0.0 mm
03:53 PM 63.4°F17.4°C 54.6°F12.6°C 73% 5.6 mph N9.0 kmh N 9.0 mph14.5 kmh 29.97 in1014.9 mb 0.00 in0.0 mm 0.00 in0.0 mm 0.00 in0.0 mm
03:54 PM 63.5°F17.5°C 54.7°F12.6°C 73% 6.8 mph NNE10.9 kmh NNE 9.0 mph14.5 kmh 29.97 in1014.9 mb 0.00 in0.0 mm 0.00 in0.0 mm 0.00 in0.0 mm
03:55 PM 63.4°F17.4°C 53.8°F12.1°C 71% 6.5 mph N10.5 kmh N 9.0 mph14.5 kmh 29.98 in1015.2 mb 0.00 in0.0 mm 0.00 in0.0 mm 0.00 in0.0 mm
03:56 PM 63.5°F17.5°C 53.5°F11.9°C 70% 5.6 mph N9.0 kmh N 9.0 mph14.5 kmh 29.98 in1015.2 mb 0.00 in0.0 mm 0.00 in0.0 mm 0.00 in0.0 mm
03:57 PM 63.6°F17.6°C 54.4°F12.4°C 72% 5.0 mph N8.0 kmh N 7.0 mph11.3 kmh 29.98 in1015.2 mb 0.00 in0.0 mm 0.00 in0.0 mm 0.00 in0.0 mm
03:58 PM 63.6°F17.6°C 54.0°F12.2°C 71% 5.6 mph N9.0 kmh N 7.0 mph11.3 kmh 29.98 in1015.2 mb 0.00 in0.0 mm 0.00 in0.0 mm 0.00 in0.0 mm
03:59 PM 63.6°F17.6°C 54.4°F12.4°C 72% 4.5 mph N7.2 kmh N 7.0 mph11.3 kmh 29.98 in1015.2 mb 0.00 in0.0 mm 0.00 in0.0 mm 0.00 in0.0 mm
04:00 PM 63.7°F17.6°C 54.1°F12.3°C 71% 5.3 mph N8.5 kmh N 7.0 mph11.3 kmh 29.98 in1015.2 mb 0.00 in0.0 mm 0.00 in0.0 mm 0.00 in0.0 mm
04:01 PM 63.8°F17.7°C 54.6°F12.6°C 72% 3.9 mph N6.3 kmh N 7.0 mph11.3 kmh 29.98 in1015.2 mb 0.00 in0.0 mm 0.00 in0.0 mm 0.00 in0.0 mm
04:02 PM 63.8°F17.7°C 54.2°F12.3°C 71% 5.7 mph N9.2 kmh N 8.0 mph12.9 kmh 29.98 in1015.2 mb 0.00 in0.0 mm 0.00 in0.0 mm 0.00 in0.0 mm
04:03 PM 63.8°F17.7°C 54.2°F12.3°C 71% 4.4 mph N7.1 kmh N 8.0 mph12.9 kmh 29.98 in1015.2 mb 0.00 in0.0 mm 0.00 in0.0 mm 0.00 in0.0 mm
04:04 PM 63.8°F17.7°C 54.2°F12.3°C 71% 5.0 mph N8.0 kmh N 7.0 mph11.3 kmh 29.98 in1015.2 mb 0.00 in0.0 mm 0.00 in0.0 mm 0.00 in0.0 mm
04:05 PM 63.8°F17.7°C 54.6°F12.6°C 72% 7.0 mph N11.3 kmh N 9.0 mph14.5 kmh 29.97 in1014.9 mb 0.00 in0.0 mm 0.00 in0.0 mm 0.00 in0.0 mm
04:06 PM 63.8°F17.7°C 54.2°F12.3°C 71% 6.6 mph N10.6 kmh N 9.0 mph14.5 kmh 29.98 in1015.2 mb 0.00 in0.0 mm 0.00 in0.0 mm 0.00 in0.0 mm
04:07 PM 63.8°F17.7°C 54.6°F12.6°C 72% 6.3 mph N10.1 kmh N 9.0 mph14.5 kmh 29.98 in1015.2 mb 0.00 in0.0 mm 0.00 in0.0 mm 0.00 in0.0 mm
04:08 PM 63.7°F17.6°C 54.1°F12.3°C 71% 5.6 mph N9.0 kmh N 8.0 mph12.9 kmh 29.98 in1015.2 mb 0.00 in0.0 mm 0.00 in0.0 mm 0.00 in0.0 mm
04:09 PM 63.7°F17.6°C 54.1°F12.3°C 71% 5.4 mph N8.7 kmh N 8.0 mph12.9 kmh 29.98 in1015.2 mb 0.00 in0.0 mm 0.00 in0.0 mm 0.00 in0.0 mm
04:10 PM 63.7°F17.6°C 54.5°F12.5°C 72% 6.4 mph N10.3 kmh N 9.0 mph14.5 kmh 29.98 in1015.2 mb 0.00 in0.0 mm 0.00 in0.0 mm 0.00 in0.0 mm
04:11 PM 63.7°F17.6°C 54.5°F12.5°C 72% 8.1 mph N13.0 kmh N 9.0 mph14.5 kmh 29.98 in1015.2 mb 0.00 in0.0 mm 0.00 in0.0 mm 0.00 in0.0 mm
04:12 PM 63.7°F17.6°C 54.5°F12.5°C 72% 6.9 mph N11.1 kmh N 9.0 mph14.5 kmh 29.98 in1015.2 mb 0.00 in0.0 mm 0.00 in0.0 mm 0.00 in0.0 mm
04:13 PM 63.7°F17.6°C 54.5°F12.5°C 72% 6.7 mph N10.8 kmh N 10.0 mph16.1 kmh 29.98 in1015.2 mb 0.00 in0.0 mm 0.00 in0.0 mm 0.00 in0.0 mm
04:14 PM 63.8°F17.7°C 54.6°F12.6°C 72% 8.4 mph N13.5 kmh N 10.0 mph16.1 kmh 29.98 in1015.2 mb 0.00 in0.0 mm 0.00 in0.0 mm 0.00 in0.0 mm
04:15 PM 63.6°F17.6°C 55.2°F12.9°C 74% 6.7 mph N10.8 kmh N 10.0 mph16.1 kmh 29.98 in1015.2 mb 0.00 in0.0 mm 0.00 in0.0 mm 0.00 in0.0 mm
04:16 PM 63.6°F17.6°C 55.2°F12.9°C 74% 9.7 mph N15.6 kmh N 11.0 mph17.7 kmh 29.98 in1015.2 mb 0.00 in0.0 mm 0.00 in0.0 mm 0.00 in0.0 mm
04:17 PM 63.6°F17.6°C 54.8°F12.7°C 73% 9.4 mph N15.1 kmh N 11.0 mph17.7 kmh 29.98 in1015.2 mb 0.00 in0.0 mm 0.00 in0.0 mm 0.00 in0.0 mm
04:18 PM 63.6°F17.6°C 54.0°F12.2°C 71% 8.5 mph N13.7 kmh N 11.0 mph17.7 kmh 29.98 in1015.2 mb 0.00 in0.0 mm 0.00 in0.0 mm 0.00 in0.0 mm
04:19 PM 63.6°F17.6°C 54.4°F12.4°C 72% 7.8 mph N12.6 kmh N 9.0 mph14.5 kmh 29.98 in1015.2 mb 0.00 in0.0 mm 0.00 in0.0 mm 0.00 in0.0 mm
04:20 PM 63.6°F17.6°C 54.8°F12.7°C 73% 7.3 mph N11.7 kmh N 10.0 mph16.1 kmh 29.98 in1015.2 mb 0.00 in0.0 mm 0.00 in0.0 mm 0.00 in0.0 mm
04:21 PM 63.5°F17.5°C 54.7°F12.6°C 73% 7.5 mph N12.1 kmh N 10.0 mph16.1 kmh 29.98 in1015.2 mb 0.00 in0.0 mm 0.00 in0.0 mm 0.00 in0.0 mm
04:22 PM 63.5°F17.5°C 54.7°F12.6°C 73% 6.7 mph N10.8 kmh N 10.0 mph16.1 kmh 29.98 in1015.2 mb 0.00 in0.0 mm 0.00 in0.0 mm 0.00 in0.0 mm
04:23 PM 63.5°F17.5°C 54.7°F12.6°C 73% 6.3 mph N10.1 kmh N 9.0 mph14.5 kmh 29.98 in1015.2 mb 0.00 in0.0 mm 0.00 in0.0 mm 0.00 in0.0 mm
04:24 PM 63.6°F17.6°C 54.4°F12.4°C 72% 7.7 mph N12.4 kmh N 9.0 mph14.5 kmh 29.98 in1015.2 mb 0.00 in0.0 mm 0.00 in0.0 mm 0.00 in0.0 mm
04:25 PM 63.6°F17.6°C 54.4°F12.4°C 72% 7.2 mph N11.6 kmh N 9.0 mph14.5 kmh 29.98 in1015.2 mb 0.00 in0.0 mm 0.00 in0.0 mm 0.00 in0.0 mm
04:26 PM 63.6°F17.6°C 55.2°F12.9°C 74% 5.5 mph N8.9 kmh N 9.0 mph14.5 kmh 29.98 in1015.2 mb 0.00 in0.0 mm 0.00 in0.0 mm 0.00 in0.0 mm
04:27 PM 63.6°F17.6°C 54.8°F12.7°C 73% 5.5 mph N8.9 kmh N 8.0 mph12.9 kmh 29.98 in1015.2 mb 0.00 in0.0 mm 0.00 in0.0 mm 0.00 in0.0 mm
04:28 PM 63.6°F17.6°C 54.8°F12.7°C 73% 6.5 mph N10.5 kmh N 9.0 mph14.5 kmh 29.98 in1015.2 mb 0.00 in0.0 mm 0.00 in0.0 mm 0.00 in0.0 mm
04:29 PM 63.6°F17.6°C 54.4°F12.4°C 72% 6.3 mph N10.1 kmh N 9.0 mph14.5 kmh 29.98 in1015.2 mb 0.00 in0.0 mm 0.00 in0.0 mm 0.00 in0.0 mm
04:30 PM 63.6°F17.6°C 54.4°F12.4°C 72% 6.7 mph N10.8 kmh N 9.0 mph14.5 kmh 29.98 in1015.2 mb 0.00 in0.0 mm 0.00 in0.0 mm 0.00 in0.0 mm
04:31 PM 63.6°F17.6°C 54.8°F12.7°C 73% 9.8 mph N15.8 kmh N 11.0 mph17.7 kmh 29.98 in1015.2 mb 0.00 in0.0 mm 0.00 in0.0 mm 0.00 in0.0 mm
04:32 PM 63.6°F17.6°C 55.2°F12.9°C 74% 10.3 mph NNW16.6 kmh NNW 12.0 mph19.3 kmh 29.98 in1015.2 mb 0.00 in0.0 mm 0.00 in0.0 mm 0.00 in0.0 mm
04:33 PM 63.5°F17.5°C 55.4°F13.0°C 75% 10.2 mph NNW16.4 kmh NNW 12.0 mph19.3 kmh 29.98 in1015.2 mb 0.00 in0.0 mm 0.00 in0.0 mm 0.00 in0.0 mm
04:34 PM 63.5°F17.5°C 55.1°F12.8°C 74% 9.9 mph NNW15.9 kmh NNW 12.0 mph19.3 kmh 29.98 in1015.2 mb 0.00 in0.0 mm 0.00 in0.0 mm 0.00 in0.0 mm
04:35 PM 63.4°F17.4°C 55.7°F13.2°C 76% 9.9 mph NNW15.9 kmh NNW 13.0 mph20.9 kmh 29.98 in1015.2 mb 0.00 in0.0 mm 0.00 in0.0 mm 0.00 in0.0 mm
04:36 PM 63.4°F17.4°C 55.3°F12.9°C 75% 11.3 mph NNW18.2 kmh NNW 13.0 mph20.9 kmh 29.98 in1015.2 mb 0.00 in0.0 mm 0.00 in0.0 mm 0.00 in0.0 mm
04:37 PM 63.4°F17.4°C 55.7°F13.2°C 76% 10.2 mph NNW16.4 kmh NNW 13.0 mph20.9 kmh 29.98 in1015.2 mb 0.00 in0.0 mm 0.00 in0.0 mm 0.00 in0.0 mm
04:38 PM 63.3°F17.4°C 55.2°F12.9°C 75% 12.1 mph NNW19.5 kmh NNW 14.0 mph22.5 kmh 29.98 in1015.2 mb 0.00 in0.0 mm 0.00 in0.0 mm 0.00 in0.0 mm
04:39 PM 63.2°F17.3°C 55.5°F13.1°C 76% 10.7 mph N17.2 kmh N 15.0 mph24.1 kmh 29.98 in1015.2 mb 0.00 in0.0 mm 0.00 in0.0 mm 0.00 in0.0 mm
04:40 PM 63.2°F17.3°C 55.1°F12.8°C 75% 8.2 mph N13.2 kmh N 15.0 mph24.1 kmh 29.98 in1015.2 mb 0.00 in0.0 mm 0.00 in0.0 mm 0.00 in0.0 mm
04:41 PM 63.2°F17.3°C 55.1°F12.8°C 75% 9.3 mph NNW15.0 kmh NNW 11.0 mph17.7 kmh 29.98 in1015.2 mb 0.00 in0.0 mm 0.00 in0.0 mm 0.00 in0.0 mm
04:42 PM 63.2°F17.3°C 55.9°F13.3°C 77% 11.1 mph NNW17.9 kmh NNW 12.0 mph19.3 kmh 29.98 in1015.2 mb 0.00 in0.0 mm 0.00 in0.0 mm 0.00 in0.0 mm
04:43 PM 63.2°F17.3°C 55.1°F12.8°C 75% 10.7 mph NNW17.2 kmh NNW 12.0 mph19.3 kmh 29.98 in1015.2 mb 0.00 in0.0 mm 0.00 in0.0 mm 0.00 in0.0 mm
04:44 PM 63.2°F17.3°C 54.4°F12.4°C 73% 8.6 mph NNW13.8 kmh NNW 12.0 mph19.3 kmh 29.98 in1015.2 mb 0.00 in0.0 mm 0.00 in0.0 mm 0.00 in0.0 mm
04:45 PM 63.2°F17.3°C 54.4°F12.4°C 73% 6.0 mph N9.7 kmh N 11.0 mph17.7 kmh 29.98 in1015.2 mb 0.00 in0.0 mm 0.00 in0.0 mm 0.00 in0.0 mm
04:46 PM 63.2°F17.3°C 54.4°F12.4°C 73% 7.3 mph NNW11.7 kmh NNW 10.0 mph16.1 kmh 29.98 in1015.2 mb 0.00 in0.0 mm 0.00 in0.0 mm 0.00 in0.0 mm
04:47 PM 63.3°F17.4°C 55.2°F12.9°C 75% 10.0 mph NNW16.1 kmh NNW 11.0 mph17.7 kmh 29.98 in1015.2 mb 0.00 in0.0 mm 0.00 in0.0 mm 0.00 in0.0 mm
04:48 PM 63.3°F17.4°C 55.6°F13.1°C 76% 11.7 mph NNW18.8 kmh NNW 13.0 mph20.9 kmh 29.98 in1015.2 mb 0.00 in0.0 mm 0.00 in0.0 mm 0.00 in0.0 mm
04:49 PM 63.2°F17.3°C 54.4°F12.4°C 73% 11.3 mph NNW18.2 kmh NNW 13.0 mph20.9 kmh 29.98 in1015.2 mb 0.00 in0.0 mm 0.00 in0.0 mm 0.00 in0.0 mm
04:50 PM 63.2°F17.3°C 54.8°F12.7°C 74% 9.8 mph NNW15.8 kmh NNW 12.0 mph19.3 kmh 29.98 in1015.2 mb 0.00 in0.0 mm 0.00 in0.0 mm 0.00 in0.0 mm
04:51 PM 63.2°F17.3°C 55.1°F12.8°C 75% 9.5 mph NNW15.3 kmh NNW 11.0 mph17.7 kmh 29.98 in1015.2 mb 0.00 in0.0 mm 0.00 in0.0 mm 0.00 in0.0 mm
04:52 PM 63.2°F17.3°C 54.8°F12.7°C 74% 9.0 mph N14.5 kmh N 11.0 mph17.7 kmh 29.98 in1015.2 mb 0.00 in0.0 mm 0.00 in0.0 mm 0.00 in0.0 mm
04:53 PM 63.2°F17.3°C 54.4°F12.4°C 73% 8.7 mph N14.0 kmh N 11.0 mph17.7 kmh 29.98 in1015.2 mb 0.00 in0.0 mm 0.00 in0.0 mm 0.00 in0.0 mm
04:54 PM 63.1°F17.3°C 54.3°F12.4°C 73% 7.4 mph N11.9 kmh N 11.0 mph17.7 kmh 29.98 in1015.2 mb 0.00 in0.0 mm 0.00 in0.0 mm 0.00 in0.0 mm
04:55 PM 63.1°F17.3°C 54.3°F12.4°C 73% 9.1 mph N14.6 kmh N 11.0 mph17.7 kmh 29.98 in1015.2 mb 0.00 in0.0 mm 0.00 in0.0 mm 0.00 in0.0 mm
04:56 PM 63.1°F17.3°C 53.9°F12.2°C 72% 8.6 mph N13.8 kmh N 11.0 mph17.7 kmh 29.98 in1015.2 mb 0.00 in0.0 mm 0.00 in0.0 mm 0.00 in0.0 mm
04:57 PM 63.1°F17.3°C 53.9°F12.2°C 72% 8.1 mph N13.0 kmh N 10.0 mph16.1 kmh 29.98 in1015.2 mb 0.00 in0.0 mm 0.00 in0.0 mm 0.00 in0.0 mm
04:58 PM 63.1°F17.3°C 54.7°F12.6°C 74% 10.1 mph NNW16.3 kmh NNW 11.0 mph17.7 kmh 29.98 in1015.2 mb 0.00 in0.0 mm 0.00 in0.0 mm 0.00 in0.0 mm
04:59 PM 63.1°F17.3°C 54.7°F12.6°C 74% 9.6 mph NNW15.4 kmh NNW 11.0 mph17.7 kmh 29.98 in1015.2 mb 0.00 in0.0 mm 0.00 in0.0 mm 0.00 in0.0 mm
05:00 PM 63.2°F17.3°C 54.8°F12.7°C 74% 8.5 mph NNW13.7 kmh NNW 11.0 mph17.7 kmh 29.98 in1015.2 mb 0.00 in0.0 mm 0.00 in0.0 mm 0.00 in0.0 mm
05:01 PM 63.2°F17.3°C 54.8°F12.7°C 74% 9.8 mph NNW15.8 kmh NNW 12.0 mph19.3 kmh 29.98 in1015.2 mb 0.00 in0.0 mm 0.00 in0.0 mm 0.00 in0.0 mm
05:02 PM 63.2°F17.3°C 54.8°F12.7°C 74% 10.5 mph NNW16.9 kmh NNW 13.0 mph20.9 kmh 29.98 in1015.2 mb 0.00 in0.0 mm 0.00 in0.0 mm 0.00 in0.0 mm
05:03 PM 63.2°F17.3°C 55.5°F13.1°C 76% 11.5 mph NNW18.5 kmh NNW 13.0 mph20.9 kmh 29.98 in1015.2 mb 0.00 in0.0 mm 0.00 in0.0 mm 0.00 in0.0 mm
05:04 PM 63.2°F17.3°C 54.8°F12.7°C 74% 10.3 mph NNW16.6 kmh NNW 13.0 mph20.9 kmh 29.99 in1015.6 mb 0.00 in0.0 mm 0.00 in0.0 mm 0.00 in0.0 mm
05:05 PM 63.2°F17.3°C 55.5°F13.1°C 76% 9.8 mph NNW15.8 kmh NNW 12.0 mph19.3 kmh 29.98 in1015.2 mb 0.00 in0.0 mm 0.00 in0.0 mm 0.00 in0.0 mm
05:06 PM 63.2°F17.3°C 55.1°F12.8°C 75% 9.2 mph NNW14.8 kmh NNW 11.0 mph17.7 kmh 29.98 in1015.2 mb 0.00 in0.0 mm 0.00 in0.0 mm 0.00 in0.0 mm
05:07 PM 63.2°F17.3°C 54.8°F12.7°C 74% 10.0 mph NNW16.1 kmh NNW 12.0 mph19.3 kmh 29.98 in1015.2 mb 0.00 in0.0 mm 0.00 in0.0 mm 0.00 in0.0 mm
05:08 PM 63.1°F17.3°C 55.0°F12.8°C 75% 11.0 mph NNW17.7 kmh NNW 12.0 mph19.3 kmh 29.98 in1015.2 mb 0.00 in0.0 mm 0.00 in0.0 mm 0.00 in0.0 mm
05:09 PM 63.0°F17.2°C 54.6°F12.6°C 74% 9.0 mph N14.5 kmh N 11.0 mph17.7 kmh 29.98 in1015.2 mb 0.00 in0.0 mm 0.00 in0.0 mm 0.00 in0.0 mm
05:10 PM 62.9°F17.2°C 55.2°F12.9°C 76% 10.4 mph NNW16.7 kmh NNW 12.0 mph19.3 kmh 29.98 in1015.2 mb 0.00 in0.0 mm 0.00 in0.0 mm 0.00 in0.0 mm
05:11 PM 63.0°F17.2°C 55.3°F12.9°C 76% 10.0 mph N16.1 kmh N 12.0 mph19.3 kmh 29.98 in1015.2 mb 0.00 in0.0 mm 0.00 in0.0 mm 0.00 in0.0 mm
05:12 PM 62.9°F17.2°C 55.2°F12.9°C 76% 9.2 mph NNW14.8 kmh NNW 12.0 mph19.3 kmh 29.98 in1015.2 mb 0.00 in0.0 mm 0.00 in0.0 mm 0.00 in0.0 mm
05:13 PM 63.0°F17.2°C 55.3°F12.9°C 76% 8.6 mph N13.8 kmh N 12.0 mph19.3 kmh 29.98 in1015.2 mb 0.00 in0.0 mm 0.00 in0.0 mm 0.00 in0.0 mm
05:14 PM 62.9°F17.2°C 54.5°F12.5°C 74% 8.6 mph N13.8 kmh N 12.0 mph19.3 kmh 29.98 in1015.2 mb 0.00 in0.0 mm 0.00 in0.0 mm 0.00 in0.0 mm
05:15 PM 62.8°F17.1°C 54.8°F12.7°C 75% 7.8 mph N12.6 kmh N 11.0 mph17.7 kmh 29.98 in1015.2 mb 0.00 in0.0 mm 0.00 in0.0 mm 0.00 in0.0 mm
05:16 PM 62.7°F17.1°C 54.7°F12.6°C 75% 10.3 mph N16.6 kmh N 13.0 mph20.9 kmh 29.98 in1015.2 mb 0.00 in0.0 mm 0.00 in0.0 mm 0.00 in0.0 mm
05:17 PM 62.7°F17.1°C 55.0°F12.8°C 76% 10.3 mph N16.6 kmh N 13.0 mph20.9 kmh 29.98 in1015.2 mb 0.00 in0.0 mm 0.00 in0.0 mm 0.00 in0.0 mm
05:18 PM 62.6°F17.0°C 54.9°F12.7°C 76% 9.6 mph N15.4 kmh N 13.0 mph20.9 kmh 29.98 in1015.2 mb 0.00 in0.0 mm 0.00 in0.0 mm 0.00 in0.0 mm
05:19 PM 62.6°F17.0°C 54.9°F12.7°C 76% 9.7 mph N15.6 kmh N 12.0 mph19.3 kmh 29.98 in1015.2 mb 0.00 in0.0 mm 0.00 in0.0 mm 0.00 in0.0 mm
05:20 PM 62.5°F16.9°C 55.2°F12.9°C 77% 9.2 mph N14.8 kmh N 11.0 mph17.7 kmh 29.98 in1015.2 mb 0.00 in0.0 mm 0.00 in0.0 mm 0.00 in0.0 mm
05:21 PM 62.4°F16.9°C 54.7°F12.6°C 76% 10.0 mph N16.1 kmh N 14.0 mph22.5 kmh 29.98 in1015.2 mb 0.00 in0.0 mm 0.00 in0.0 mm 0.00 in0.0 mm
05:22 PM 62.4°F16.9°C 54.4°F12.4°C 75% 10.5 mph N16.9 kmh N 14.0 mph22.5 kmh 29.98 in1015.2 mb 0.00 in0.0 mm 0.00 in0.0 mm 0.00 in0.0 mm
05:23 PM 62.3°F16.8°C 54.3°F12.4°C 75% 10.5 mph N16.9 kmh N 13.0 mph20.9 kmh 29.98 in1015.2 mb 0.00 in0.0 mm 0.00 in0.0 mm 0.00 in0.0 mm
05:24 PM 62.3°F16.8°C 54.6°F12.6°C 76% 11.1 mph N17.9 kmh N 13.0 mph20.9 kmh 29.98 in1015.2 mb 0.00 in0.0 mm 0.00 in0.0 mm 0.00 in0.0 mm
05:25 PM 62.4°F16.9°C 54.7°F12.6°C 76% 9.1 mph N14.6 kmh N 13.0 mph20.9 kmh 29.98 in1015.2 mb 0.00 in0.0 mm 0.00 in0.0 mm 0.00 in0.0 mm
05:26 PM 62.4°F16.9°C 54.7°F12.6°C 76% 11.8 mph N19.0 kmh N 14.0 mph22.5 kmh 29.98 in1015.2 mb 0.00 in0.0 mm 0.00 in0.0 mm 0.00 in0.0 mm
05:27 PM 62.5°F16.9°C 54.8°F12.7°C 76% 9.0 mph N14.5 kmh N 14.0 mph22.5 kmh 29.98 in1015.2 mb 0.00 in0.0 mm 0.00 in0.0 mm 0.00 in0.0 mm
05:28 PM 62.5°F16.9°C 54.8°F12.7°C 76% 10.0 mph N16.1 kmh N 13.0 mph20.9 kmh 29.98 in1015.2 mb 0.00 in0.0 mm 0.00 in0.0 mm 0.00 in0.0 mm
05:29 PM 62.5°F16.9°C 54.8°F12.7°C 76% 11.0 mph N17.7 kmh N 13.0 mph20.9 kmh 29.98 in1015.2 mb 0.00 in0.0 mm 0.00 in0.0 mm 0.00 in0.0 mm
05:30 PM 62.5°F16.9°C 54.8°F12.7°C 76% 11.2 mph N18.0 kmh N 14.0 mph22.5 kmh 29.98 in1015.2 mb 0.00 in0.0 mm 0.00 in0.0 mm 0.00 in0.0 mm
05:31 PM 62.5°F16.9°C 54.5°F12.5°C 75% 10.3 mph N16.6 kmh N 14.0 mph22.5 kmh 29.98 in1015.2 mb 0.00 in0.0 mm 0.00 in0.0 mm 0.00 in0.0 mm
05:32 PM 62.4°F16.9°C 54.4°F12.4°C 75% 10.8 mph N17.4 kmh N 13.0 mph20.9 kmh 29.98 in1015.2 mb 0.00 in0.0 mm 0.00 in0.0 mm 0.00 in0.0 mm
05:33 PM 62.4°F16.9°C 54.4°F12.4°C 75% 10.1 mph N16.3 kmh N 13.0 mph20.9 kmh 29.98 in1015.2 mb 0.00 in0.0 mm 0.00 in0.0 mm 0.00 in0.0 mm
05:34 PM 62.4°F16.9°C 54.4°F12.4°C 75% 12.3 mph N19.8 kmh N 14.0 mph22.5 kmh 29.98 in1015.2 mb 0.00 in0.0 mm 0.00 in0.0 mm 0.00 in0.0 mm
05:35 PM 62.4°F16.9°C 54.4°F12.4°C 75% 10.4 mph N16.7 kmh N 14.0 mph22.5 kmh 29.98 in1015.2 mb 0.00 in0.0 mm 0.00 in0.0 mm 0.00 in0.0 mm
05:36 PM 62.4°F16.9°C 54.4°F12.4°C 75% 11.4 mph N18.3 kmh N 13.0 mph20.9 kmh 29.98 in1015.2 mb 0.00 in0.0 mm 0.00 in0.0 mm 0.00 in0.0 mm
05:37 PM 62.3°F16.8°C 54.3°F12.4°C 75% 11.9 mph N19.2 kmh N 13.0 mph20.9 kmh 29.98 in1015.2 mb 0.00 in0.0 mm 0.00 in0.0 mm 0.00 in0.0 mm
05:38 PM 62.2°F16.8°C 54.2°F12.3°C 75% 10.8 mph 17.4 kmh 13.0 mph20.9 kmh 29.98 in1015.2 mb 0.00 in0.0 mm 0.00 in0.0 mm 0.00 in0.0 mm
05:39 PM 62.2°F16.8°C 54.5°F12.5°C 76% 10.5 mph N16.9 kmh N 12.0 mph19.3 kmh 29.98 in1015.2 mb 0.00 in0.0 mm 0.00 in0.0 mm 0.00 in0.0 mm
05:40 PM 62.2°F16.8°C 54.9°F12.7°C 77% 9.2 mph N14.8 kmh N 12.0 mph19.3 kmh 29.98 in1015.2 mb 0.00 in0.0 mm 0.00 in0.0 mm 0.00 in0.0 mm
05:41 PM 62.2°F16.8°C 54.5°F12.5°C 76% 10.0 mph NE16.1 kmh NE 13.0 mph20.9 kmh 29.98 in1015.2 mb 0.00 in0.0 mm 0.00 in0.0 mm 0.00 in0.0 mm
05:42 PM 62.2°F16.8°C 53.8°F12.1°C 74% 10.5 mph NNE16.9 kmh NNE 13.0 mph20.9 kmh 29.98 in1015.2 mb 0.00 in0.0 mm 0.00 in0.0 mm 0.00 in0.0 mm
05:43 PM 62.2°F16.8°C 54.2°F12.3°C 75% 10.0 mph NE16.1 kmh NE 13.0 mph20.9 kmh 29.98 in1015.2 mb 0.00 in0.0 mm 0.00 in0.0 mm 0.00 in0.0 mm
05:44 PM 62.1°F16.7°C 54.1°F12.3°C 75% 9.5 mph NE15.3 kmh NE 13.0 mph20.9 kmh 29.98 in1015.2 mb 0.00 in0.0 mm 0.00 in0.0 mm 0.00 in0.0 mm
05:45 PM 62.1°F16.7°C 53.3°F11.8°C 73% 9.3 mph NE15.0 kmh NE 13.0 mph20.9 kmh 29.98 in1015.2 mb 0.00 in0.0 mm 0.00 in0.0 mm 0.00 in0.0 mm
05:46 PM 62.1°F16.7°C 53.7°F12.1°C 74% 10.2 mph NE16.4 kmh NE 11.0 mph17.7 kmh 29.98 in1015.2 mb 0.00 in0.0 mm 0.00 in0.0 mm 0.00 in0.0 mm
05:47 PM 62.2°F16.8°C 53.4°F11.9°C 73% 8.6 mph NE13.8 kmh NE 11.0 mph17.7 kmh 29.98 in1015.2 mb 0.00 in0.0 mm 0.00 in0.0 mm 0.00 in0.0 mm
05:48 PM 62.1°F16.7°C 53.3°F11.8°C 73% 6.8 mph NE10.9 kmh NE 11.0 mph17.7 kmh 29.98 in1015.2 mb 0.00 in0.0 mm 0.00 in0.0 mm 0.00 in0.0 mm
05:49 PM 62.2°F16.8°C 53.1°F11.7°C 72% 5.4 mph NE8.7 kmh NE 10.0 mph16.1 kmh 29.98 in1015.2 mb 0.00 in0.0 mm 0.00 in0.0 mm 0.00 in0.0 mm
05:50 PM 62.3°F16.8°C 53.2°F11.8°C 72% 6.7 mph NE10.8 kmh NE 10.0 mph16.1 kmh 29.98 in1015.2 mb 0.00 in0.0 mm 0.00 in0.0 mm 0.00 in0.0 mm
05:51 PM 62.3°F16.8°C 53.5°F11.9°C 73% 7.1 mph NE11.4 kmh NE 10.0 mph16.1 kmh 29.98 in1015.2 mb 0.00 in0.0 mm 0.00 in0.0 mm 0.00 in0.0 mm
05:52 PM 62.4°F16.9°C 54.0°F12.2°C 74% 12.0 mph NE19.3 kmh NE 14.0 mph22.5 kmh 29.98 in1015.2 mb 0.00 in0.0 mm 0.00 in0.0 mm 0.00 in0.0 mm
05:53 PM 62.4°F16.9°C 54.0°F12.2°C 74% 13.4 mph NE21.6 kmh NE 15.0 mph24.1 kmh 29.98 in1015.2 mb 0.00 in0.0 mm 0.00 in0.0 mm 0.00 in0.0 mm
05:54 PM 62.3°F16.8°C 53.9°F12.2°C 74% 12.5 mph NNE20.1 kmh NNE 15.0 mph24.1 kmh 29.98 in1015.2 mb 0.00 in0.0 mm 0.00 in0.0 mm 0.00 in0.0 mm
05:55 PM 62.3°F16.8°C 53.9°F12.2°C 74% 11.6 mph NE18.7 kmh NE 15.0 mph24.1 kmh 29.98 in1015.2 mb 0.00 in0.0 mm 0.00 in0.0 mm 0.00 in0.0 mm
05:56 PM 62.3°F16.8°C 54.3°F12.4°C 75% 10.4 mph NNE16.7 kmh NNE 13.0 mph20.9 kmh 29.98 in1015.2 mb 0.00 in0.0 mm 0.00 in0.0 mm 0.00 in0.0 mm
05:57 PM 62.2°F16.8°C 54.2°F12.3°C 75% 11.4 mph NNE18.3 kmh NNE 13.0 mph20.9 kmh 29.98 in1015.2 mb 0.00 in0.0 mm 0.00 in0.0 mm 0.00 in0.0 mm
05:58 PM 62.2°F16.8°C 54.5°F12.5°C 76% 10.3 mph NNE16.6 kmh NNE 13.0 mph20.9 kmh 29.98 in1015.2 mb 0.00 in0.0 mm 0.00 in0.0 mm 0.00 in0.0 mm
05:59 PM 62.1°F16.7°C 54.4°F12.4°C 76% 10.4 mph NNE16.7 kmh NNE 12.0 mph19.3 kmh 29.98 in1015.2 mb 0.00 in0.0 mm 0.00 in0.0 mm 0.00 in0.0 mm
06:00 PM 62.1°F16.7°C 54.8°F12.7°C 77% 7.6 mph NNE12.2 kmh NNE 8.0 mph12.9 kmh 29.98 in1015.2 mb 0.00 in0.0 mm 0.00 in0.0 mm 0.00 in0.0 mm
06:01 PM 62.1°F16.7°C 54.4°F12.4°C 76% 8.5 mph NNE13.7 kmh NNE 11.0 mph17.7 kmh 29.98 in1015.2 mb 0.00 in0.0 mm 0.00 in0.0 mm 0.00 in0.0 mm
06:02 PM 62.1°F16.7°C 54.4°F12.4°C 76% 10.0 mph NNE16.1 kmh NNE 12.0 mph19.3 kmh 29.98 in1015.2 mb 0.00 in0.0 mm 0.00 in0.0 mm 0.00 in0.0 mm
06:03 PM 62.0°F16.7°C 54.0°F12.2°C 75% 10.9 mph NNE17.5 kmh NNE 12.0 mph19.3 kmh 29.98 in1015.2 mb 0.00 in0.0 mm 0.00 in0.0 mm 0.00 in0.0 mm
06:04 PM 61.9°F16.6°C 54.2°F12.3°C 76% 10.9 mph NNE17.5 kmh NNE 12.0 mph19.3 kmh 29.98 in1015.2 mb 0.00 in0.0 mm 0.00 in0.0 mm 0.00 in0.0 mm
06:05 PM 61.8°F16.6°C 54.5°F12.5°C 77% 10.3 mph NNE16.6 kmh NNE 12.0 mph19.3 kmh 29.98 in1015.2 mb 0.00 in0.0 mm 0.00 in0.0 mm 0.00 in0.0 mm
06:06 PM 61.8°F16.6°C 54.2°F12.3°C 76% 9.6 mph NNE15.4 kmh NNE 12.0 mph19.3 kmh 29.98 in1015.2 mb 0.00 in0.0 mm 0.00 in0.0 mm 0.00 in0.0 mm
06:07 PM 61.8°F16.6°C 54.5°F12.5°C 77% 10.0 mph NNE16.1 kmh NNE 12.0 mph19.3 kmh 29.98 in1015.2 mb 0.00 in0.0 mm 0.00 in0.0 mm 0.00 in0.0 mm
06:08 PM 61.8°F16.6°C 54.5°F12.5°C 77% 9.3 mph NNE15.0 kmh NNE 11.0 mph17.7 kmh 29.98 in1015.2 mb 0.00 in0.0 mm 0.00 in0.0 mm 0.00 in0.0 mm
06:09 PM 61.7°F16.5°C 54.4°F12.4°C 77% 10.6 mph NNE17.1 kmh NNE 11.0 mph17.7 kmh 29.98 in1015.2 mb 0.00 in0.0 mm 0.00 in0.0 mm 0.00 in0.0 mm
06:10 PM 61.7°F16.5°C 54.4°F12.4°C 77% 10.1 mph NNE16.3 kmh NNE 11.0 mph17.7 kmh 29.98 in1015.2 mb 0.00 in0.0 mm 0.00 in0.0 mm 0.00 in0.0 mm
06:11 PM 61.7°F16.5°C 54.4°F12.4°C 77% 10.5 mph NNE16.9 kmh NNE 11.0 mph17.7 kmh 29.98 in1015.2 mb 0.00 in0.0 mm 0.00 in0.0 mm 0.00 in0.0 mm
06:12 PM 61.7°F16.5°C 54.8°F12.7°C 78% 9.0 mph NNE14.5 kmh NNE 11.0 mph17.7 kmh 29.98 in1015.2 mb 0.00 in0.0 mm 0.00 in0.0 mm 0.00 in0.0 mm
06:13 PM 61.7°F16.5°C 54.4°F12.4°C 77% 11.0 mph NNE17.7 kmh NNE 11.0 mph17.7 kmh 29.98 in1015.2 mb 0.00 in0.0 mm 0.00 in0.0 mm 0.00 in0.0 mm
06:14 PM 61.7°F16.5°C 54.8°F12.7°C 78% 10.0 mph NNE16.1 kmh NNE 11.0 mph17.7 kmh 29.99 in1015.6 mb 0.00 in0.0 mm 0.00 in0.0 mm 0.00 in0.0 mm
06:15 PM 61.7°F16.5°C 54.4°F12.4°C 77% 9.7 mph NNE15.6 kmh NNE 11.0 mph17.7 kmh 29.98 in1015.2 mb 0.00 in0.0 mm 0.00 in0.0 mm 0.00 in0.0 mm
06:16 PM 61.7°F16.5°C 54.4°F12.4°C 77% 9.8 mph NNE15.8 kmh NNE 11.0 mph17.7 kmh 29.98 in1015.2 mb 0.00 in0.0 mm 0.00 in0.0 mm 0.00 in0.0 mm
06:17 PM 61.6°F16.4°C 54.3°F12.4°C 77% 9.1 mph NNE14.6 kmh NNE 11.0 mph17.7 kmh 29.98 in1015.2 mb 0.00 in0.0 mm 0.00 in0.0 mm 0.00 in0.0 mm
06:18 PM 61.6°F16.4°C 54.0°F12.2°C 76% 9.4 mph NE15.1 kmh NE 11.0 mph17.7 kmh 29.98 in1015.2 mb 0.00 in0.0 mm 0.00 in0.0 mm 0.00 in0.0 mm
06:19 PM 61.6°F16.4°C 54.3°F12.4°C 77% 7.5 mph NE12.1 kmh NE 11.0 mph17.7 kmh 29.98 in1015.2 mb 0.00 in0.0 mm 0.00 in0.0 mm 0.00 in0.0 mm
06:20 PM 61.6°F16.4°C 54.0°F12.2°C 76% 7.6 mph NE12.2 kmh NE 12.0 mph19.3 kmh 29.98 in1015.2 mb 0.00 in0.0 mm 0.00 in0.0 mm 0.00 in0.0 mm
06:21 PM 61.7°F16.5°C 53.7°F12.1°C 75% 5.9 mph NE9.5 kmh NE 12.0 mph19.3 kmh 29.98 in1015.2 mb 0.00 in0.0 mm 0.00 in0.0 mm 0.00 in0.0 mm
06:22 PM 61.7°F16.5°C 53.7°F12.1°C 75% 6.2 mph NE10.0 kmh NE 10.0 mph16.1 kmh 29.98 in1015.2 mb 0.00 in0.0 mm 0.00 in0.0 mm 0.00 in0.0 mm
06:23 PM 61.7°F16.5°C 53.7°F12.1°C 75% 5.1 mph NE8.2 kmh NE 10.0 mph16.1 kmh 29.98 in1015.2 mb 0.00 in0.0 mm 0.00 in0.0 mm 0.00 in0.0 mm
06:24 PM 61.7°F16.5°C 53.7°F12.1°C 75% 5.1 mph NE8.2 kmh NE 9.0 mph14.5 kmh 29.98 in1015.2 mb 0.00 in0.0 mm 0.00 in0.0 mm 0.00 in0.0 mm
06:25 PM 61.7°F16.5°C 53.7°F12.1°C 75% 6.0 mph NE9.7 kmh NE 9.0 mph14.5 kmh 29.98 in1015.2 mb 0.00 in0.0 mm 0.00 in0.0 mm 0.00 in0.0 mm
06:26 PM 61.7°F16.5°C 53.3°F11.8°C 74% 9.0 mph NE14.5 kmh NE 10.0 mph16.1 kmh 29.98 in1015.2 mb 0.00 in0.0 mm 0.00 in0.0 mm 0.00 in0.0 mm
06:27 PM 61.6°F16.4°C 53.2°F11.8°C 74% 6.1 mph NE9.8 kmh NE 8.0 mph12.9 kmh 29.98 in1015.2 mb 0.00 in0.0 mm 0.00 in0.0 mm 0.00 in0.0 mm
06:28 PM 61.6°F16.4°C 53.2°F11.8°C 74% 6.5 mph NE10.5 kmh NE 9.0 mph14.5 kmh 29.98 in1015.2 mb 0.00 in0.0 mm 0.00 in0.0 mm 0.00 in0.0 mm
06:29 PM 61.5°F16.4°C 53.5°F11.9°C 75% 8.0 mph NE12.9 kmh NE 11.0 mph17.7 kmh 29.98 in1015.2 mb 0.00 in0.0 mm 0.00 in0.0 mm 0.00 in0.0 mm
06:30 PM 61.5°F16.4°C 53.5°F11.9°C 75% 7.0 mph NE11.3 kmh NE 10.0 mph16.1 kmh 29.98 in1015.2 mb 0.00 in0.0 mm 0.00 in0.0 mm 0.00 in0.0 mm
06:31 PM 61.4°F16.3°C 53.4°F11.9°C 75% 7.0 mph NE11.3 kmh NE 10.0 mph16.1 kmh 29.98 in1015.2 mb 0.00 in0.0 mm 0.00 in0.0 mm 0.00 in0.0 mm
06:32 PM 61.3°F16.3°C 53.3°F11.8°C 75% 6.9 mph NE11.1 kmh NE 9.0 mph14.5 kmh 29.98 in1015.2 mb 0.00 in0.0 mm 0.00 in0.0 mm 0.00 in0.0 mm
06:33 PM 61.3°F16.3°C 53.3°F11.8°C 75% 6.0 mph NE9.7 kmh NE 10.0 mph16.1 kmh 29.99 in1015.6 mb 0.00 in0.0 mm 0.00 in0.0 mm 0.00 in0.0 mm
06:34 PM 61.2°F16.2°C 53.6°F12.0°C 76% 2.4 mph NE3.9 kmh NE 9.0 mph14.5 kmh 29.99 in1015.6 mb 0.00 in0.0 mm 0.00 in0.0 mm 0.00 in0.0 mm
06:35 PM 61.2°F16.2°C 53.6°F12.0°C 76% 3.9 mph NE6.3 kmh NE 5.0 mph8.0 kmh 29.98 in1015.2 mb 0.00 in0.0 mm 0.00 in0.0 mm 0.00 in0.0 mm
06:36 PM 61.2°F16.2°C 53.6°F12.0°C 76% 6.3 mph NE10.1 kmh NE 9.0 mph14.5 kmh 29.98 in1015.2 mb 0.00 in0.0 mm 0.00 in0.0 mm 0.00 in0.0 mm
06:37 PM 61.0°F16.1°C 53.4°F11.9°C 76% 5.9 mph NE9.5 kmh NE 9.0 mph14.5 kmh 29.98 in1015.2 mb 0.00 in0.0 mm 0.00 in0.0 mm 0.00 in0.0 mm
06:38 PM 61.0°F16.1°C 53.4°F11.9°C 76% 4.8 mph NE7.7 kmh NE 8.0 mph12.9 kmh 29.98 in1015.2 mb 0.00 in0.0 mm 0.00 in0.0 mm 0.00 in0.0 mm
06:39 PM 60.9°F16.1°C 53.6°F12.0°C 77% 3.5 mph NE5.6 kmh NE 6.0 mph9.7 kmh 29.98 in1015.2 mb 0.00 in0.0 mm 0.00 in0.0 mm 0.00 in0.0 mm
06:40 PM 60.9°F16.1°C 53.6°F12.0°C 77% 4.5 mph NE7.2 kmh NE 9.0 mph14.5 kmh 29.98 in1015.2 mb 0.00 in0.0 mm 0.00 in0.0 mm 0.00 in0.0 mm
06:41 PM 60.8°F16.0°C 53.5°F11.9°C 77% 7.0 mph NE11.3 kmh NE 10.0 mph16.1 kmh 29.98 in1015.2 mb 0.00 in0.0 mm 0.00 in0.0 mm 0.00 in0.0 mm
06:42 PM 60.7°F15.9°C 53.8°F12.1°C 78% 7.0 mph NE11.3 kmh NE 10.0 mph16.1 kmh 29.98 in1015.2 mb 0.00 in0.0 mm 0.00 in0.0 mm 0.00 in0.0 mm
06:43 PM 60.6°F15.9°C 53.7°F12.1°C 78% 6.0 mph NE9.7 kmh NE 10.0 mph16.1 kmh 29.98 in1015.2 mb 0.00 in0.0 mm 0.00 in0.0 mm 0.00 in0.0 mm
06:44 PM 60.5°F15.8°C 53.6°F12.0°C 78% 6.7 mph NE10.8 kmh NE 9.0 mph14.5 kmh 29.98 in1015.2 mb 0.00 in0.0 mm 0.00 in0.0 mm 0.00 in0.0 mm
06:45 PM 60.4°F15.8°C 53.5°F11.9°C 78% 9.0 mph NE14.5 kmh NE 11.0 mph17.7 kmh 29.98 in1015.2 mb 0.00 in0.0 mm 0.00 in0.0 mm 0.00 in0.0 mm
06:46 PM 60.4°F15.8°C 53.5°F11.9°C 78% 9.0 mph NE14.5 kmh NE 12.0 mph19.3 kmh 29.98 in1015.2 mb 0.00 in0.0 mm 0.00 in0.0 mm 0.00 in0.0 mm
06:47 PM 60.4°F15.8°C 53.5°F11.9°C 78% 6.0 mph NE9.7 kmh NE 8.0 mph12.9 kmh 29.98 in1015.2 mb 0.00 in0.0 mm 0.00 in0.0 mm 0.00 in0.0 mm
06:48 PM 60.2°F15.7°C 53.3°F11.8°C 78% 8.2 mph NE13.2 kmh NE 11.0 mph17.7 kmh 29.98 in1015.2 mb 0.00 in0.0 mm 0.00 in0.0 mm 0.00 in0.0 mm
06:49 PM 60.2°F15.7°C 53.3°F11.8°C 78% 4.9 mph NE7.9 kmh NE 11.0 mph17.7 kmh 29.99 in1015.6 mb 0.00 in0.0 mm 0.00 in0.0 mm 0.00 in0.0 mm
06:50 PM 60.2°F15.7°C 53.3°F11.8°C 78% 5.9 mph NE9.5 kmh NE 9.0 mph14.5 kmh 29.98 in1015.2 mb 0.00 in0.0 mm 0.00 in0.0 mm 0.00 in0.0 mm
06:51 PM 60.1°F15.6°C 53.2°F11.8°C 78% 8.0 mph NE12.9 kmh NE 10.0 mph16.1 kmh 29.99 in1015.6 mb 0.00 in0.0 mm 0.00 in0.0 mm 0.00 in0.0 mm
06:52 PM 60.1°F15.6°C 53.2°F11.8°C 78% 6.0 mph NE9.7 kmh NE 9.0 mph14.5 kmh 29.99 in1015.6 mb 0.00 in0.0 mm 0.00 in0.0 mm 0.00 in0.0 mm
06:53 PM 60.0°F15.6°C 53.1°F11.7°C 78% 5.3 mph NE8.5 kmh NE 6.0 mph9.7 kmh 29.99 in1015.6 mb 0.00 in0.0 mm 0.00 in0.0 mm 0.00 in0.0 mm
06:54 PM 59.9°F15.5°C 53.0°F11.7°C 78% 6.0 mph NE9.7 kmh NE 8.0 mph12.9 kmh 29.99 in1015.6 mb 0.00 in0.0 mm 0.00 in0.0 mm 0.00 in0.0 mm
06:55 PM 59.9°F15.5°C 53.0°F11.7°C 78% 7.0 mph NE11.3 kmh NE 12.0 mph19.3 kmh 29.99 in1015.6 mb 0.00 in0.0 mm 0.00 in0.0 mm 0.00 in0.0 mm
06:56 PM 59.8°F15.4°C 52.9°F11.6°C 78% 6.4 mph NE10.3 kmh NE 8.0 mph12.9 kmh 29.99 in1015.6 mb 0.00 in0.0 mm 0.00 in0.0 mm 0.00 in0.0 mm
06:57 PM 59.7°F15.4°C 52.8°F11.6°C 78% 5.0 mph NE8.0 kmh NE 10.0 mph16.1 kmh 29.99 in1015.6 mb 0.00 in0.0 mm 0.00 in0.0 mm 0.00 in0.0 mm
06:58 PM 59.6°F15.3°C 53.1°F11.7°C 79% 5.0 mph NE8.0 kmh NE 7.0 mph11.3 kmh 29.99 in1015.6 mb 0.00 in0.0 mm 0.00 in0.0 mm 0.00 in0.0 mm
06:59 PM 59.6°F15.3°C 53.1°F11.7°C 79% 4.4 mph NE7.1 kmh NE 6.0 mph9.7 kmh 29.99 in1015.6 mb 0.00 in0.0 mm 0.00 in0.0 mm 0.00 in0.0 mm
07:00 PM 59.5°F15.3°C 53.0°F11.7°C 79% 5.3 mph NE8.5 kmh NE 8.0 mph12.9 kmh 29.99 in1015.6 mb 0.00 in0.0 mm 0.00 in0.0 mm 0.00 in0.0 mm
07:01 PM 59.5°F15.3°C 53.0°F11.7°C 79% 4.8 mph NE7.7 kmh NE 8.0 mph12.9 kmh 29.99 in1015.6 mb 0.00 in0.0 mm 0.00 in0.0 mm 0.00 in0.0 mm
07:02 PM 59.4°F15.2°C 52.9°F11.6°C 79% 4.5 mph NE7.2 kmh NE 6.0 mph9.7 kmh 29.99 in1015.6 mb 0.00 in0.0 mm 0.00 in0.0 mm 0.00 in0.0 mm
07:03 PM 59.4°F15.2°C 52.9°F11.6°C 79% 5.0 mph NE8.0 kmh NE 8.0 mph12.9 kmh 29.99 in1015.6 mb 0.00 in0.0 mm 0.00 in0.0 mm 0.00 in0.0 mm
07:04 PM 59.3°F15.2°C 52.8°F11.6°C 79% 6.0 mph NE9.7 kmh NE 9.0 mph14.5 kmh 29.99 in1015.6 mb 0.00 in0.0 mm 0.00 in0.0 mm 0.00 in0.0 mm
07:05 PM 59.2°F15.1°C 52.7°F11.5°C 79% 6.0 mph NE9.7 kmh NE 7.0 mph11.3 kmh 29.99 in1015.6 mb 0.00 in0.0 mm 0.00 in0.0 mm 0.00 in0.0 mm
07:06 PM 59.2°F15.1°C 52.7°F11.5°C 79% 4.9 mph NE7.9 kmh NE 9.0 mph14.5 kmh 29.99 in1015.6 mb 0.00 in0.0 mm 0.00 in0.0 mm 0.00 in0.0 mm
07:07 PM 59.1°F15.1°C 52.9°F11.6°C 80% 4.3 mph NE6.9 kmh NE 9.0 mph14.5 kmh 29.99 in1015.6 mb 0.00 in0.0 mm 0.00 in0.0 mm 0.00 in0.0 mm
07:08 PM 59.1°F15.1°C 52.9°F11.6°C 80% 5.0 mph NE8.0 kmh NE 8.0 mph12.9 kmh 29.99 in1015.6 mb 0.00 in0.0 mm 0.00 in0.0 mm 0.00 in0.0 mm
07:09 PM 59.0°F15.0°C 52.8°F11.6°C 80% 4.0 mph NE6.4 kmh NE 5.0 mph8.0 kmh 29.99 in1015.6 mb 0.00 in0.0 mm 0.00 in0.0 mm 0.00 in0.0 mm
07:10 PM 58.9°F14.9°C 52.7°F11.5°C 80% 4.3 mph NE6.9 kmh NE 7.0 mph11.3 kmh 29.99 in1015.6 mb 0.00 in0.0 mm 0.00 in0.0 mm 0.00 in0.0 mm
07:11 PM 58.9°F14.9°C 52.7°F11.5°C 80% 5.0 mph ENE8.0 kmh ENE 9.0 mph14.5 kmh 29.99 in1015.6 mb 0.00 in0.0 mm 0.00 in0.0 mm 0.00 in0.0 mm
07:12 PM 58.8°F14.9°C 52.6°F11.4°C 80% 6.0 mph ENE9.7 kmh ENE 9.0 mph14.5 kmh 29.99 in1015.6 mb 0.00 in0.0 mm 0.00 in0.0 mm 0.00 in0.0 mm
07:13 PM 58.7°F14.8°C 52.5°F11.4°C 80% 5.8 mph NE9.3 kmh NE 7.0 mph11.3 kmh 29.99 in1015.6 mb 0.00 in0.0 mm 0.00 in0.0 mm 0.00 in0.0 mm
07:14 PM 58.6°F14.8°C 52.4°F11.3°C 80% 4.8 mph ENE7.7 kmh ENE 7.0 mph11.3 kmh 29.99 in1015.6 mb 0.00 in0.0 mm 0.00 in0.0 mm 0.00 in0.0 mm
07:15 PM 58.6°F14.8°C 52.4°F11.3°C 80% 5.0 mph ENE8.0 kmh ENE 6.0 mph9.7 kmh 29.99 in1015.6 mb 0.00 in0.0 mm 0.00 in0.0 mm 0.00 in0.0 mm
07:16 PM 58.5°F14.7°C 52.4°F11.3°C 80% 4.0 mph ENE6.4 kmh ENE 5.0 mph8.0 kmh 29.99 in1015.6 mb 0.00 in0.0 mm 0.00 in0.0 mm 0.00 in0.0 mm
07:17 PM 58.4°F14.7°C 52.6°F11.4°C 81% 4.0 mph NE6.4 kmh NE 5.0 mph8.0 kmh 29.99 in1015.6 mb 0.00 in0.0 mm 0.00 in0.0 mm 0.00 in0.0 mm
07:18 PM 58.3°F14.6°C 52.5°F11.4°C 81% 5.1 mph ENE8.2 kmh ENE 7.0 mph11.3 kmh 29.99 in1015.6 mb 0.00 in0.0 mm 0.00 in0.0 mm 0.00 in0.0 mm
07:19 PM 58.2°F14.6°C 52.4°F11.3°C 81% 4.1 mph NE6.6 kmh NE 7.0 mph11.3 kmh 29.99 in1015.6 mb 0.00 in0.0 mm 0.00 in0.0 mm 0.00 in0.0 mm
07:20 PM 58.2°F14.6°C 52.4°F11.3°C 81% 4.4 mph NE7.1 kmh NE 5.0 mph8.0 kmh 29.99 in1015.6 mb 0.00 in0.0 mm 0.00 in0.0 mm 0.00 in0.0 mm
07:21 PM 58.1°F14.5°C 52.3°F11.3°C 81% 4.0 mph NE6.4 kmh NE 6.0 mph9.7 kmh 29.99 in1015.6 mb 0.00 in0.0 mm 0.00 in0.0 mm 0.00 in0.0 mm
07:22 PM 58.0°F14.4°C 52.2°F11.2°C 81% 4.0 mph NE6.4 kmh NE 5.0 mph8.0 kmh 29.99 in1015.6 mb 0.00 in0.0 mm 0.00 in0.0 mm 0.00 in0.0 mm
07:23 PM 58.0°F14.4°C 52.2°F11.2°C 81% 3.9 mph NE6.3 kmh NE 5.0 mph8.0 kmh 29.99 in1015.6 mb 0.00 in0.0 mm 0.00 in0.0 mm 0.00 in0.0 mm
07:24 PM 57.9°F14.4°C 52.1°F11.2°C 81% 5.0 mph NE8.0 kmh NE 6.0 mph9.7 kmh 29.99 in1015.6 mb 0.00 in0.0 mm 0.00 in0.0 mm 0.00 in0.0 mm
07:25 PM 57.9°F14.4°C 52.1°F11.2°C 81% 3.0 mph NE4.8 kmh NE 4.0 mph6.4 kmh 29.99 in1015.6 mb 0.00 in0.0 mm 0.00 in0.0 mm 0.00 in0.0 mm
07:26 PM 57.8°F14.3°C 52.0°F11.1°C 81% 3.7 mph NE6.0 kmh NE 5.0 mph8.0 kmh 29.99 in1015.6 mb 0.00 in0.0 mm 0.00 in0.0 mm 0.00 in0.0 mm
07:27 PM 57.8°F14.3°C 52.3°F11.3°C 82% 2.8 mph NE4.5 kmh NE 5.0 mph8.0 kmh 29.99 in1015.6 mb 0.00 in0.0 mm 0.00 in0.0 mm 0.00 in0.0 mm
07:28 PM 57.7°F14.3°C 52.2°F11.2°C 82% 3.0 mph ENE4.8 kmh ENE 4.0 mph6.4 kmh 30.00 in1015.9 mb 0.00 in0.0 mm 0.00 in0.0 mm 0.00 in0.0 mm
07:29 PM 57.7°F14.3°C 52.2°F11.2°C 82% 3.0 mph NE4.8 kmh NE 4.0 mph6.4 kmh 29.99 in1015.6 mb 0.00 in0.0 mm 0.00 in0.0 mm 0.00 in0.0 mm
07:30 PM 57.6°F14.2°C 52.1°F11.2°C 82% 3.0 mph ENE4.8 kmh ENE 4.0 mph6.4 kmh 30.00 in1015.9 mb 0.00 in0.0 mm 0.00 in0.0 mm 0.00 in0.0 mm
07:31 PM 57.6°F14.2°C 52.1°F11.2°C 82% 3.7 mph NE6.0 kmh NE 5.0 mph8.0 kmh 30.00 in1015.9 mb 0.00 in0.0 mm 0.00 in0.0 mm 0.00 in0.0 mm
07:32 PM 57.5°F14.2°C 52.0°F11.1°C 82% 3.7 mph NE6.0 kmh NE 5.0 mph8.0 kmh 30.00 in1015.9 mb 0.00 in0.0 mm 0.00 in0.0 mm 0.00 in0.0 mm
07:33 PM 57.5°F14.2°C 52.0°F11.1°C 82% 3.3 mph NE5.3 kmh NE 5.0 mph8.0 kmh 30.00 in1015.9 mb 0.00 in0.0 mm 0.00 in0.0 mm 0.00 in0.0 mm
07:34 PM 57.4°F14.1°C 51.9°F11.1°C 82% 3.7 mph NE6.0 kmh NE